Provisional Data: Pine Creek near Telescope, PA


Please select a monitoring station.
Please select start date.
Please select start date.

Toggle Unit: C/F Toggle Unit: C/F
Sample Time Temperature (C) Temperature (F) Specific Conductivity (mS/cm) pH   Turbidity (NTU+) DO (mg/L)
10/22/2021 12:00:00 AM 12.14 53.852 0.082 7.01 0.81 9.5
10/22/2021 12:15:00 AM 12.11 53.798 0.082 7.02 1.27 9.55
10/22/2021 12:30:00 AM 12.07 53.726 0.082 7.02 1.08 9.6
10/22/2021 12:45:00 AM 12.03 53.654 0.082 7.02 1.17 9.63
10/22/2021 1:00:00 AM 11.99 53.582 0.082 7.03 1.16 9.65
10/22/2021 1:15:00 AM 11.96 53.528 0.082 7.02 1.04 9.67
10/22/2021 1:30:00 AM 11.92 53.456 0.079 7.03 2.33 9.69
10/22/2021 1:45:00 AM 11.88 53.384 0.082 7.03 1.02 9.71
10/22/2021 2:00:00 AM 11.84 53.312 0.081 7.02 1.02 9.72
10/22/2021 2:15:00 AM 11.8 53.24 0.081 7.02 0.9 9.74
10/22/2021 2:30:00 AM 11.77 53.186 0.081 7.03 0.94 9.77
10/22/2021 2:45:00 AM 11.74 53.132 0.081 7.02 1 9.78
10/22/2021 3:00:00 AM 11.71 53.078 0.081 7.02 1.04 9.8
10/22/2021 3:15:00 AM 11.68 53.024 0.082 7.05 1.15 9.81
10/22/2021 3:30:00 AM 11.66 52.988 0.082 7.04 1.12 9.83
10/22/2021 3:45:00 AM 11.63 52.934 0.082 7.04 1.05 9.83
10/22/2021 4:00:00 AM 11.61 52.898 0.083 7.04 1.05 9.83
10/22/2021 4:15:00 AM 11.59 52.862 0.083 7.05 1.13 9.85
10/22/2021 4:30:00 AM 11.57 52.826 0.083 7.05 0.89 9.83
10/22/2021 4:45:00 AM 11.54 52.772 0.083 7.06 0.94 9.89
10/22/2021 5:00:00 AM 11.51 52.718 0.083 7.07 0.83 9.92
10/22/2021 5:15:00 AM 11.5 52.7 0.083 7.12 0.95 9.9
10/22/2021 5:30:00 AM 11.48 52.664 0.083 7.06 0.89 9.91
10/22/2021 5:45:00 AM 11.46 52.628 0.083 7.03 1.02 9.92
10/22/2021 6:00:00 AM 11.44 52.592 0.083 7.06 0.88 9.92
10/22/2021 6:15:00 AM 11.43 52.574 0.083 7.07 1.77 9.92
10/22/2021 6:30:00 AM 11.41 52.538 0.084 7.07 1.29 9.92
10/22/2021 6:45:00 AM 11.4 52.52 0.084 7.07 1.85 9.92
10/22/2021 7:00:00 AM 11.38 52.484 0.084 7.07 2.14 9.92
10/22/2021 7:15:00 AM 11.36 52.448 0.084 7.06 2.34 9.93
10/22/2021 7:30:00 AM 11.35 52.43 0.084 7.06 0.76 9.92
10/22/2021 7:45:00 AM 11.33 52.394 0.084 7.06 0.68 9.95
10/22/2021 8:00:00 AM 11.32 52.376 0.084 7.08 0.73 10
10/22/2021 8:15:00 AM 11.31 52.358 0.084 7.09 0.66 10.06
10/22/2021 8:30:00 AM 11.32 52.376 0.081 7.1 1.88 10.11
10/22/2021 8:45:00 AM 11.32 52.376 0.083 7.11 0.68 10.17
10/22/2021 9:00:00 AM 11.32 52.376 0.083 7.12 0.69 10.21
10/22/2021 9:15:00 AM 11.31 52.358 0.083 7.14 0.63 10.26
10/22/2021 9:30:00 AM 11.32 52.376 0.083 7.15 0.56 10.33
10/22/2021 9:45:00 AM 11.33 52.394 0.083 7.15 0.65 10.36
10/22/2021 10:00:00 AM 11.33 52.394 0.083 7.16 0.59 10.39
10/22/2021 10:15:00 AM 11.35 52.43 0.083 7.17 0.6 10.43
10/22/2021 10:30:00 AM 11.34 52.412 0.083 7.17 0.64 10.45
10/22/2021 10:45:00 AM 11.34 52.412 0.083 7.18 0.57 10.47
10/22/2021 11:00:00 AM 11.32 52.376 0.083 7.17 0.58 10.45
10/22/2021 11:15:00 AM 11.35 52.43 0.083 7.2 0.53 10.5
10/22/2021 11:30:00 AM 11.38 52.484 0.083 7.21 0.56 10.56
10/22/2021 11:45:00 AM 11.4 52.52 0.082 7.22 0.55 10.59
10/22/2021 12:00:00 PM 11.38 52.484 0.082 7.21 0.53 10.57
10/22/2021 12:15:00 PM 11.38 52.484 0.082 7.21 0.57 10.56
10/22/2021 12:30:00 PM 11.4 52.52 0.082 7.22 0.57 10.6
10/22/2021 12:45:00 PM 11.44 52.592 0.082 7.23 0.52 10.64
10/22/2021 1:00:00 PM 11.46 52.628 0.082 7.25 0.6 10.67
10/22/2021 1:15:00 PM 11.51 52.718 0.082 7.26 0.59 10.68
10/22/2021 1:30:00 PM 11.56 52.808 0.082 7.27 0.52 10.71
10/22/2021 1:45:00 PM 11.58 52.844 0.082 7.28 0.57 10.72
10/22/2021 2:00:00 PM 11.62 52.916 0.082 7.27 0.53 10.7
10/22/2021 2:15:00 PM 11.61 52.898 0.082 7.27 0.5 10.68
10/22/2021 2:30:00 PM 11.69 53.042 0.082 7.28 0.56 10.67
10/22/2021 2:45:00 PM 11.71 53.078 0.082 7.28 0.5 10.66
10/22/2021 3:00:00 PM 11.68 53.024 0.082 7.26 0.58 10.62
10/22/2021 3:15:00 PM 11.66 52.988 0.082 7.24 0.51 10.51
10/22/2021 3:30:00 PM 11.66 52.988 0.082 7.22 0.53 10.45
10/22/2021 3:45:00 PM 11.63 52.934 0.082 7.21 0.54 10.44
10/22/2021 4:00:00 PM 11.58 52.844 0.082 7.2 0.53 10.41
10/22/2021 4:15:00 PM 11.53 52.754 0.082 7.19 0.5 10.35
10/22/2021 4:30:00 PM 11.5 52.7 0.082 7.17 0.48 10.35
10/22/2021 4:45:00 PM 11.48 52.664 0.082 7.17 0.52 10.33
10/22/2021 5:00:00 PM 11.45 52.61 0.082 7.16 0.51 10.27
10/22/2021 5:15:00 PM 11.44 52.592 0.082 7.12 0.46 10.19
10/22/2021 5:30:00 PM 11.42 52.556 0.082 7.1 0.47 10.12
10/22/2021 5:45:00 PM 11.37 52.466 0.083 7.09 0.46 10.09
10/22/2021 6:00:00 PM 11.29 52.322 0.083 7.1 0.57 10.14
10/22/2021 6:15:00 PM 11.23 52.214 0.083 7.1 0.47 10.1
10/22/2021 6:30:00 PM 11.18 52.124 0.083 7.07 0.49 10.07
10/22/2021 6:45:00 PM 11.14 52.052 0.083 7.07 0.48 10.02
10/22/2021 7:00:00 PM 11.09 51.962 0.083 7.06 0.54 10
10/22/2021 7:15:00 PM 10.98 51.764 0.083 7.07 0.58 10.06
10/22/2021 7:30:00 PM 10.91 51.638 0.083 7.07 0.56 10.08
10/22/2021 7:45:00 PM 10.85 51.53 0.084 7.07 0.6 10.08
10/22/2021 8:00:00 PM 10.79 51.422 0.084 7.06 0.6 10.07
10/22/2021 8:15:00 PM 10.75 51.35 0.084 7.06 0.58 10.05
10/22/2021 8:30:00 PM 10.71 51.278 0.084 7.05 0.48 10.05
10/22/2021 8:45:00 PM 10.61 51.098 0.084 7.06 0.55 10.09
10/22/2021 9:00:00 PM 10.56 51.008 0.084 7.05 0.54 10.1
10/22/2021 9:15:00 PM 10.51 50.918 0.084 7.04 0.58 10.1
10/22/2021 9:30:00 PM 10.42 50.756 0.084 7.05 0.53 10.14
10/22/2021 9:45:00 PM 10.35 50.63 0.084 7.04 0.52 10.16
10/22/2021 10:00:00 PM 10.34 50.612 0.084 7.05 0.47 10.15
10/22/2021 10:15:00 PM 10.27 50.486 0.084 7.05 0.53 10.19
10/22/2021 10:30:00 PM 10.23 50.414 0.084 7.05 0.55 10.2
10/22/2021 10:45:00 PM 10.18 50.324 0.084 7.05 0.48 10.21
10/22/2021 11:00:00 PM 10.14 50.252 0.084 7.05 0.51 10.23
10/22/2021 11:15:00 PM 10.09 50.162 0.084 7.05 0.5 10.25
10/22/2021 11:30:00 PM 10.07 50.126 0.084 7.05 0.44 10.24
10/22/2021 11:45:00 PM 10.01 50.018 0.084 7.05 0.51 10.27
10/23/2021 12:00:00 AM 10 50 0.084 7.05 0.79 10.25
10/23/2021 12:15:00 AM 9.97 49.946 0.084 7.05 0.44 10.26
10/23/2021 12:30:00 AM 9.93 49.874 0.084 7.05 0.49 10.26
10/23/2021 12:45:00 AM 9.9 49.82 0.084 7.04 0.56 10.27
10/23/2021 1:00:00 AM 9.85 49.73 0.084 7.04 0.49 10.3
10/23/2021 1:15:00 AM 9.81 49.658 0.084 7.04 0.49 10.29
10/23/2021 1:30:00 AM 9.8 49.64 0.084 7.05 0.45 10.27
10/23/2021 1:45:00 AM 9.76 49.568 0.084 7.03 0.49 10.29
10/23/2021 2:00:00 AM 9.75 49.55 0.084 7.03 0.46 10.28
10/23/2021 2:15:00 AM 9.72 49.496 0.084 7.04 0.42 10.28
10/23/2021 2:30:00 AM 9.66 49.388 0.084 7.04 0.45 10.31
10/23/2021 2:45:00 AM 9.63 49.334 0.084 7.04 0.47 10.33
10/23/2021 3:00:00 AM 9.58 49.244 0.084 7.04 0.44 10.36
10/23/2021 3:15:00 AM 9.57 49.226 0.084 7.04 0.42 10.35
10/23/2021 3:30:00 AM 9.56 49.208 0.084 7.04 0.6 10.36
10/23/2021 3:45:00 AM 9.52 49.136 0.084 7.04 0.41 10.36
10/23/2021 4:00:00 AM 9.51 49.118 0.084 7.04 0.45 10.37
10/23/2021 4:15:00 AM 9.5 49.1 0.084 7.04 0.43 10.36
10/23/2021 4:30:00 AM 9.46 49.028 0.084 7.04 0.45 10.38
10/23/2021 4:45:00 AM 9.45 49.01 0.084 7.04 0.37 10.37
10/23/2021 5:00:00 AM 9.44 48.992 0.084 7.04 0.45 10.36
10/23/2021 5:15:00 AM 9.39 48.902 0.084 7.04 0.42 10.39
10/23/2021 5:30:00 AM 9.34 48.812 0.084 7.03 0.46 10.41
10/23/2021 5:45:00 AM 9.32 48.776 0.084 7.03 0.41 10.4
10/23/2021 6:00:00 AM 9.28 48.704 0.084 7.04 0.4 10.42
10/23/2021 6:15:00 AM 9.25 48.65 0.084 7.04 0.43 10.43
10/23/2021 6:30:00 AM 9.23 48.614 0.084 7.04 0.44 10.43
10/23/2021 6:45:00 AM 9.21 48.578 0.084 7.04 0.6 10.45
10/23/2021 7:00:00 AM 9.18 48.524 0.084 7.04 0.62 10.46
10/23/2021 7:15:00 AM 9.17 48.506 0.084 7.04 1.37 10.46
10/23/2021 7:30:00 AM 9.15 48.47 0.084 7.05 1.15 10.46
10/23/2021 7:45:00 AM 9.13 48.434 0.084 7.04 0.68 10.47
10/23/2021 8:00:00 AM 9.12 48.416 0.084 7.04 0.59 10.49
10/23/2021 8:15:00 AM 9.1 48.38 0.084 7.04 0.43 10.53
10/23/2021 8:30:00 AM 9.09 48.362 0.084 7.05 0.54 10.54
10/23/2021 8:45:00 AM 9.08 48.344 0.084 7.06 0.39 10.58
10/23/2021 9:00:00 AM 9.08 48.344 0.084 7.06 0.42 10.64
10/23/2021 9:15:00 AM 9.08 48.344 0.084 7.07 0.4 10.7
10/23/2021 9:30:00 AM 9.09 48.362 0.084 7.08 0.39 10.73
10/23/2021 9:45:00 AM 9.09 48.362 0.084 7.08 0.37 10.77
10/23/2021 10:00:00 AM 9.08 48.344 0.083 7.08 0.41 10.8
10/23/2021 10:15:00 AM 9.1 48.38 0.083 7.1 0.42 10.85
10/23/2021 10:30:00 AM 9.11 48.398 0.083 7.1 0.39 10.9
10/23/2021 10:45:00 AM 9.12 48.416 0.083 7.11 0.38 10.95
10/23/2021 11:00:00 AM 9.15 48.47 0.083 7.12 0.4 11.01
10/23/2021 11:15:00 AM 9.18 48.524 0.083 7.14 0.36 11.06
10/23/2021 11:30:00 AM 9.2 48.56 0.083 7.13 0.41 11.07
10/23/2021 11:45:00 AM 9.21 48.578 0.082 7.14 0.41 11.06
10/23/2021 12:00:00 PM 9.29 48.722 0.082 7.15 0.36 11.12
10/23/2021 12:15:00 PM 9.34 48.812 0.082 7.16 0.37 11.13
10/23/2021 12:30:00 PM 9.4 48.92 0.082 7.17 0.37 11.15
10/23/2021 12:45:00 PM 9.46 49.028 0.082 7.18 0.34 11.16
10/23/2021 1:00:00 PM 9.5 49.1 0.082 7.17 0.37 11.14
10/23/2021 1:15:00 PM 9.52 49.136 0.082 7.17 0.4 11.12
10/23/2021 1:30:00 PM 9.55 49.19 0.082 7.16 0.38 11.11
10/23/2021 1:45:00 PM 9.61 49.298 0.081 7.18 0.37 11.12
10/23/2021 2:00:00 PM 9.67 49.406 0.081 7.18 0.39 11.11
10/23/2021 2:15:00 PM 9.67 49.406 0.081 7.17 0.42 11.08
10/23/2021 2:30:00 PM 9.72 49.496 0.081 7.18 0.43 11.08
10/23/2021 2:45:00 PM 9.75 49.55 0.081 7.18 0.42 11.08
10/23/2021 3:00:00 PM 9.77 49.586 0.081 7.18 0.38 11.05
10/23/2021 3:15:00 PM 9.79 49.622 0.081 7.18 0.39 11.02
10/23/2021 3:30:00 PM 9.81 49.658 0.081 7.18 0.42 10.99
10/23/2021 3:45:00 PM 9.83 49.694 0.081 7.17 0.42 10.97
10/23/2021 4:00:00 PM 9.85 49.73 0.081 7.18 0.39 10.97
10/23/2021 4:15:00 PM 9.85 49.73 0.081 7.17 0.42 10.94
10/23/2021 4:30:00 PM 9.85 49.73 0.081 7.17 0.4 10.89
10/23/2021 4:45:00 PM 9.87 49.766 0.081 7.16 0.41 10.85
10/23/2021 5:00:00 PM 9.88 49.784 0.081 7.16 0.36 10.81
10/23/2021 5:15:00 PM 9.88 49.784 0.081 7.15 0.39 10.79
10/23/2021 5:30:00 PM 9.88 49.784 0.081 7.14 0.42 10.72
10/23/2021 5:45:00 PM 9.88 49.784 0.081 7.13 0.47 10.66
10/23/2021 6:00:00 PM 9.87 49.766 0.082 7.11 0.38 10.61
10/23/2021 6:15:00 PM 9.86 49.748 0.082 7.11 0.42 10.56
10/23/2021 6:30:00 PM 9.86 49.748 0.082 7.1 0.41 10.51
10/23/2021 6:45:00 PM 9.85 49.73 0.082 7.1 0.44 10.47
10/23/2021 7:00:00 PM 9.83 49.694 0.082 7.09 0.43 10.44
10/23/2021 7:15:00 PM 9.82 49.676 0.082 7.09 0.5 10.42
10/23/2021 7:30:00 PM 9.8 49.64 0.082 7.09 0.55 10.42
10/23/2021 7:45:00 PM 9.8 49.64 0.082 7.08 0.41 10.37
10/23/2021 8:00:00 PM 9.78 49.604 0.082 7.07 0.45 10.35
10/23/2021 8:15:00 PM 9.76 49.568 0.083 7.07 0.46 10.37
10/23/2021 8:30:00 PM 9.74 49.532 0.083 7.07 0.5 10.37
10/23/2021 8:45:00 PM 9.72 49.496 0.083 7.07 0.45 10.38
10/23/2021 9:00:00 PM 9.71 49.478 0.083 7.07 0.46 10.35
10/23/2021 9:15:00 PM 9.7 49.46 0.083 7.06 0.47 10.33
10/23/2021 9:30:00 PM 9.69 49.442 0.083 7.06 0.39 10.32
10/23/2021 9:45:00 PM 9.67 49.406 0.083 7.06 0.42 10.32
10/23/2021 10:00:00 PM 9.65 49.37 0.083 7.01 0.45 10.34
10/23/2021 10:15:00 PM 9.63 49.334 0.083 7.06 0.48 10.33
10/23/2021 10:30:00 PM 9.61 49.298 0.083 7.05 0.47 10.34
10/23/2021 10:45:00 PM 9.58 49.244 0.083 7.05 0.6 10.37
10/23/2021 11:00:00 PM 9.56 49.208 0.083 7.05 0.49 10.38
10/23/2021 11:15:00 PM 9.55 49.19 0.083 7.06 0.39 10.36
10/23/2021 11:30:00 PM 9.51 49.118 0.083 7.06 0.46 10.4
10/23/2021 11:45:00 PM 9.48 49.064 0.083 7.05 0.55 10.41
10/24/2021 12:00:00 AM 9.47 49.046 0.083 7.05 0.5 10.39
10/24/2021 12:15:00 AM 9.42 48.956 0.083 7.05 0.44 10.41
10/24/2021 12:30:00 AM 9.36 48.848 0.083 7.05 0.38 10.42
10/24/2021 12:45:00 AM 9.34 48.812 0.083 7.05 0.44 10.43
10/24/2021 1:00:00 AM 9.3 48.74 0.083 7.04 0.44 10.45
10/24/2021 1:15:00 AM 9.29 48.722 0.083 7.05 0.41 10.44
10/24/2021 1:30:00 AM 9.26 48.668 0.083 7.04 0.42 10.44
10/24/2021 1:45:00 AM 9.25 48.65 0.083 7.05 0.4 10.44
10/24/2021 2:00:00 AM 9.21 48.578 0.083 7.04 0.39 10.47
10/24/2021 2:15:00 AM 9.19 48.542 0.083 7.04 0.41 10.47
10/24/2021 2:30:00 AM 9.17 48.506 0.083 7.02 0.58 10.48
10/24/2021 2:45:00 AM 9.14 48.452 0.083 7.04 0.39 10.49
10/24/2021 3:00:00 AM 9.12 48.416 0.083 7.04 0.41 10.51
10/24/2021 3:15:00 AM 9.11 48.398 0.083 7.04 0.38 10.49
10/24/2021 3:30:00 AM 9.08 48.344 0.083 7.04 0.37 10.49
10/24/2021 3:45:00 AM 9.05 48.29 0.083 7.04 0.42 10.5
10/24/2021 4:00:00 AM 9.03 48.254 0.083 7.04 0.41 10.49
10/24/2021 4:15:00 AM 9 48.2 0.083 7.04 0.41 10.5
10/24/2021 4:30:00 AM 8.98 48.164 0.083 7.04 0.46 10.53
10/24/2021 4:45:00 AM 8.96 48.128 0.083 7.04 0.39 10.52
10/24/2021 5:00:00 AM 8.94 48.092 0.083 7.04 0.37 10.53
10/24/2021 5:15:00 AM 8.92 48.056 0.083 7.04 0.35 10.53
10/24/2021 5:30:00 AM 8.87 47.966 0.083 7.04 0.42 10.58
10/24/2021 5:45:00 AM 8.85 47.93 0.083 7.04 0.43 10.59
10/24/2021 6:00:00 AM 8.83 47.894 0.083 7.04 0.48 10.61
10/24/2021 6:15:00 AM 8.81 47.858 0.083 7.04 0.38 10.61
10/24/2021 6:30:00 AM 8.8 47.84 0.083 7.04 0.41 10.6
10/24/2021 6:45:00 AM 8.79 47.822 0.083 7.04 0.38 10.61
10/24/2021 7:00:00 AM 8.77 47.786 0.083 7.03 0.4 10.61
10/24/2021 7:15:00 AM 8.75 47.75 0.083 7.04 0.38 10.62
10/24/2021 7:30:00 AM 8.72 47.696 0.083 7.04 0.75 10.62
10/24/2021 7:45:00 AM 8.7 47.66 0.083 7.04 0.85 10.68
10/24/2021 8:00:00 AM 8.69 47.642 0.083 7.05 0.55 10.67
10/24/2021 8:15:00 AM 8.67 47.606 0.083 7.05 0.44 10.73
10/24/2021 8:30:00 AM 8.65 47.57 0.083 7.06 0.5 10.78
10/24/2021 8:45:00 AM 8.65 47.57 0.083 7.07 0.36 10.85
10/24/2021 9:00:00 AM 8.67 47.606 0.083 7.07 0.39 10.87
10/24/2021 9:15:00 AM 8.67 47.606 0.083 7.08 0.35 10.95
10/24/2021 9:30:00 AM 8.69 47.642 0.083 7.1 0.42 11.02
10/24/2021 9:45:00 AM 8.7 47.66 0.083 7.11 0.29 11.1
10/24/2021 10:00:00 AM 8.73 47.714 0.082 7.12 0.36 11.13
10/24/2021 10:15:00 AM 8.77 47.786 0.082 7.13 0.42 11.21
10/24/2021 10:30:00 AM 8.81 47.858 0.082 7.14 0.37 11.24
10/24/2021 10:45:00 AM 8.85 47.93 0.082 7.14 0.35 11.25
10/24/2021 11:00:00 AM 8.87 47.966 0.082 7.14 0.36 11.25
10/24/2021 11:15:00 AM 8.89 48.002 0.082 7.15 0.33 11.26
10/24/2021 11:30:00 AM 8.95 48.11 0.082 7.15 0.46 11.29
10/24/2021 11:45:00 AM 8.97 48.146 0.082 7.15 0.37 11.26
10/24/2021 12:00:00 PM 9.01 48.218 0.081 7.15 0.28 11.24
10/24/2021 12:15:00 PM 9.06 48.308 0.081 7.16 0.34 11.25
10/24/2021 12:30:00 PM 9.14 48.452 0.081 7.16 0.37 11.27
10/24/2021 12:45:00 PM 9.19 48.542 0.081 7.18 0.34 11.28
10/24/2021 1:00:00 PM 9.21 48.578 0.081 7.17 0.36 11.26
10/24/2021 1:15:00 PM 9.24 48.632 0.081 7.17 0.34 11.23
10/24/2021 1:30:00 PM 9.28 48.704 0.081 7.17 0.43 11.2
10/24/2021 1:45:00 PM 9.3 48.74 0.081 7.16 0.31 11.17
10/24/2021 2:00:00 PM 9.38 48.884 0.081 7.17 0.4 11.16
10/24/2021 2:15:00 PM 9.38 48.884 0.081 7.16 0.37 11.12
10/24/2021 2:30:00 PM 9.42 48.956 0.081 7.16 0.35 11.09
10/24/2021 2:45:00 PM 9.44 48.992 0.081 7.16 0.34 11.04
10/24/2021 3:00:00 PM 9.47 49.046 0.081 7.15 0.33 11
10/24/2021 3:15:00 PM 9.51 49.118 0.081 7.14 0.34 10.96
10/24/2021 3:30:00 PM 9.53 49.154 0.081 7.14 0.35 10.92
10/24/2021 3:45:00 PM 9.56 49.208 0.081 7.15 0.4 10.89
10/24/2021 4:00:00 PM 9.56 49.208 0.081 7.12 0.34 10.82
10/24/2021 4:15:00 PM 9.61 49.298 0.081 7.13 0.37 10.8
10/24/2021 4:30:00 PM 9.61 49.298 0.081 7.12 0.38 10.75
10/24/2021 4:45:00 PM 9.63 49.334 0.081 7.11 0.36 10.71
10/24/2021 5:00:00 PM 9.63 49.334 0.081 7.11 0.37 10.67
10/24/2021 5:15:00 PM 9.65 49.37 0.081 7.11 0.46 10.65
10/24/2021 5:30:00 PM 9.65 49.37 0.081 7.1 0.36 10.6
10/24/2021 5:45:00 PM 9.67 49.406 0.081 7.09 0.35 10.57
10/24/2021 6:00:00 PM 9.68 49.424 0.081 7.09 0.43 10.54
10/24/2021 6:15:00 PM 9.69 49.442 0.081 7.08 0.38 10.52
10/24/2021 6:30:00 PM 9.7 49.46 0.081 7.09 0.49 10.51
10/24/2021 6:45:00 PM 9.71 49.478 0.081 7.09 0.56 10.48
10/24/2021 7:00:00 PM 9.71 49.478 0.081 7.09 0.6 10.48
10/24/2021 7:15:00 PM 9.71 49.478 0.081 7.09 0.53 10.47
10/24/2021 7:30:00 PM 9.71 49.478 0.081 7.09 0.55 10.48
10/24/2021 7:45:00 PM 9.71 49.478 0.081 7.09 0.52 10.47
10/24/2021 8:00:00 PM 9.71 49.478 0.081 7.09 0.5 10.47
10/24/2021 8:15:00 PM 9.71 49.478 0.081 7.09 0.52 10.48
10/24/2021 8:30:00 PM 9.7 49.46 0.081 7.09 0.58 10.48
10/24/2021 8:45:00 PM 9.7 49.46 0.081 7.09 0.58 10.48
10/24/2021 9:00:00 PM 9.69 49.442 0.081 7.09 0.61 10.48
10/24/2021 9:15:00 PM 9.68 49.424 0.081 7.09 0.62 10.49
10/24/2021 9:30:00 PM 9.68 49.424 0.081 7.09 0.62 10.49
10/24/2021 9:45:00 PM 9.67 49.406 0.081 7.09 0.62 10.5
10/24/2021 10:00:00 PM 9.67 49.406 0.081 7.09 0.66 10.5
10/24/2021 10:15:00 PM 9.66 49.388 0.081 7.09 0.65 10.51
10/24/2021 10:30:00 PM 9.65 49.37 0.081 7.09 0.66 10.52
10/24/2021 10:45:00 PM 9.65 49.37 0.081 7.09 0.67 10.53
10/24/2021 11:00:00 PM 9.64 49.352 0.081 7.08 0.92 10.54
10/24/2021 11:15:00 PM 9.63 49.334 0.081 7.08 0.96 10.54
10/24/2021 11:30:00 PM 9.63 49.334 0.08 7.08 0.97 10.55
10/24/2021 11:45:00 PM 9.62 49.316 0.08 7.08 0.89 10.56
10/25/2021 12:00:00 AM 9.62 49.316 0.08 7.08 1.06 10.56
10/25/2021 12:15:00 AM 9.61 49.298 0.08 7.08 1.22 10.57
10/25/2021 12:30:00 AM 9.61 49.298 0.08 7.08 0.98 10.57
10/25/2021 12:45:00 AM 9.61 49.298 0.08 7.09 0.96 10.58
10/25/2021 1:00:00 AM 9.61 49.298 0.08 7.09 1 10.58
10/25/2021 1:15:00 AM 9.61 49.298 0.08 7.09 1.01 10.59
10/25/2021 1:30:00 AM 9.6 49.28 0.08 7.07 1.1 10.57
10/25/2021 1:45:00 AM 9.6 49.28 0.079 7.08 1.22 10.59
10/25/2021 2:00:00 AM 9.6 49.28 0.079 7.08 1.59 10.61
10/25/2021 2:15:00 AM 9.6 49.28 0.079 7.07 1.47 10.59
10/25/2021 2:30:00 AM 9.6 49.28 0.079 7.07 1.54 10.58
10/25/2021 2:45:00 AM 9.61 49.298 0.079 7.03 1.29 10.59
10/25/2021 3:00:00 AM 9.61 49.298 0.079 7.09 1.57 10.59
10/25/2021 3:15:00 AM 9.62 49.316 0.079 7.09 1.98 10.6
10/25/2021 3:30:00 AM 9.62 49.316 0.08 7.09 2.02 10.6
10/25/2021 3:45:00 AM 9.62 49.316 0.08 7.08 2.2 10.61
10/25/2021 4:00:00 AM 9.61 49.298 0.08 7.08 2.02 10.61
10/25/2021 4:15:00 AM 9.61 49.298 0.08 7.08 3.22 10.62
10/25/2021 4:30:00 AM 9.6 49.28 0.08 7.07 2.38 10.62
10/25/2021 4:45:00 AM 9.6 49.28 0.08 7.09 2.44 10.63
10/25/2021 5:00:00 AM 9.59 49.262 0.08 7.08 2.55 10.64
10/25/2021 5:15:00 AM 9.6 49.28 0.08 7.08 2.48 10.64
10/25/2021 5:30:00 AM 9.61 49.298 0.08 7.08 2.92 10.64
10/25/2021 5:45:00 AM 9.62 49.316 0.08 7.09 2.84 10.64
10/25/2021 6:00:00 AM 9.62 49.316 0.08 7.1 2.67 10.64
10/25/2021 6:15:00 AM 9.62 49.316 0.08 7.1 2.62 10.65
10/25/2021 6:30:00 AM 9.62 49.316 0.081 7.1 3.23 10.64
10/25/2021 6:45:00 AM 9.61 49.298 0.081 7.09 2.99 10.64
10/25/2021 7:00:00 AM 9.61 49.298 0.081 7.09 2.55 10.64
10/25/2021 7:15:00 AM 9.6 49.28 0.081 7.09 2.4 10.64
10/25/2021 7:30:00 AM 9.59 49.262 0.081 7.09 2.4 10.64
10/25/2021 7:45:00 AM 9.59 49.262 0.081 7.09 2.05 10.65
10/25/2021 8:00:00 AM 9.58 49.244 0.081 7.1 2.19 10.67
10/25/2021 8:15:00 AM 9.57 49.226 0.081 7.1 2.02 10.69
10/25/2021 8:30:00 AM 9.58 49.244 0.082 7.11 1.91 10.73
10/25/2021 8:45:00 AM 9.59 49.262 0.082 7.11 1.91 10.77
10/25/2021 9:00:00 AM 9.6 49.28 0.082 7.13 1.67 10.8
10/25/2021 9:15:00 AM 9.63 49.334 0.082 7.14 1.8 10.83
10/25/2021 9:30:00 AM 9.68 49.424 0.082 7.15 1.61 10.87
10/25/2021 9:45:00 AM 9.75 49.55 0.082 7.17 1.49 10.89
10/25/2021 10:00:00 AM 9.82 49.676 0.082 7.18 1.59 10.91
10/25/2021 10:15:00 AM 9.89 49.802 0.082 7.2 1.46 10.92
10/25/2021 10:30:00 AM 9.99 49.982 0.082 7.21 1.4 10.92
10/25/2021 10:45:00 AM 10.09 50.162 0.082 7.22 1.59 10.91
10/25/2021 11:00:00 AM 10.2 50.36 0.082 7.23 1.29 10.91
10/25/2021 11:15:00 AM 10.33 50.594 0.082 7.24 1.35 10.88
10/25/2021 11:30:00 AM 10.45 50.81 0.076 7.23 2.32 10.87
10/25/2021 11:45:00 AM 10.57 51.026 0.082 7.26 1.17 10.85
10/25/2021 12:00:00 PM 10.71 51.278 0.081 7.27 1.19 10.82
10/25/2021 12:15:00 PM 10.86 51.548 0.081 7.28 1.08 10.8
10/25/2021 12:30:00 PM 11.02 51.836 0.081 7.29 1.22 10.76
10/25/2021 12:45:00 PM 11.17 52.106 0.081 7.28 1.08 10.72
10/25/2021 1:00:00 PM 11.3 52.34 0.081 7.29 1.03 10.69
10/25/2021 1:15:00 PM 11.37 52.466 0.081 7.27 0.99 10.64
10/25/2021 1:30:00 PM 11.5 52.7 0.081 7.28 1.14 10.63
10/25/2021 1:45:00 PM 11.61 52.898 0.081 7.3 1.02 10.63
10/25/2021 2:00:00 PM 11.67 53.006 0.081 7.29 0.94 10.6
10/25/2021 2:15:00 PM 11.73 53.114 0.08 7.29 0.94 10.57
10/25/2021 2:30:00 PM 11.78 53.204 0.08 7.29 1.04 10.56
10/25/2021 2:45:00 PM 11.83 53.294 0.08 7.29 1.08 10.56
10/25/2021 3:00:00 PM 11.89 53.402 0.08 7.29 2.2 10.54
10/25/2021 3:15:00 PM 11.94 53.492 0.08 7.3 0.99 10.51
10/25/2021 3:30:00 PM 12.02 53.636 0.08 7.29 1.07 10.48
10/25/2021 3:45:00 PM 12.06 53.708 0.08 7.27 0.87 10.43
10/25/2021 4:00:00 PM 12.08 53.744 0.08 7.26 0.96 10.38
10/25/2021 4:15:00 PM 12.08 53.744 0.08 7.23 1.03 10.33
10/25/2021 4:30:00 PM 12.08 53.744 0.08 7.22 0.92 10.28
10/25/2021 4:45:00 PM 12.07 53.726 0.08 7.2 0.79 10.24
10/25/2021 5:00:00 PM 12.07 53.726 0.08 7.18 0.82 10.23
10/25/2021 5:15:00 PM 12.07 53.726 0.08 7.18 1.1 10.21
10/25/2021 5:30:00 PM 12.07 53.726 0.08 7.18 0.93 10.19
10/25/2021 5:45:00 PM 12.06 53.708 0.08 7.15 0.9 10.13
10/25/2021 6:00:00 PM 12.04 53.672 0.08 7.14 1 10.05
10/25/2021 6:15:00 PM 12.02 53.636 0.08 7.12 0.99 10.02
10/25/2021 6:30:00 PM 11.99 53.582 0.08 7.1 1.18 9.99
10/25/2021 6:45:00 PM 11.96 53.528 0.08 7.09 0.92 9.97
10/25/2021 7:00:00 PM 11.93 53.474 0.08 7.09 0.87 9.96
10/25/2021 7:15:00 PM 11.91 53.438 0.08 7.08 1.03 9.95
10/25/2021 7:30:00 PM 11.88 53.384 0.08 7.07 1.36 9.95
10/25/2021 7:45:00 PM 11.85 53.33 0.08 7.06 1.99 9.94
10/25/2021 8:00:00 PM 11.82 53.276 0.08 7.06 0.98 9.95
10/25/2021 8:15:00 PM 11.78 53.204 0.081 7.06 0.9 9.95
10/25/2021 8:30:00 PM 11.75 53.15 0.081 7.05 0.94 9.95
10/25/2021 8:45:00 PM 11.71 53.078 0.081 7.05 0.89 9.97
10/25/2021 9:00:00 PM 11.68 53.024 0.081 7.04 0.92 9.98
10/25/2021 9:15:00 PM 11.65 52.97 0.081 7.04 0.97 9.98
10/25/2021 9:30:00 PM 11.62 52.916 0.081 7.03 0.92 10
10/25/2021 9:45:00 PM 11.59 52.862 0.081 7.03 1.17 10
10/25/2021 10:00:00 PM 11.56 52.808 0.081 7.02 0.9 10
10/25/2021 10:15:00 PM 11.53 52.754 0.081 7.02 0.96 10.01
10/25/2021 10:30:00 PM 11.5 52.7 0.081 7.02 0.88 10.02
10/25/2021 10:45:00 PM 11.47 52.646 0.081 7.01 0.83 10.03
10/25/2021 11:00:00 PM 11.44 52.592 0.081 7.01 0.88 10.02
10/25/2021 11:15:00 PM 11.41 52.538 0.081 7.02 0.92 10.03
10/25/2021 11:30:00 PM 11.41 52.538 0.08 7.02 1.05 10.04
10/25/2021 11:45:00 PM 11.39 52.502 0.08 7.01 1.08 10.04
10/26/2021 12:00:00 AM 11.37 52.466 0.08 7.01 1 10.03
10/26/2021 12:15:00 AM 11.36 52.448 0.08 7.03 1.06 10.05
10/26/2021 12:30:00 AM 11.34 52.412 0.079 7.02 1.03 10.05
10/26/2021 12:45:00 AM 11.32 52.376 0.079 7.01 1.4 10.05
10/26/2021 1:00:00 AM 11.3 52.34 0.079 7 1.14 10.05
10/26/2021 1:15:00 AM 11.28 52.304 0.079 6.96 1.24 10.06
10/26/2021 1:30:00 AM 11.26 52.268 0.079 7 1.43 10.07
10/26/2021 1:45:00 AM 11.24 52.232 0.079 6.98 1.38 10.08
10/26/2021 2:00:00 AM 11.22 52.196 0.079 6.97 1.38 10.09
10/26/2021 2:15:00 AM 11.2 52.16 0.078 7.05 1.24 10.1
10/26/2021 2:30:00 AM 11.18 52.124 0.078 7.04 1.43 10.11
10/26/2021 2:45:00 AM 11.16 52.088 0.077 7.04 1.51 10.12
10/26/2021 3:00:00 AM 11.15 52.07 0.077 7.03 1.45 10.11
10/26/2021 3:15:00 AM 11.13 52.034 0.077 7.04 1.96 10.13
10/26/2021 3:30:00 AM 11.12 52.016 0.077 7.03 2.16 10.14
10/26/2021 3:45:00 AM 11.11 51.998 0.077 7.05 2.07 10.14
10/26/2021 4:00:00 AM 11.1 51.98 0.078 7.04 2.32 10.15
10/26/2021 4:15:00 AM 11.1 51.98 0.078 7.05 2.34 10.16
10/26/2021 4:30:00 AM 11.09 51.962 0.078 7.06 2.37 10.16
10/26/2021 4:45:00 AM 11.09 51.962 0.079 7.06 2.84 10.17
10/26/2021 5:00:00 AM 11.09 51.962 0.079 7.06 2.22 10.17
10/26/2021 5:15:00 AM 11.08 51.944 0.079 7.07 2.29 10.17
10/26/2021 5:30:00 AM 11.08 51.944 0.079 7.06 1.98 10.17
10/26/2021 5:45:00 AM 11.08 51.944 0.079 7.07 1.94 10.16
10/26/2021 6:00:00 AM 11.07 51.926 0.079 7.06 2.16 10.16
10/26/2021 6:15:00 AM 11.07 51.926 0.079 7.07 2.01 10.16
10/26/2021 6:30:00 AM 11.06 51.908 0.079 7.07 1.86 10.16
10/26/2021 6:45:00 AM 11.06 51.908 0.079 7.06 1.85 10.16
10/26/2021 7:00:00 AM 11.06 51.908 0.079 7.06 1.73 10.16
10/26/2021 7:15:00 AM 11.05 51.89 0.079 7.07 1.81 10.16
10/26/2021 7:30:00 AM 11.05 51.89 0.079 7.06 1.79 10.16
10/26/2021 7:45:00 AM 11.05 51.89 0.079 7.08 1.57 10.17
10/26/2021 8:00:00 AM 11.04 51.872 0.079 7.09 1.58 10.17
10/26/2021 8:15:00 AM 11.03 51.854 0.079 7.1 1.75 10.19
10/26/2021 8:30:00 AM 11.02 51.836 0.079 7.11 1.63 10.2
10/26/2021 8:45:00 AM 11.01 51.818 0.078 7.11 1.51 10.23
10/26/2021 9:00:00 AM 10.99 51.782 0.078 7.12 1.54 10.26
10/26/2021 9:15:00 AM 10.96 51.728 0.078 7.12 1.4 10.29
10/26/2021 9:30:00 AM 10.93 51.674 0.078 7.13 1.57 10.32
10/26/2021 9:45:00 AM 10.9 51.62 0.078 7.13 1.47 10.34
10/26/2021 10:00:00 AM 10.87 51.566 0.078 7.14 1.53 10.38
10/26/2021 10:15:00 AM 10.85 51.53 0.078 7.15 1.47 10.42
10/26/2021 10:30:00 AM 10.82 51.476 0.078 7.16 1.4 10.44
10/26/2021 10:45:00 AM 10.79 51.422 0.077 7.16 1.47 10.48
10/26/2021 11:00:00 AM 10.74 51.332 0.077 7.16 1.45 10.49
10/26/2021 11:15:00 AM 10.72 51.296 0.077 7.17 1.47 10.53
10/26/2021 11:30:00 AM 10.68 51.224 0.077 7.19 1.48 10.57
10/26/2021 11:45:00 AM 10.65 51.17 0.077 7.19 1.55 10.58
10/26/2021 12:00:00 PM 10.61 51.098 0.077 7.18 1.6 10.6
10/26/2021 12:15:00 PM 10.58 51.044 0.076 7.19 1.47 10.62
10/26/2021 12:30:00 PM 10.55 50.99 0.07 7.18 2.38 10.64
10/26/2021 12:45:00 PM 10.51 50.918 0.076 7.19 1.68 10.64
10/26/2021 1:00:00 PM 10.47 50.846 0.076 7.19 1.77 10.64
10/26/2021 1:15:00 PM 10.44 50.792 0.076 7.21 1.66 10.68
10/26/2021 1:30:00 PM 10.42 50.756 0.076 7.21 1.95 10.7
10/26/2021 1:45:00 PM 10.4 50.72 0.076 7.22 1.67 10.72
10/26/2021 2:00:00 PM 10.36 50.648 0.076 7.22 1.91 10.74
10/26/2021 2:15:00 PM 10.32 50.576 0.076 7.22 1.89 10.74
10/26/2021 2:30:00 PM 10.29 50.522 0.076 7.21 1.89 10.75
10/26/2021 2:45:00 PM 10.24 50.432 0.075 7.21 2.14 10.72
10/26/2021 3:00:00 PM 10.2 50.36 0.075 7.2 2.72 10.72
10/26/2021 3:15:00 PM 10.14 50.252 0.075 7.2 2.95 10.73
10/26/2021 3:30:00 PM 10.1 50.18 0.075 7.15 3.15 10.72
10/26/2021 3:45:00 PM 10.05 50.09 0.075 7.17 3.25 10.7
10/26/2021 4:00:00 PM 10 50 0.074 7.15 3.07 10.7
10/26/2021 4:15:00 PM 9.93 49.874 0.074 7.13 3.65 10.7
10/26/2021 4:30:00 PM 9.88 49.784 0.074 7.13 4.04 10.69
10/26/2021 4:45:00 PM 9.82 49.676 0.074 7.12 4.93 10.69
10/26/2021 5:00:00 PM 9.77 49.586 0.073 7.12 5.48 10.7
10/26/2021 5:15:00 PM 9.72 49.496 0.073 7.1 6.51 10.69
10/26/2021 5:30:00 PM 9.66 49.388 0.073 7.09 6.16 10.69
10/26/2021 5:45:00 PM 9.62 49.316 0.073 7.08 6.38 10.69
10/26/2021 6:00:00 PM 9.58 49.244 0.073 7.06 11.38 10.7
10/26/2021 6:15:00 PM 9.54 49.172 0.073 7.03 7.86 10.7
10/26/2021 6:30:00 PM 9.51 49.118 0.073 7.03 9.72 10.7
10/26/2021 6:45:00 PM 9.48 49.064 0.073 7.03 10.21 10.71
10/26/2021 7:00:00 PM 9.46 49.028 0.073 7.01 12 10.72
10/26/2021 7:15:00 PM 9.44 48.992 0.07 6.96 12.42 10.72
10/26/2021 7:30:00 PM 9.43 48.974 0.063 6.96 13.81 10.73
10/26/2021 7:45:00 PM 9.41 48.938 0.073 7 13.39 10.74
10/26/2021 8:00:00 PM 9.4 48.92 0.073 6.93 13.89 10.75
10/26/2021 8:15:00 PM 9.39 48.902 0.073 6.94 13.21 10.75
10/26/2021 8:30:00 PM 9.38 48.884 0.072 6.92 12.83 10.76
10/26/2021 8:45:00 PM 9.38 48.884 0.072 6.93 12.68 10.76
10/26/2021 9:00:00 PM 9.37 48.866 0.072 6.95 11.9 10.76
10/26/2021 9:15:00 PM 9.37 48.866 0.072 6.99 11.03 10.77
10/26/2021 9:30:00 PM 9.36 48.848 0.071 6.98 10.57 10.77
10/26/2021 9:45:00 PM 9.36 48.848 0.043 6.98 9.88 10.78
10/26/2021 10:00:00 PM 9.36 48.848 0.036 6.94 9 10.78
10/26/2021 10:15:00 PM 9.36 48.848 0.07 6.98 9.03 10.78
10/26/2021 10:30:00 PM 9.37 48.866 0.07 6.92 8.44 10.78
10/26/2021 10:45:00 PM 9.38 48.884 0.07 6.96 7.98 10.78
10/26/2021 11:00:00 PM 9.38 48.884 0.07 6.91 7.79 10.78
10/26/2021 11:15:00 PM 9.39 48.902 0.07 6.94 7.37 10.78
10/26/2021 11:30:00 PM 9.4 48.92 0.07 6.87 6.93 10.78
10/26/2021 11:45:00 PM 9.41 48.938 0.069 6.99 7.04 10.78
10/27/2021 12:00:00 AM 9.42 48.956 0.069 6.96 6.69 10.77
10/27/2021 12:15:00 AM 9.43 48.974 0.069 6.92 6.29 10.77
10/27/2021 12:30:00 AM 9.44 48.992 0.069 6.96 6.08 10.77
10/27/2021 12:45:00 AM 9.46 49.028 0.069 6.93 5.81 10.77
10/27/2021 1:00:00 AM 9.47 49.046 0.069 6.94 5.43 10.76
10/27/2021 1:15:00 AM 9.48 49.064 0.069 6.93 4.98 10.77
10/27/2021 1:30:00 AM 9.5 49.1 0.069 6.97 5.25 10.76
10/27/2021 1:45:00 AM 9.51 49.118 0.069 6.95 4.71 10.76
10/27/2021 2:00:00 AM 9.53 49.154 0.069 6.97 4.49 10.76
10/27/2021 2:15:00 AM 9.54 49.172 0.069 6.96 4.46 10.75
10/27/2021 2:30:00 AM 9.55 49.19 0.069 6.96 4.38 10.75
10/27/2021 2:45:00 AM 9.57 49.226 0.069 6.93 4.57 10.75
10/27/2021 3:00:00 AM 9.58 49.244 0.066 6.92 5.21 10.75
10/27/2021 3:15:00 AM 9.6 49.28 0.069 6.95 4.16 10.74
10/27/2021 3:30:00 AM 9.61 49.298 0.069 6.95 4.05 10.74
10/27/2021 3:45:00 AM 9.63 49.334 0.069 6.89 4.01 10.74
10/27/2021 4:00:00 AM 9.64 49.352 0.068 6.95 3.96 10.74
10/27/2021 4:15:00 AM 9.66 49.388 0.068 6.96 3.85 10.73
10/27/2021 4:30:00 AM 9.67 49.406 0.068 6.97 3.67 10.73
10/27/2021 4:45:00 AM 9.68 49.424 0.068 6.97 3.78 10.73
10/27/2021 5:00:00 AM 9.69 49.442 0.068 6.96 3.65 10.72
10/27/2021 5:15:00 AM 9.71 49.478 0.068 6.96 3.61 10.72
10/27/2021 5:30:00 AM 9.72 49.496 0.068 6.95 3.45 10.72
10/27/2021 5:45:00 AM 9.73 49.514 0.068 6.95 3.4 10.72
10/27/2021 6:00:00 AM 9.74 49.532 0.068 6.93 3.34 10.72
10/27/2021 6:15:00 AM 9.75 49.55 0.068 6.94 3.43 10.72
10/27/2021 6:30:00 AM 9.76 49.568 0.068 6.92 3.39 10.72
10/27/2021 6:45:00 AM 9.76 49.568 0.068 6.94 3.19 10.72
10/27/2021 7:00:00 AM 9.77 49.586 0.068 6.92 3.17 10.72
10/27/2021 7:15:00 AM 9.78 49.604 0.068 6.93 3.06 10.72
10/27/2021 7:30:00 AM 9.79 49.622 0.068 6.93 3.21 10.72
10/27/2021 7:45:00 AM 9.79 49.622 0.068 6.93 3.04 10.72
10/27/2021 8:00:00 AM 9.8 49.64 0.067 6.93 2.86 10.72
10/27/2021 8:15:00 AM 9.81 49.658 0.067 6.93 2.9 10.74
10/27/2021 8:30:00 AM 9.81 49.658 0.067 6.95 2.84 10.76
10/27/2021 8:45:00 AM 9.82 49.676 0.067 6.94 2.82 10.77
10/27/2021 9:00:00 AM 9.83 49.694 0.067 6.96 2.58 10.81
10/27/2021 9:15:00 AM 9.85 49.73 0.067 6.98 2.53 10.83
10/27/2021 9:30:00 AM 9.87 49.766 0.067 6.98 2.65 10.85
10/27/2021 9:45:00 AM 9.9 49.82 0.067 6.99 2.49 10.89
10/27/2021 10:00:00 AM 9.92 49.856 0.067 7 2.46 10.89
10/27/2021 10:15:00 AM 9.95 49.91 0.066 7 2.38 10.92
10/27/2021 10:30:00 AM 9.97 49.946 0.066 7.02 2.37 10.91
10/27/2021 10:45:00 AM 10.01 50.018 0.066 7.03 2.4 10.92
10/27/2021 11:00:00 AM 10.09 50.162 0.066 7.04 2.34 10.94
10/27/2021 11:15:00 AM 10.15 50.27 0.066 7.04 2.3 10.92
10/27/2021 11:30:00 AM 10.24 50.432 0.066 7.05 2.25 10.91
10/27/2021 11:45:00 AM 10.34 50.612 0.066 7.06 2.28 10.89
10/27/2021 12:00:00 PM 10.46 50.828 0.066 7.06 2.22 10.87
10/27/2021 12:15:00 PM 10.55 50.99 0.066 7.06 2.28 10.84
10/27/2021 12:30:00 PM 10.59 51.062 0.066 7.05 2.35 10.82
10/27/2021 12:45:00 PM 10.63 51.134 0.066 7.05 2.2 10.81
10/27/2021 1:00:00 PM 10.68 51.224 0.066 7.04 2.18 10.8
10/27/2021 1:15:00 PM 10.74 51.332 0.066 7.04 2.12 10.77
10/27/2021 1:30:00 PM 10.81 51.458 0.065 7.07 2.16 10.75
10/27/2021 1:45:00 PM 10.88 51.584 0.065 7.06 2.19 10.72
10/27/2021 2:00:00 PM 10.94 51.692 0.065 7.04 2.09 10.69
10/27/2021 2:15:00 PM 11 51.8 0.065 7.06 2.13 10.67
10/27/2021 2:30:00 PM 11.04 51.872 0.065 7.02 2.17 10.65
10/27/2021 2:45:00 PM 11.07 51.926 0.065 7.03 2.23 10.63
10/27/2021 3:00:00 PM 11.1 51.98 0.065 7.04 2.34 10.61
10/27/2021 3:15:00 PM 11.12 52.016 0.065 7.02 2.3 10.59
10/27/2021 3:30:00 PM 11.13 52.034 0.065 7.03 2.24 10.58
10/27/2021 3:45:00 PM 11.12 52.016 0.065 7.02 2.37 10.56
10/27/2021 4:00:00 PM 11.11 51.998 0.065 7.02 2.38 10.55
10/27/2021 4:15:00 PM 11.09 51.962 0.065 7 2.36 10.55
10/27/2021 4:30:00 PM 11.05 51.89 0.065 6.99 2.3 10.55
10/27/2021 4:45:00 PM 11 51.8 0.065 6.96 2.44 10.55
10/27/2021 5:00:00 PM 10.94 51.692 0.065 6.98 2.34 10.55
10/27/2021 5:15:00 PM 10.85 51.53 0.065 6.97 2.41 10.55
10/27/2021 5:30:00 PM 10.78 51.404 0.065 6.95 2.31 10.55
10/27/2021 5:45:00 PM 10.7 51.26 0.065 6.95 2.44 10.56
10/27/2021 6:00:00 PM 10.63 51.134 0.065 6.93 2.53 10.57
10/27/2021 6:15:00 PM 10.55 50.99 0.065 6.92 2.47 10.57
10/27/2021 6:30:00 PM 10.48 50.864 0.065 6.93 2.5 10.58
10/27/2021 6:45:00 PM 10.41 50.738 0.065 6.86 2.7 10.58
10/27/2021 7:00:00 PM 10.35 50.63 0.065 6.9 2.64 10.59
10/27/2021 7:15:00 PM 10.29 50.522 0.065 6.91 2.71 10.6
10/27/2021 7:30:00 PM 10.23 50.414 0.065 6.91 2.67 10.62
10/27/2021 7:45:00 PM 10.16 50.288 0.065 6.89 2.64 10.63
10/27/2021 8:00:00 PM 10.1 50.18 0.065 6.91 2.69 10.65
10/27/2021 8:15:00 PM 10.03 50.054 0.065 6.91 2.69 10.67
10/27/2021 8:30:00 PM 9.96 49.928 0.065 6.88 2.63 10.7
10/27/2021 8:45:00 PM 9.9 49.82 0.065 6.87 2.63 10.71
10/27/2021 9:00:00 PM 9.83 49.694 0.065 6.87 2.84 10.72
10/27/2021 9:15:00 PM 9.77 49.586 0.065 6.9 2.74 10.74
10/27/2021 9:30:00 PM 9.71 49.478 0.065 6.91 2.68 10.76
10/27/2021 9:45:00 PM 9.64 49.352 0.065 6.9 2.85 10.78
10/27/2021 10:00:00 PM 9.58 49.244 0.065 6.91 2.75 10.8
10/27/2021 10:15:00 PM 9.52 49.136 0.065 6.91 2.82 10.82
10/27/2021 10:30:00 PM 9.46 49.028 0.065 6.88 2.71 10.84
10/27/2021 10:45:00 PM 9.4 48.92 0.065 6.91 2.81 10.86
10/27/2021 11:00:00 PM 9.34 48.812 0.065 6.9 2.93 10.87
10/27/2021 11:15:00 PM 9.29 48.722 0.064 6.89 2.75 10.88
10/27/2021 11:30:00 PM 9.23 48.614 0.064 6.89 2.61 10.9
10/27/2021 11:45:00 PM 9.18 48.524 0.064 6.85 2.67 10.92
10/28/2021 12:00:00 AM 9.13 48.434 0.064 6.89 2.72 10.93
10/28/2021 12:15:00 AM 9.08 48.344 0.064 6.86 2.6 10.94
10/28/2021 12:30:00 AM 9.02 48.236 0.064 6.87 2.74 10.96
10/28/2021 12:45:00 AM 8.97 48.146 0.064 6.91 2.53 10.97
10/28/2021 1:00:00 AM 8.92 48.056 0.064 6.91 2.64 10.99
10/28/2021 1:15:00 AM 8.88 47.984 0.064 6.89 2.67 11
10/28/2021 1:30:00 AM 8.83 47.894 0.064 6.89 2.64 11.02
10/28/2021 1:45:00 AM 8.78 47.804 0.064 6.92 2.61 11.03
10/28/2021 2:00:00 AM 8.74 47.732 0.064 6.92 2.68 11.05
10/28/2021 2:15:00 AM 8.69 47.642 0.064 6.91 2.54 11.06
10/28/2021 2:30:00 AM 8.64 47.552 0.064 6.87 2.86 11.08
10/28/2021 2:45:00 AM 8.6 47.48 0.064 6.87 2.55 11.09
10/28/2021 3:00:00 AM 8.56 47.408 0.064 6.86 2.55 11.1
10/28/2021 3:15:00 AM 8.51 47.318 0.064 6.88 2.49 11.11
10/28/2021 3:30:00 AM 8.47 47.246 0.064 6.88 2.59 11.12
10/28/2021 3:45:00 AM 8.43 47.174 0.064 6.87 2.68 11.13
10/28/2021 4:00:00 AM 8.39 47.102 0.064 6.84 2.5 11.14
10/28/2021 4:15:00 AM 8.34 47.012 0.064 6.87 2.46 11.15
10/28/2021 4:30:00 AM 8.3 46.94 0.064 6.86 2.48 11.17
10/28/2021 4:45:00 AM 8.26 46.868 0.064 6.86 2.48 11.17
10/28/2021 5:00:00 AM 8.22 46.796 0.064 6.85 2.46 11.19
10/28/2021 5:15:00 AM 8.18 46.724 0.064 6.85 2.44 11.2
10/28/2021 5:30:00 AM 8.15 46.67 0.064 6.85 2.54 11.21
10/28/2021 5:45:00 AM 8.11 46.598 0.064 6.85 2.43 11.22
10/28/2021 6:00:00 AM 8.07 46.526 0.064 6.86 2.47 11.23
10/28/2021 6:15:00 AM 8.04 46.472 0.064 6.82 2.39 11.25
10/28/2021 6:30:00 AM 8 46.4 0.064 6.87 2.44 11.25
10/28/2021 6:45:00 AM 7.97 46.346 0.064 6.86 2.38 11.26
10/28/2021 7:00:00 AM 7.94 46.292 0.064 6.87 2.42 11.27
10/28/2021 7:15:00 AM 7.91 46.238 0.064 6.83 2.48 11.28
10/28/2021 7:30:00 AM 7.88 46.184 0.064 6.87 2.46 11.3
10/28/2021 7:45:00 AM 7.85 46.13 0.064 6.86 2.36 11.31
10/28/2021 8:00:00 AM 7.83 46.094 0.063 6.88 2.32 11.33
10/28/2021 8:15:00 AM 7.81 46.058 0.063 6.82 2.2 11.36
10/28/2021 8:30:00 AM 7.8 46.04 0.063 6.88 2.22 11.39
10/28/2021 8:45:00 AM 7.8 46.04 0.063 6.9 2.21 11.42
10/28/2021 9:00:00 AM 7.82 46.076 0.063 6.89 2.25 11.46
10/28/2021 9:15:00 AM 7.83 46.094 0.063 6.94 2.14 11.47
10/28/2021 9:30:00 AM 7.83 46.094 0.063 6.91 2.17 11.49
10/28/2021 9:45:00 AM 7.86 46.148 0.063 6.93 2.12 11.5
10/28/2021 10:00:00 AM 7.9 46.22 0.063 6.93 2.09 11.5
10/28/2021 10:15:00 AM 7.96 46.328 0.063 6.93 2.03 11.49
10/28/2021 10:30:00 AM 8.04 46.472 0.063 6.95 2.06 11.49
10/28/2021 10:45:00 AM 8.15 46.67 0.063 6.96 2.06 11.48
10/28/2021 11:00:00 AM 8.25 46.85 0.063 6.96 1.96 11.46
10/28/2021 11:15:00 AM 8.38 47.084 0.063 6.98 1.97 11.43
10/28/2021 11:30:00 AM 8.53 47.354 0.063 6.98 1.9 11.4
10/28/2021 11:45:00 AM 8.67 47.606 0.063 6.97 1.87 11.37
10/28/2021 12:00:00 PM 8.81 47.858 0.063 6.99 1.78 11.34
10/28/2021 12:15:00 PM 8.94 48.092 0.063 7 1.76 11.31
10/28/2021 12:30:00 PM 9.06 48.308 0.063 7.01 1.82 11.27
10/28/2021 12:45:00 PM 9.18 48.524 0.063 7.01 1.81 11.24
10/28/2021 1:00:00 PM 9.32 48.776 0.063 7.01 1.82 11.2
10/28/2021 1:15:00 PM 9.44 48.992 0.063 7.02 1.77 11.16
10/28/2021 1:30:00 PM 9.56 49.208 0.062 7 1.75 11.12
10/28/2021 1:45:00 PM 9.67 49.406 0.062 7.03 1.87 11.09
10/28/2021 2:00:00 PM 9.8 49.64 0.062 7.02 1.8 11.05
10/28/2021 2:15:00 PM 9.91 49.838 0.062 7 1.82 11.01
10/28/2021 2:30:00 PM 9.99 49.982 0.062 7.02 1.8 10.97
10/28/2021 2:45:00 PM 10.06 50.108 0.062 7.02 1.93 10.95
10/28/2021 3:00:00 PM 10.14 50.252 0.062 7.02 2.06 10.92
10/28/2021 3:15:00 PM 10.22 50.396 0.062 7.01 2.12 10.89
10/28/2021 3:30:00 PM 10.26 50.468 0.062 7.05 2.12 10.88
10/28/2021 3:45:00 PM 10.3 50.54 0.062 7.01 2.12 10.87
10/28/2021 4:00:00 PM 10.34 50.612 0.062 6.97 2.16 10.85
10/28/2021 4:15:00 PM 10.38 50.684 0.062 6.99 2.05 10.83
10/28/2021 4:30:00 PM 10.4 50.72 0.062 6.98 2.08 10.82
10/28/2021 4:45:00 PM 10.42 50.756 0.062 6.99 2.11 10.81
10/28/2021 5:00:00 PM 10.43 50.774 0.062 6.99 2.11 10.78
10/28/2021 5:15:00 PM 10.43 50.774 0.062 6.97 2.12 10.76
10/28/2021 5:30:00 PM 10.41 50.738 0.062 6.97 2.14 10.72
10/28/2021 5:45:00 PM 10.38 50.684 0.062 6.95 2.07 10.69
10/28/2021 6:00:00 PM 10.35 50.63 0.063 6.92 2.13 10.66
10/28/2021 6:15:00 PM 10.32 50.576 0.063 6.89 2.14 10.64
10/28/2021 6:30:00 PM 10.29 50.522 0.063 6.89 2.12 10.64
10/28/2021 6:45:00 PM 10.25 50.45 0.063 6.88 2.18 10.62
10/28/2021 7:00:00 PM 10.22 50.396 0.063 6.87 2.23 10.64
10/28/2021 7:15:00 PM 10.18 50.324 0.063 6.89 2.18 10.64
10/28/2021 7:30:00 PM 10.14 50.252 0.063 6.87 2.25 10.64
10/28/2021 7:45:00 PM 10.11 50.198 0.063 6.86 2.31 10.65
10/28/2021 8:00:00 PM 10.06 50.108 0.063 6.88 2.2 10.66
10/28/2021 8:15:00 PM 10.03 50.054 0.063 6.87 2.19 10.67
10/28/2021 8:30:00 PM 10.01 50.018 0.063 6.87 2.25 10.68
10/28/2021 8:45:00 PM 9.99 49.982 0.063 6.88 2.14 10.7
10/28/2021 9:00:00 PM 9.97 49.946 0.063 6.85 2.12 10.69
10/28/2021 9:15:00 PM 9.96 49.928 0.063 6.88 2.2 10.69
10/28/2021 9:30:00 PM 9.95 49.91 0.063 6.91 2.03 10.7
10/28/2021 9:45:00 PM 9.94 49.892 0.063 6.86 2.12 10.7
10/28/2021 10:00:00 PM 9.93 49.874 0.063 6.89 2.05 10.71
10/28/2021 10:15:00 PM 9.92 49.856 0.063 6.88 2 10.71
10/28/2021 10:30:00 PM 9.92 49.856 0.063 6.91 2.05 10.71
10/28/2021 10:45:00 PM 9.92 49.856 0.063 6.91 2.12 10.7
10/28/2021 11:00:00 PM 9.92 49.856 0.063 6.88 2.13 10.72
10/28/2021 11:15:00 PM 9.92 49.856 0.063 6.89 2.27 10.7
10/28/2021 11:30:00 PM 9.92 49.856 0.063 6.9 2.18 10.71
10/28/2021 11:45:00 PM 9.92 49.856 0.063 6.87 2.13 10.7
10/29/2021 12:00:00 AM 9.92 49.856 0.063 6.91 2.16 10.7
10/29/2021 12:15:00 AM 9.92 49.856 0.063 6.9 2.31 10.71
10/29/2021 12:30:00 AM 9.93 49.874 0.063 6.86 2.15 10.7
10/29/2021 12:45:00 AM 9.93 49.874 0.063 6.91 2.04 10.7
10/29/2021 1:00:00 AM 9.93 49.874 0.063 6.92 2.12 10.69
10/29/2021 1:15:00 AM 9.92 49.856 0.063 6.9 2.04 10.7
10/29/2021 1:30:00 AM 9.92 49.856 0.063 6.9 2.04 10.7
10/29/2021 1:45:00 AM 9.92 49.856 0.063 6.87 2.07 10.69
10/29/2021 2:00:00 AM 9.92 49.856 0.063 6.86 1.96 10.69
10/29/2021 2:15:00 AM 9.92 49.856 0.063 6.83 2.08 10.69
10/29/2021 2:30:00 AM 9.92 49.856 0.063 6.86 2.01 10.69
10/29/2021 2:45:00 AM 9.91 49.838 0.063 6.87 1.94 10.7
10/29/2021 3:00:00 AM 9.91 49.838 0.063 6.86 1.91 10.7
10/29/2021 3:15:00 AM 9.9 49.82 0.063 6.86 1.95 10.7
10/29/2021 3:30:00 AM 9.9 49.82 0.063 6.86 1.92 10.69
10/29/2021 3:45:00 AM 9.89 49.802 0.063 6.87 1.89 10.7
10/29/2021 4:00:00 AM 9.89 49.802 0.063 6.86 1.83 10.69
10/29/2021 4:15:00 AM 9.88 49.784 0.063 6.87 1.89 10.69
10/29/2021 4:30:00 AM 9.87 49.766 0.063 6.87 1.88 10.7
10/29/2021 4:45:00 AM 9.87 49.766 0.063 6.88 1.79 10.69
10/29/2021 5:00:00 AM 9.86 49.748 0.063 6.86 1.88 10.7
10/29/2021 5:15:00 AM 9.85 49.73 0.063 6.81 1.92 10.7
10/29/2021 5:30:00 AM 9.85 49.73 0.063 6.86 1.92 10.71
10/29/2021 5:45:00 AM 9.84 49.712 0.063 6.86 1.83 10.71
10/29/2021 6:00:00 AM 9.83 49.694 0.063 6.85 1.93 10.71
10/29/2021 6:15:00 AM 9.82 49.676 0.063 6.85 1.88 10.71
10/29/2021 6:30:00 AM 9.81 49.658 0.063 6.86 1.81 10.71
10/29/2021 6:45:00 AM 9.8 49.64 0.063 6.86 1.83 10.71
10/29/2021 7:00:00 AM 9.79 49.622 0.063 6.87 1.79 10.71
10/29/2021 7:15:00 AM 9.77 49.586 0.063 6.87 1.8 10.71
10/29/2021 7:30:00 AM 9.75 49.55 0.063 6.86 1.77 10.72
10/29/2021 7:45:00 AM 9.74 49.532 0.063 6.88 1.8 10.72
10/29/2021 8:00:00 AM 9.72 49.496 0.063 6.9 1.72 10.73
10/29/2021 8:15:00 AM 9.71 49.478 0.063 6.89 1.73 10.74
10/29/2021 8:30:00 AM 9.69 49.442 0.063 6.88 1.69 10.75
10/29/2021 8:45:00 AM 9.68 49.424 0.063 6.88 1.6 10.77
10/29/2021 9:00:00 AM 9.66 49.388 0.063 6.9 1.59 10.79
10/29/2021 9:15:00 AM 9.65 49.37 0.063 6.9 1.65 10.8
10/29/2021 9:30:00 AM 9.64 49.352 0.063 6.89 2.17 10.84
10/29/2021 9:45:00 AM 9.65 49.37 0.063 6.91 2.05 10.87
10/29/2021 10:00:00 AM 9.65 49.37 0.063 6.93 2.39 10.89
10/29/2021 10:15:00 AM 9.66 49.388 0.063 6.92 1.53 10.9
10/29/2021 10:30:00 AM 9.66 49.388 0.063 6.95 1.49 10.92
10/29/2021 10:45:00 AM 9.67 49.406 0.063 6.96 1.44 10.93
10/29/2021 11:00:00 AM 9.69 49.442 0.063 6.94 1.47 10.94
10/29/2021 11:15:00 AM 9.7 49.46 0.063 6.95 1.38 10.94
10/29/2021 11:30:00 AM 9.7 49.46 0.063 6.95 1.41 10.95
10/29/2021 11:45:00 AM 9.72 49.496 0.063 6.97 1.36 10.95
10/29/2021 12:00:00 PM 9.73 49.514 0.063 6.97 1.36 10.95
10/29/2021 12:15:00 PM 9.73 49.514 0.063 6.96 1.38 10.92
10/29/2021 12:30:00 PM 9.73 49.514 0.063 6.96 1.32 10.9
10/29/2021 12:45:00 PM 9.73 49.514 0.063 6.95 1.32 10.88
10/29/2021 1:00:00 PM 9.74 49.532 0.063 6.94 1.36 10.86
10/29/2021 1:15:00 PM 9.74 49.532 0.063 6.95 1.39 10.84
10/29/2021 1:30:00 PM 9.74 49.532 0.063 6.94 1.35 10.85
10/29/2021 1:45:00 PM 9.76 49.568 0.063 6.96 1.41 10.87
10/29/2021 2:00:00 PM 9.77 49.586 0.063 6.96 1.41 10.87
10/29/2021 2:15:00 PM 9.76 49.568 0.062 6.96 1.45 10.86
10/29/2021 2:30:00 PM 9.74 49.532 0.062 6.93 1.41 10.84
10/29/2021 2:45:00 PM 9.73 49.514 0.062 6.92 1.45 10.85
10/29/2021 3:00:00 PM 9.74 49.532 0.062 6.94 1.44 10.85
10/29/2021 3:15:00 PM 9.73 49.514 0.062 6.93 1.58 10.82
10/29/2021 3:30:00 PM 9.71 49.478 0.062 6.92 1.63 10.83
10/29/2021 3:45:00 PM 9.7 49.46 0.062 6.91 1.69 10.83
10/29/2021 4:00:00 PM 9.68 49.424 0.062 6.89 1.69 10.81
10/29/2021 4:15:00 PM 9.65 49.37 0.062 6.92 1.79 10.8
10/29/2021 4:30:00 PM 9.62 49.316 0.062 6.85 2.08 10.79
10/29/2021 4:45:00 PM 9.59 49.262 0.061 6.91 2.26 10.79
10/29/2021 5:00:00 PM 9.56 49.208 0.061 6.88 3.01 10.8
10/29/2021 5:15:00 PM 9.54 49.172 0.061 6.79 3.57 10.8
10/29/2021 5:30:00 PM 9.51 49.118 0.061 6.85 4.83 10.8
10/29/2021 5:45:00 PM 9.48 49.064 0.061 6.81 6.32 10.8
10/29/2021 6:00:00 PM 9.45 49.01 0.061 6.86 7.86 10.79
10/29/2021 6:15:00 PM 9.42 48.956 0.057 6.86 9.67 10.79
10/29/2021 6:30:00 PM 9.4 48.92 0.054 6.89 10.57 10.79
10/29/2021 6:45:00 PM 9.39 48.902 0.061 6.86 13.12 10.79
10/29/2021 7:00:00 PM 9.37 48.866 0.061 6.9 17.41 10.79
10/29/2021 7:15:00 PM 9.36 48.848 0.061 6.88 18.4 10.8
10/29/2021 7:30:00 PM 9.36 48.848 0.062 6.85 21.45 10.79
10/29/2021 7:45:00 PM 9.35 48.83 0.061 6.86 19.61 10.79
10/29/2021 8:00:00 PM 9.35 48.83 0.062 6.9 21.62 10.79
10/29/2021 8:15:00 PM 9.34 48.812 0.062 6.87 20.38 10.79
10/29/2021 8:30:00 PM 9.34 48.812 0.062 6.89 18.94 10.8
10/29/2021 8:45:00 PM 9.33 48.794 0.062 6.91 16.89 10.8
10/29/2021 9:00:00 PM 9.32 48.776 0.062 6.9 14.96 10.8
10/29/2021 9:15:00 PM 9.31 48.758 0.062 6.9 15.06 10.8
10/29/2021 9:30:00 PM 9.31 48.758 0.05 6.87 14.71 10.8
10/29/2021 9:45:00 PM 9.3 48.74 0.062 6.85 14.57 10.8
10/29/2021 10:00:00 PM 9.29 48.722 0.062 6.89 13.86 10.8
10/29/2021 10:15:00 PM 9.28 48.704 0.062 6.9 13.67 10.8
10/29/2021 10:30:00 PM 9.28 48.704 0.062 6.84 12.39 10.8
10/29/2021 10:45:00 PM 9.27 48.686 0.062 6.89 10.89 10.8
10/29/2021 11:00:00 PM 9.26 48.668 0.062 6.88 12.57 10.8
10/29/2021 11:15:00 PM 9.25 48.65 0.061 6.83 8.79 10.8
10/29/2021 11:30:00 PM 9.25 48.65 0.062 6.9 8.94 10.8
10/29/2021 11:45:00 PM 9.24 48.632 0.062 6.89 7.75 10.8
10/30/2021 12:00:00 AM 9.23 48.614 0.062 6.83 7.46 10.8
10/30/2021 12:15:00 AM 9.22 48.596 0.056 6.87 6.62 10.8
10/30/2021 12:30:00 AM 9.22 48.596 0.056 6.86 6.05 10.81
10/30/2021 12:45:00 AM 9.21 48.578 0.062 6.89 5.78 10.81
10/30/2021 1:00:00 AM 9.21 48.578 0.062 6.87 5.38 10.81
10/30/2021 1:15:00 AM 9.2 48.56 0.062 6.8 5.3 10.81
10/30/2021 1:30:00 AM 9.2 48.56 0.062 6.87 4.92 10.81
10/30/2021 1:45:00 AM 9.19 48.542 0.062 6.85 4.69 10.81
10/30/2021 2:00:00 AM 9.19 48.542 0.062 6.84 4.38 10.81
10/30/2021 2:15:00 AM 9.18 48.524 0.062 6.84 4.3 10.81
10/30/2021 2:30:00 AM 9.18 48.524 0.062 6.82 4.79 10.81
10/30/2021 2:45:00 AM 9.17 48.506 0.062 6.86 8.42 10.81
10/30/2021 3:00:00 AM 9.17 48.506 0.062 6.87 13 10.81
10/30/2021 3:15:00 AM 9.16 48.488 0.062 6.86 8.81 10.81
10/30/2021 3:30:00 AM 9.16 48.488 0.062 6.8 10.2 10.81
10/30/2021 3:45:00 AM 9.16 48.488 0.062 6.85 9.74 10.82
10/30/2021 4:00:00 AM 9.15 48.47 0.062 6.87 8.81 10.82
10/30/2021 4:15:00 AM 9.15 48.47 0.062 6.87 7.27 10.82
10/30/2021 4:30:00 AM 9.15 48.47 0.062 6.81 7.21 10.81
10/30/2021 4:45:00 AM 9.14 48.452 0.062 6.86 9.01 10.81
10/30/2021 5:00:00 AM 9.14 48.452 0.062 6.85 8.9 10.82
10/30/2021 5:15:00 AM 9.14 48.452 0.062 6.87 9.16 10.82
10/30/2021 5:30:00 AM 9.14 48.452 0.062 6.88 9.42 10.82
10/30/2021 5:45:00 AM 9.13 48.434 0.062 6.87 9.43 10.82
10/30/2021 6:00:00 AM 9.13 48.434 0.062 6.85 9.49 10.82
10/30/2021 6:15:00 AM 9.13 48.434 0.062 6.85 9.81 10.82
10/30/2021 6:30:00 AM 9.13 48.434 0.063 6.85 9.74 10.82
10/30/2021 6:45:00 AM 9.14 48.452 0.062 6.87 10.22 10.82
10/30/2021 7:00:00 AM 9.14 48.452 0.062 6.83 11.61 10.82
10/30/2021 7:15:00 AM 9.14 48.452 0.062 6.88 9.62 10.82
10/30/2021 7:30:00 AM 9.14 48.452 0.062 6.82 10 10.82
10/30/2021 7:45:00 AM 9.14 48.452 0.062 6.87 454.55 10.82
10/30/2021 8:00:00 AM 9.15 48.47 0.062 6.88 9.94 10.83
10/30/2021 8:15:00 AM 9.16 48.488 0.062 6.88 14.09 10.84
10/30/2021 8:30:00 AM 9.16 48.488 0.062 6.83 17.92 10.85
10/30/2021 8:45:00 AM 9.18 48.524 0.061 6.86 11.6 10.86
10/30/2021 9:00:00 AM 9.19 48.542 0.062 6.86 11.53 10.89
10/30/2021 9:15:00 AM 9.22 48.596 0.062 6.91 10.72 10.91
10/30/2021 9:30:00 AM 9.24 48.632 0.062 6.91 19.81 10.92
10/30/2021 9:45:00 AM 9.26 48.668 0.06 6.87 26.51 10.93
10/30/2021 10:00:00 AM 9.29 48.722 0.06 6.9 25.02 10.94
10/30/2021 10:15:00 AM 9.32 48.776 0.06 6.95 12.27 10.94
10/30/2021 10:30:00 AM 9.34 48.812 0.062 6.9 13.96 10.95
10/30/2021 10:45:00 AM 9.37 48.866 0.06 6.96 13.69 10.94
10/30/2021 11:00:00 AM 9.39 48.902 0.06 6.87 13.37 10.93
10/30/2021 11:15:00 AM 9.41 48.938 0.059 6.91 23.58 10.93
10/30/2021 11:30:00 AM 9.45 49.01 0.062 6.91 8.57 10.93
10/30/2021 11:45:00 AM 9.49 49.082 0.062 6.96 9.14 10.93
10/30/2021 12:00:00 PM 9.53 49.154 0.062 6.92 6.3 10.94
10/30/2021 12:15:00 PM 9.57 49.226 0.062 6.94 7.09 10.94
10/30/2021 12:30:00 PM 9.6 49.28 0.062 6.94 5.12 10.92
10/30/2021 12:45:00 PM 9.61 49.298 0.062 6.96 7.09 10.9
10/30/2021 1:00:00 PM 9.64 49.352 0.062 6.97 7.49 10.87
10/30/2021 1:15:00 PM 9.67 49.406 0.061 6.95 7.44 10.87
10/30/2021 1:30:00 PM 9.7 49.46 0.061 6.95 7.61 10.86
10/30/2021 1:45:00 PM 9.74 49.532 0.061 6.91 8.57 10.86
10/30/2021 2:00:00 PM 9.79 49.622 0.061 6.97 9 10.88
10/30/2021 2:15:00 PM 9.82 49.676 0.061 6.96 9.09 10.85
10/30/2021 2:30:00 PM 9.84 49.712 0.061 6.96 10.32 10.84
10/30/2021 2:45:00 PM 9.86 49.748 0.061 6.92 9.4 10.83
10/30/2021 3:00:00 PM 9.9 49.82 0.061 6.95 9.24 10.82
10/30/2021 3:15:00 PM 9.96 49.928 0.061 6.94 9.55 10.82
10/30/2021 3:30:00 PM 10 50 0.061 6.97 9.59 10.81
10/30/2021 3:45:00 PM 10.01 50.018 0.061 6.96 10.78 10.79
10/30/2021 4:00:00 PM 10.02 50.036 0.061 6.96 12.38 10.76
10/30/2021 4:15:00 PM 10.03 50.054 0.061 6.94 14.89 10.73
10/30/2021 4:30:00 PM 10.05 50.09 0.06 6.96 15.75 10.71
10/30/2021 4:45:00 PM 10.06 50.108 0.061 6.93 15.51 10.69
10/30/2021 5:00:00 PM 10.07 50.126 0.062 6.9 14.91 10.67
10/30/2021 5:15:00 PM 10.08 50.144 0.062 6.92 11.01 10.65
10/30/2021 5:30:00 PM 10.08 50.144 0.062 6.9 4.48 10.63
10/30/2021 5:45:00 PM 10.07 50.126 0.056 6.91 41.12 10.62
10/30/2021 6:00:00 PM 10.07 50.126 0.056 6.87 3.22 10.6
10/30/2021 6:15:00 PM 10.06 50.108 0.053 6.9 3.13 10.61
10/30/2021 6:30:00 PM 10.06 50.108 0.051 6.88 3.27 10.6
10/30/2021 6:45:00 PM 10.05 50.09 0.05 6.86 3.25 10.59
10/30/2021 7:00:00 PM 10.04 50.072 0.049 6.86 3.19 10.59
10/30/2021 7:15:00 PM 10.03 50.054 0.051 6.87 3.15 10.59
10/30/2021 7:30:00 PM 10.02 50.036 0.051 6.81 3.22 10.59
10/30/2021 7:45:00 PM 10.02 50.036 0.049 6.87 3.15 10.59
10/30/2021 8:00:00 PM 10.01 50.018 0.049 6.87 3.25 10.61
10/30/2021 8:15:00 PM 10 50 0.049 6.87 2.99 10.59
10/30/2021 8:30:00 PM 10 50 0.05 6.87 3.1 10.61
10/30/2021 8:45:00 PM 9.99 49.982 0.048 6.82 3.03 10.61
10/30/2021 9:00:00 PM 9.99 49.982 0.048 6.85 2.99 10.6
10/30/2021 9:15:00 PM 9.98 49.964 0.047 6.85 2.88 10.6
10/30/2021 9:30:00 PM 9.97 49.946 0.049 6.85 2.99 10.6
10/30/2021 9:45:00 PM 9.97 49.946 0.048 6.86 2.94 10.62
10/30/2021 10:00:00 PM 9.97 49.946 0.048 6.81 2.92 10.61
10/30/2021 10:15:00 PM 9.96 49.928 0.047 6.86 2.9 10.61
10/30/2021 10:30:00 PM 9.96 49.928 0.049 6.88 3.87 10.61
10/30/2021 10:45:00 PM 9.95 49.91 0.051 6.86 2.85 10.62
10/30/2021 11:00:00 PM 9.95 49.91 0.034 6.81 9.3 10.61
10/30/2021 11:15:00 PM 9.95 49.91 0.051 6.81 4.83 10.62
10/30/2021 11:30:00 PM 9.94 49.892 0.051 6.87 2.91 10.61
10/30/2021 11:45:00 PM 9.94 49.892 0.053 6.85 2.74 10.62
10/31/2021 12:00:00 AM 9.94 49.892 0.054 6.84 2.65 10.62
10/31/2021 12:15:00 AM 9.93 49.874 0.055 6.86 2.67 10.63
10/31/2021 12:30:00 AM 9.93 49.874 0.055 6.82 2.73 10.63
10/31/2021 12:45:00 AM 9.93 49.874 0.057 6.85 2.64 10.63
10/31/2021 1:00:00 AM 9.92 49.856 0.057 6.82 2.79 10.62
10/31/2021 1:15:00 AM 9.92 49.856 0.053 6.83 2.9 10.62
10/31/2021 1:30:00 AM 9.92 49.856 0.058 6.84 2.66 10.62
10/31/2021 1:45:00 AM 9.92 49.856 0.053 6.82 2.84 10.61
10/31/2021 2:00:00 AM 9.91 49.838 0.06 6.84 76.5 10.61
10/31/2021 2:15:00 AM 9.91 49.838 0.042 6.84 2.95 10.63
10/31/2021 2:30:00 AM 9.91 49.838 0.061 6.87 9.35 10.61
10/31/2021 2:45:00 AM 9.9 49.82 0.061 6.78 2.63 10.61
10/31/2021 3:00:00 AM 9.89 49.802 0.061 6.86 2.78 10.62
10/31/2021 3:15:00 AM 9.88 49.784 0.061 6.84 28.83 10.61
10/31/2021 3:30:00 AM 9.88 49.784 0.061 6.87 3.2 10.62
10/31/2021 3:45:00 AM 9.88 49.784 0.061 6.86 3.93 10.62
10/31/2021 4:00:00 AM 9.88 49.784 0.061 6.86 10.94 10.61
10/31/2021 4:15:00 AM 9.87 49.766 0.061 6.84 36.82 10.62
10/31/2021 4:30:00 AM 9.86 49.748 0.061 6.83 2.63 10.62
10/31/2021 4:45:00 AM 9.86 49.748 0.057 6.87 2.59 10.63
10/31/2021 5:00:00 AM 9.86 49.748 0.056 6.85 2.5 10.62
10/31/2021 5:15:00 AM 9.86 49.748 0.055 6.87 2.67 10.63
10/31/2021 5:30:00 AM 9.85 49.73 0.055 6.87 2.62 10.63
10/31/2021 5:45:00 AM 9.85 49.73 0.055 6.87 2.7 10.63
10/31/2021 6:00:00 AM 9.85 49.73 0.055 6.87 2.64 10.63
10/31/2021 6:15:00 AM 9.85 49.73 0.055 6.88 2.59 10.64
10/31/2021 6:30:00 AM 9.84 49.712 0.056 6.87 2.5 10.63
10/31/2021 6:45:00 AM 9.84 49.712 0.056 6.85 2.47 10.64
10/31/2021 7:00:00 AM 9.84 49.712 0.055 6.88 2.65 10.65
10/31/2021 7:15:00 AM 9.84 49.712 0.056 6.86 2.53 10.64
10/31/2021 7:30:00 AM 9.84 49.712 0.056 6.86 2.57 10.65
10/31/2021 7:45:00 AM 9.83 49.694 0.056 6.87 2.78 10.64
10/31/2021 8:00:00 AM 9.83 49.694 0.056 6.87 2.6 10.65
10/31/2021 8:15:00 AM 9.83 49.694 0.056 6.87 2.49 10.66
10/31/2021 8:30:00 AM 9.84 49.712 0.056 6.88 2.59 10.68
10/31/2021 8:45:00 AM 9.84 49.712 0.056 6.87 2.52 10.69
10/31/2021 9:00:00 AM 9.85 49.73 0.056 6.88 2.42 10.72
10/31/2021 9:15:00 AM 9.87 49.766 0.056 6.9 2.42 10.75
10/31/2021 9:30:00 AM 9.89 49.802 0.056 6.91 2.4 10.78
10/31/2021 9:45:00 AM 9.9 49.82 0.056 6.92 2.27 10.77
10/31/2021 10:00:00 AM 9.9 49.82 0.056 6.87 2.27 10.78
10/31/2021 10:15:00 AM 9.92 49.856 0.056 6.9 2.29 10.8
10/31/2021 10:30:00 AM 9.93 49.874 0.056 6.94 2.48 10.81
10/31/2021 10:45:00 AM 9.95 49.91 0.056 6.95 2.29 10.82
10/31/2021 11:00:00 AM 9.97 49.946 0.056 6.89 2.26 10.83
10/31/2021 11:15:00 AM 9.97 49.946 0.056 6.91 2.35 10.83
10/31/2021 11:30:00 AM 9.97 49.946 0.056 6.95 2.38 10.81
10/31/2021 11:45:00 AM 9.98 49.964 0.056 6.94 2.32 10.81
10/31/2021 12:00:00 PM 9.99 49.982 0.053 6.96 2.51 10.83
10/31/2021 12:15:00 PM 10.01 50.018 0.051 6.97 2.77 10.83
10/31/2021 12:30:00 PM 10.03 50.054 0.048 6.97 2.7 10.83
10/31/2021 12:45:00 PM 10.06 50.108 0.048 6.98 2.64 10.84
10/31/2021 1:00:00 PM 10.12 50.216 0.048 6.93 2.55 10.85
10/31/2021 1:15:00 PM 10.14 50.252 0.052 6.93 2.51 10.83
10/31/2021 1:30:00 PM 10.18 50.324 0.059 6.95 2.61 10.83
10/31/2021 1:45:00 PM 10.21 50.378 0.06 6.95 7.88 10.83
10/31/2021 2:00:00 PM 10.25 50.45 0.056 6.92 2.47 10.83
10/31/2021 2:15:00 PM 10.3 50.54 0.056 6.93 2.51 10.81
10/31/2021 2:30:00 PM 10.33 50.594 0.058 6.95 2.46 10.81
10/31/2021 2:45:00 PM 10.38 50.684 0.057 6.94 2.49 10.79
10/31/2021 3:00:00 PM 10.39 50.702 0.06 6.96 2.57 10.79
10/31/2021 3:15:00 PM 10.38 50.684 0.06 6.95 2.48 10.77
10/31/2021 3:30:00 PM 10.37 50.666 0.057 6.91 2.35 10.76
10/31/2021 3:45:00 PM 10.35 50.63 0.06 6.94 2.43 10.77
10/31/2021 4:00:00 PM 10.33 50.594 0.06 6.94 2.46 10.75
10/31/2021 4:15:00 PM 10.33 50.594 0.06 6.89 2.39 10.76
10/31/2021 4:30:00 PM 10.34 50.612 0.06 6.89 2.33 10.76
10/31/2021 4:45:00 PM 10.32 50.576 0.06 6.95 2.36 10.74
10/31/2021 5:00:00 PM 10.29 50.522 0.06 6.88 2.61 10.73
10/31/2021 5:15:00 PM 10.27 50.486 0.06 6.91 2.47 10.72
10/31/2021 5:30:00 PM 10.24 50.432 0.06 6.88 2.37 10.71
10/31/2021 5:45:00 PM 10.19 50.342 0.06 6.87 2.48 10.68
10/31/2021 6:00:00 PM 10.14 50.252 0.06 6.86 2.31 10.69
10/31/2021 6:15:00 PM 10.09 50.162 0.06 6.85 2.37 10.67
10/31/2021 6:30:00 PM 10.04 50.072 0.06 6.85 2.32 10.67
10/31/2021 6:45:00 PM 9.99 49.982 0.06 6.82 2.36 10.67
10/31/2021 7:00:00 PM 9.94 49.892 0.06 6.84 2.52 10.69
10/31/2021 7:15:00 PM 9.89 49.802 0.06 6.84 2.44 10.69
10/31/2021 7:30:00 PM 9.84 49.712 0.06 6.85 2.43 10.71
10/31/2021 7:45:00 PM 9.79 49.622 0.06 6.82 2.49 10.72
10/31/2021 8:00:00 PM 9.74 49.532 0.06 6.83 2.79 10.73
10/31/2021 8:15:00 PM 9.69 49.442 0.06 6.82 2.39 10.75
10/31/2021 8:30:00 PM 9.64 49.352 0.06 6.76 2.44 10.76
10/31/2021 8:45:00 PM 9.61 49.298 0.06 6.77 2.44 10.78
10/31/2021 9:00:00 PM 9.58 49.244 0.06 6.71 2.46 10.79
10/31/2021 9:15:00 PM 9.55 49.19 0.06 6.78 2.46 10.8
10/31/2021 9:30:00 PM 9.52 49.136 0.06 6.75 2.38 10.81
10/31/2021 9:45:00 PM 9.5 49.1 0.06 6.79 2.61 10.82
10/31/2021 10:00:00 PM 9.47 49.046 0.06 6.77 2.52 10.82
10/31/2021 10:15:00 PM 9.47 49.046 0.06 6.76 2.49 10.83
10/31/2021 10:30:00 PM 9.46 49.028 0.06 6.76 2.33 10.83
10/31/2021 10:45:00 PM 9.45 49.01 0.06 6.78 2.31 10.84
10/31/2021 11:00:00 PM 9.44 48.992 0.06 6.77 2.86 10.85
10/31/2021 11:15:00 PM 9.44 48.992 0.06 6.79 2.48 10.85
10/31/2021 11:30:00 PM 9.44 48.992 0.06 6.77 2.5 10.85
10/31/2021 11:45:00 PM 9.43 48.974 0.06 6.78 2.42 10.85
11/1/2021 12:00:00 AM 9.43 48.974 0.06 6.77 2.31 10.85
11/1/2021 12:15:00 AM 9.43 48.974 0.06 6.77 2.35 10.85
11/1/2021 12:30:00 AM 9.43 48.974 0.06 6.78 2.32 10.85
11/1/2021 12:45:00 AM 9.43 48.974 0.06 6.79 2.3 10.85
11/1/2021 1:00:00 AM 9.44 48.992 0.06 6.78 2.35 10.85
11/1/2021 1:15:00 AM 9.44 48.992 0.06 6.78 2.33 10.85
11/1/2021 1:30:00 AM 9.44 48.992 0.06 6.77 2.43 10.85
11/1/2021 1:45:00 AM 9.45 49.01 0.06 6.76 2.39 10.85
11/1/2021 2:00:00 AM 9.45 49.01 0.06 6.77 2.37 10.85
11/1/2021 2:15:00 AM 9.45 49.01 0.06 6.79 2.33 10.86
11/1/2021 2:30:00 AM 9.44 48.992 0.06 6.75 2.29 10.86
11/1/2021 2:45:00 AM 9.44 48.992 0.06 6.76 2.28 10.86
11/1/2021 3:00:00 AM 9.43 48.974 0.06 6.77 2.3 10.87
11/1/2021 3:15:00 AM 9.41 48.938 0.06 6.78 2.4 10.87
11/1/2021 3:30:00 AM 9.4 48.92 0.06 6.77 2.27 10.88
11/1/2021 3:45:00 AM 9.38 48.884 0.06 6.77 2.3 10.88
11/1/2021 4:00:00 AM 9.36 48.848 0.06 6.74 2.31 10.89
11/1/2021 4:15:00 AM 9.34 48.812 0.06 6.79 2.32 10.9
11/1/2021 4:30:00 AM 9.31 48.758 0.06 6.83 2.73 10.91
11/1/2021 4:45:00 AM 9.28 48.704 0.06 6.82 2.89 10.92
11/1/2021 5:00:00 AM 9.25 48.65 0.06 6.83 2.97 10.93
11/1/2021 5:15:00 AM 9.22 48.596 0.06 6.8 2.88 10.94
11/1/2021 5:30:00 AM 9.19 48.542 0.06 6.78 2.78 10.96
11/1/2021 5:45:00 AM 9.16 48.488 0.06 6.8 2.86 10.97
11/1/2021 6:00:00 AM 9.12 48.416 0.06 6.82 2.89 10.98
11/1/2021 6:15:00 AM 9.09 48.362 0.06 6.83 2.75 10.99
11/1/2021 6:30:00 AM 9.05 48.29 0.06 6.83 2.72 11.01
11/1/2021 6:45:00 AM 9 48.2 0.06 6.8 2.82 11.01
11/1/2021 7:00:00 AM 8.96 48.128 0.06 6.83 2.86 11.03
11/1/2021 7:15:00 AM 8.93 48.074 0.06 6.83 2.73 11.05
11/1/2021 7:30:00 AM 8.89 48.002 0.06 6.82 2.64 11.05
11/1/2021 7:45:00 AM 8.84 47.912 0.06 6.82 2.76 11.08
11/1/2021 8:00:00 AM 8.8 47.84 0.06 6.81 2.63 11.1
11/1/2021 8:15:00 AM 8.77 47.786 0.06 6.82 2.63 11.13
11/1/2021 8:30:00 AM 8.74 47.732 0.06 6.79 2.55 11.17
11/1/2021 8:45:00 AM 8.71 47.678 0.06 6.84 2.48 11.2
11/1/2021 9:00:00 AM 8.69 47.642 0.06 6.84 2.46 11.23
11/1/2021 9:15:00 AM 8.68 47.624 0.06 6.85 2.45 11.26
11/1/2021 9:30:00 AM 8.67 47.606 0.06 6.87 2.4 11.29
11/1/2021 9:45:00 AM 8.67 47.606 0.06 6.88 2.42 11.31
11/1/2021 10:00:00 AM 8.69 47.642 0.06 6.9 2.36 11.33
11/1/2021 10:15:00 AM 8.72 47.696 0.06 6.9 2.38 11.35
11/1/2021 10:30:00 AM 8.74 47.732 0.06 6.91 2.36 11.36
11/1/2021 10:45:00 AM 8.76 47.768 0.06 6.92 2.32 11.37
11/1/2021 11:00:00 AM 8.78 47.804 0.06 6.92 2.35 11.38
11/1/2021 11:15:00 AM 8.79 47.822 0.06 6.91 2.37 11.37
11/1/2021 11:30:00 AM 8.82 47.876 0.06 6.93 2.38 11.37
11/1/2021 11:45:00 AM 8.86 47.948 0.06 6.95 2.3 11.38
11/1/2021 12:00:00 PM 8.86 47.948 0.06 6.94 2.37 11.37
11/1/2021 12:15:00 PM 8.88 47.984 0.06 6.93 2.38 11.36
11/1/2021 12:30:00 PM 8.97 48.146 0.06 6.96 2.35 11.36
11/1/2021 12:45:00 PM 9.04 48.272 0.06 6.9 2.4 11.35
11/1/2021 1:00:00 PM 9.03 48.254 0.06 6.95 2.35 11.33
11/1/2021 1:15:00 PM 9.02 48.236 0.06 6.95 2.37 11.31
11/1/2021 1:30:00 PM 9.05 48.29 0.06 6.96 2.52 11.3
11/1/2021 1:45:00 PM 9.13 48.434 0.06 6.98 2.56 11.29
11/1/2021 2:00:00 PM 9.19 48.542 0.06 6.99 2.39 11.28
11/1/2021 2:15:00 PM 9.21 48.578 0.06 6.99 2.41 11.26
11/1/2021 2:30:00 PM 9.23 48.614 0.06 6.95 2.37 11.24
11/1/2021 2:45:00 PM 9.37 48.866 0.06 7 2.49 11.22
11/1/2021 3:00:00 PM 9.5 49.1 0.06 7.02 2.35 11.2
11/1/2021 3:15:00 PM 9.55 49.19 0.06 7.01 2.35 11.17
11/1/2021 3:30:00 PM 9.54 49.172 0.06 6.98 2.46 11.15
11/1/2021 3:45:00 PM 9.56 49.208 0.06 6.95 2.37 11.14
11/1/2021 4:00:00 PM 9.56 49.208 0.06 6.97 2.37 11.12
11/1/2021 4:15:00 PM 9.51 49.118 0.06 6.92 2.39 11.1
11/1/2021 4:30:00 PM 9.45 49.01 0.06 6.94 2.47 11.1
11/1/2021 4:45:00 PM 9.37 48.866 0.06 6.91 2.35 11.1
11/1/2021 5:00:00 PM 9.27 48.686 0.06 6.91 2.46 11.11
11/1/2021 5:15:00 PM 9.19 48.542 0.06 6.82 2.47 11.12
11/1/2021 5:30:00 PM 9.12 48.416 0.06 6.88 2.34 11.13
11/1/2021 5:45:00 PM 9.05 48.29 0.06 6.88 2.4 11.14
11/1/2021 6:00:00 PM 8.97 48.146 0.06 6.86 2.51 11.13
11/1/2021 6:15:00 PM 8.91 48.038 0.06 6.76 2.61 11.13
11/1/2021 6:30:00 PM 8.85 47.93 0.06 6.77 2.54 11.14
11/1/2021 6:45:00 PM 8.79 47.822 0.06 6.83 2.53 11.14
11/1/2021 7:00:00 PM 8.73 47.714 0.06 6.82 2.52 11.15
11/1/2021 7:15:00 PM 8.67 47.606 0.06 6.83 2.63 11.16
11/1/2021 7:30:00 PM 8.62 47.516 0.06 6.84 2.49 11.18
11/1/2021 7:45:00 PM 8.57 47.426 0.061 6.84 2.54 11.19
11/1/2021 8:00:00 PM 8.52 47.336 0.061 6.8 2.49 11.2
11/1/2021 8:15:00 PM 8.48 47.264 0.061 6.8 2.63 11.21
11/1/2021 8:30:00 PM 8.43 47.174 0.061 6.78 2.61 11.23
11/1/2021 8:45:00 PM 8.38 47.084 0.061 6.77 2.66 11.24
11/1/2021 9:00:00 PM 8.33 46.994 0.061 6.77 2.48 11.26
11/1/2021 9:15:00 PM 8.28 46.904 0.061 6.78 2.52 11.27
11/1/2021 9:30:00 PM 8.23 46.814 0.061 6.83 2.61 11.29
11/1/2021 9:45:00 PM 8.17 46.706 0.061 6.83 2.44 11.3
11/1/2021 10:00:00 PM 8.12 46.616 0.061 6.79 2.46 11.31
11/1/2021 10:15:00 PM 8.07 46.526 0.061 6.8 2.47 11.33
11/1/2021 10:30:00 PM 8.03 46.454 0.061 6.81 2.5 11.34
11/1/2021 10:45:00 PM 8 46.4 0.061 6.81 2.41 11.36
11/1/2021 11:00:00 PM 7.97 46.346 0.061 6.78 2.5 11.37
11/1/2021 11:15:00 PM 7.94 46.292 0.061 6.85 2.44 11.38
11/1/2021 11:30:00 PM 7.91 46.238 0.061 6.79 2.42 11.39
11/1/2021 11:45:00 PM 7.88 46.184 0.061 6.81 2.43 11.39
11/2/2021 12:00:00 AM 7.86 46.148 0.061 6.81 2.39 11.4
11/2/2021 12:15:00 AM 7.85 46.13 0.061 6.8 2.41 11.41
11/2/2021 12:30:00 AM 7.83 46.094 0.061 6.79 2.42 11.41
11/2/2021 12:45:00 AM 7.81 46.058 0.061 6.82 2.35 11.42
11/2/2021 1:00:00 AM 7.79 46.022 0.061 6.79 2.35 11.42
11/2/2021 1:15:00 AM 7.77 45.986 0.061 6.84 2.34 11.42
11/2/2021 1:30:00 AM 7.75 45.95 0.061 6.81 2.44 11.44
11/2/2021 1:45:00 AM 7.73 45.914 0.061 6.83 2.42 11.44
11/2/2021 2:00:00 AM 7.71 45.878 0.061 6.83 2.34 11.44
11/2/2021 2:15:00 AM 7.69 45.842 0.061 6.77 2.39 11.45
11/2/2021 2:30:00 AM 7.68 45.824 0.061 6.84 2.29 11.46
11/2/2021 2:45:00 AM 7.66 45.788 0.061 6.83 2.58 11.45
11/2/2021 3:00:00 AM 7.65 45.77 0.061 6.8 2.3 11.47
11/2/2021 3:15:00 AM 7.64 45.752 0.061 6.82 2.28 11.47
11/2/2021 3:30:00 AM 7.64 45.752 0.061 6.82 2.34 11.47
11/2/2021 3:45:00 AM 7.63 45.734 0.061 6.81 2.28 11.46
11/2/2021 4:00:00 AM 7.62 45.716 0.061 6.83 2.28 11.47
11/2/2021 4:15:00 AM 7.62 45.716 0.061 6.75 2.33 11.47
11/2/2021 4:30:00 AM 7.62 45.716 0.061 6.74 2.27 11.47
11/2/2021 4:45:00 AM 7.63 45.734 0.061 6.81 2.23 11.47
11/2/2021 5:00:00 AM 7.63 45.734 0.061 6.78 2.29 11.47
11/2/2021 5:15:00 AM 7.64 45.752 0.061 6.74 2.22 11.47
11/2/2021 5:30:00 AM 7.64 45.752 0.061 6.78 2.3 11.47
11/2/2021 5:45:00 AM 7.64 45.752 0.061 6.81 2.21 11.48
11/2/2021 6:00:00 AM 7.64 45.752 0.061 6.84 2.2 11.48
11/2/2021 6:15:00 AM 7.63 45.734 0.061 6.84 2.29 11.48
11/2/2021 6:30:00 AM 7.61 45.698 0.061 6.84 2.3 11.48
11/2/2021 6:45:00 AM 7.59 45.662 0.061 6.83 2.31 11.48
11/2/2021 7:00:00 AM 7.57 45.626 0.061 6.83 2.3 11.49
11/2/2021 7:15:00 AM 7.55 45.59 0.061 6.83 2.37 11.49
11/2/2021 7:30:00 AM 7.52 45.536 0.061 6.84 2.26 11.5
11/2/2021 7:45:00 AM 7.49 45.482 0.061 6.84 2.23 11.51
11/2/2021 8:00:00 AM 7.47 45.446 0.061 6.84 2.32 11.53
11/2/2021 8:15:00 AM 7.45 45.41 0.061 6.82 2.36 11.56
11/2/2021 8:30:00 AM 7.43 45.374 0.061 6.86 2.28 11.59
11/2/2021 8:45:00 AM 7.41 45.338 0.061 6.87 2.24 11.61
11/2/2021 9:00:00 AM 7.4 45.32 0.061 6.88 2.11 11.65
11/2/2021 9:15:00 AM 7.41 45.338 0.061 6.89 2.16 11.69
11/2/2021 9:30:00 AM 7.41 45.338 0.061 6.91 2.1 11.7
11/2/2021 9:45:00 AM 7.41 45.338 0.061 6.9 2.15 11.73
11/2/2021 10:00:00 AM 7.45 45.41 0.061 6.92 2.09 11.75
11/2/2021 10:15:00 AM 7.48 45.464 0.061 6.93 2.09 11.75
11/2/2021 10:30:00 AM 7.51 45.518 0.061 6.92 2.1 11.73
11/2/2021 10:45:00 AM 7.54 45.572 0.061 6.95 2.19 11.73
11/2/2021 11:00:00 AM 7.6 45.68 0.061 6.95 2.19 11.74
11/2/2021 11:15:00 AM 7.67 45.806 0.061 6.97 2.09 11.74
11/2/2021 11:30:00 AM 7.77 45.986 0.061 6.92 2.09 11.73
11/2/2021 11:45:00 AM 7.83 46.094 0.061 6.96 2.24 11.72
11/2/2021 12:00:00 PM 7.85 46.13 0.061 6.97 2.1 11.7
11/2/2021 12:15:00 PM 7.9 46.22 0.061 6.98 2.08 11.68
11/2/2021 12:30:00 PM 7.96 46.328 0.061 6.95 2.15 11.65
11/2/2021 12:45:00 PM 8.04 46.472 0.061 6.97 2.02 11.64
11/2/2021 1:00:00 PM 8.19 46.742 0.06 6.98 2.12 11.61
11/2/2021 1:15:00 PM 8.31 46.958 0.061 6.97 2.12 11.58
11/2/2021 1:30:00 PM 8.28 46.904 0.06 6.93 2.04 11.56
11/2/2021 1:45:00 PM 8.21 46.778 0.06 6.87 2.05 11.56
11/2/2021 2:00:00 PM 8.24 46.832 0.061 6.97 2.2 11.57
11/2/2021 2:15:00 PM 8.3 46.94 0.061 6.98 2.15 11.56
11/2/2021 2:30:00 PM 8.29 46.922 0.061 6.89 1.98 11.56
11/2/2021 2:45:00 PM 8.28 46.904 0.06 7 2.05 11.55
11/2/2021 3:00:00 PM 8.34 47.012 0.061 6.94 2.18 11.54
11/2/2021 3:15:00 PM 8.41 47.138 0.061 6.96 2.07 11.53
11/2/2021 3:30:00 PM 8.42 47.156 0.06 6.97 2.15 11.52
11/2/2021 3:45:00 PM 8.43 47.174 0.061 6.91 2.12 11.5
11/2/2021 4:00:00 PM 8.41 47.138 0.061 6.96 2.11 11.48
11/2/2021 4:15:00 PM 8.39 47.102 0.061 6.92 5.76 11.44
11/2/2021 4:30:00 PM 8.35 47.03 0.043 6.92 2.1 11.42
11/2/2021 4:45:00 PM 8.31 46.958 0.055 6.91 2.08 11.41
11/2/2021 5:00:00 PM 8.28 46.904 0.053 6.87 2.26 11.39
11/2/2021 5:15:00 PM 8.25 46.85 0.055 6.86 2.14 11.38
11/2/2021 5:30:00 PM 8.21 46.778 0.058 6.88 2.12 11.39
11/2/2021 5:45:00 PM 8.17 46.706 0.055 6.83 2.11 11.37
11/2/2021 6:00:00 PM 8.13 46.634 0.053 6.84 2.2 11.37
11/2/2021 6:15:00 PM 8.1 46.58 0.053 6.85 2.24 11.37
11/2/2021 6:30:00 PM 8.06 46.508 0.051 6.8 2.23 11.37
11/2/2021 6:45:00 PM 8.03 46.454 0.061 6.84 2.3 11.38
11/2/2021 7:00:00 PM 8 46.4 0.061 6.84 2.22 11.38
11/2/2021 7:15:00 PM 7.97 46.346 0.061 6.83 2.96 11.38
11/2/2021 7:30:00 PM 7.94 46.292 0.061 6.83 2.19 11.39
11/2/2021 7:45:00 PM 7.91 46.238 0.061 6.83 2.22 11.4
11/2/2021 8:00:00 PM 7.87 46.166 0.061 6.83 2.27 11.4
11/2/2021 8:15:00 PM 7.84 46.112 0.062 6.83 2.28 11.42
11/2/2021 8:30:00 PM 7.81 46.058 0.062 6.84 2.18 11.43
11/2/2021 8:45:00 PM 7.77 45.986 0.062 6.84 2.32 11.43
11/2/2021 9:00:00 PM 7.74 45.932 0.062 6.83 2.21 11.44
11/2/2021 9:15:00 PM 7.72 45.896 0.062 6.84 2.18 11.45
11/2/2021 9:30:00 PM 7.69 45.842 0.062 6.83 2.23 11.46
11/2/2021 9:45:00 PM 7.65 45.77 0.062 6.83 2.18 11.47
11/2/2021 10:00:00 PM 7.61 45.698 0.062 6.83 2.21 11.48
11/2/2021 10:15:00 PM 7.57 45.626 0.062 6.83 2.2 11.49
11/2/2021 10:30:00 PM 7.54 45.572 0.062 6.82 2.17 11.5
11/2/2021 10:45:00 PM 7.5 45.5 0.062 6.83 2.18 11.51
11/2/2021 11:00:00 PM 7.46 45.428 0.062 6.82 2.18 11.52
11/2/2021 11:15:00 PM 7.44 45.392 0.062 6.78 2.15 11.53
11/2/2021 11:30:00 PM 7.41 45.338 0.062 6.83 2.2 11.54
11/2/2021 11:45:00 PM 7.38 45.284 0.062 6.82 2.12 11.55
11/3/2021 12:00:00 AM 7.35 45.23 0.062 6.82 2.09 11.56
11/3/2021 12:15:00 AM 7.33 45.194 0.062 6.81 2.23 11.56
11/3/2021 12:30:00 AM 7.32 45.176 0.062 6.84 2.17 11.57
11/3/2021 12:45:00 AM 7.3 45.14 0.062 6.83 2.1 11.58
11/3/2021 1:00:00 AM 7.28 45.104 0.062 6.83 2.08 11.58
11/3/2021 1:15:00 AM 7.27 45.086 0.062 6.8 2.16 11.59
11/3/2021 1:30:00 AM 7.26 45.068 0.062 6.84 2.13 11.59
11/3/2021 1:45:00 AM 7.25 45.05 0.062 6.82 2.16 11.6
11/3/2021 2:00:00 AM 7.24 45.032 0.062 6.84 2.22 11.59
11/3/2021 2:15:00 AM 7.23 45.014 0.062 6.83 2.22 11.6
11/3/2021 2:30:00 AM 7.22 44.996 0.062 6.83 2.17 11.61
11/3/2021 2:45:00 AM 7.22 44.996 0.062 6.83 2.11 11.6
11/3/2021 3:00:00 AM 7.22 44.996 0.062 6.83 2.08 11.61
11/3/2021 3:15:00 AM 7.22 44.996 0.062 6.81 2.07 11.61
11/3/2021 3:30:00 AM 7.22 44.996 0.062 6.85 2.06 11.61
11/3/2021 3:45:00 AM 7.21 44.978 0.062 6.83 2.08 11.61
11/3/2021 4:00:00 AM 7.22 44.996 0.062 6.83 2.04 11.61
11/3/2021 4:15:00 AM 7.22 44.996 0.062 6.88 2.32 11.61
11/3/2021 4:30:00 AM 7.22 44.996 0.062 6.88 2.08 11.61
11/3/2021 4:45:00 AM 7.22 44.996 0.062 6.86 2.12 11.61
11/3/2021 5:00:00 AM 7.21 44.978 0.062 6.86 2 11.61
11/3/2021 5:15:00 AM 7.21 44.978 0.062 6.84 2 11.61
11/3/2021 5:30:00 AM 7.2 44.96 0.062 6.84 2.01 11.61
11/3/2021 5:45:00 AM 7.18 44.924 0.062 6.85 1.95 11.61
11/3/2021 6:00:00 AM 7.17 44.906 0.062 6.84 2.01 11.62
11/3/2021 6:15:00 AM 7.15 44.87 0.062 6.85 2.07 11.62
11/3/2021 6:30:00 AM 7.13 44.834 0.062 6.84 1.98 11.63
11/3/2021 6:45:00 AM 7.12 44.816 0.062 6.85 2.08 11.63
11/3/2021 7:00:00 AM 7.1 44.78 0.062 6.84 2 11.64
11/3/2021 7:15:00 AM 7.09 44.762 0.063 6.85 2.04 11.64
11/3/2021 7:30:00 AM 7.08 44.744 0.062 6.84 2.11 11.65
11/3/2021 7:45:00 AM 7.06 44.708 0.062 6.84 2.04 11.65
11/3/2021 8:00:00 AM 7.06 44.708 0.062 6.85 2.06 11.67
11/3/2021 8:15:00 AM 7.05 44.69 0.062 6.86 2.02 11.69
11/3/2021 8:30:00 AM 7.05 44.69 0.062 6.86 1.99 11.72
11/3/2021 8:45:00 AM 7.06 44.708 0.062 6.86 1.99 11.75
11/3/2021 9:00:00 AM 7.07 44.726 0.062 6.88 1.96 11.78
11/3/2021 9:15:00 AM 7.09 44.762 0.062 6.88 2.01 11.81
11/3/2021 9:30:00 AM 7.1 44.78 0.062 6.91 1.98 11.84
11/3/2021 9:45:00 AM 7.13 44.834 0.062 6.91 2.08 11.86
11/3/2021 10:00:00 AM 7.15 44.87 0.062 6.86 1.91 11.87
11/3/2021 10:15:00 AM 7.18 44.924 0.062 6.89 2.2 11.88
11/3/2021 10:30:00 AM 7.2 44.96 0.062 6.93 2.3 11.89
11/3/2021 10:45:00 AM 7.24 45.032 0.062 6.95 2.04 11.9
11/3/2021 11:00:00 AM 7.29 45.122 0.062 6.95 2.02 11.9
11/3/2021 11:15:00 AM 7.34 45.212 0.062 6.96 1.95 11.9
11/3/2021 11:30:00 AM 7.4 45.32 0.062 6.96 2.1 11.91
11/3/2021 11:45:00 AM 7.42 45.356 0.062 6.92 2.4 11.89
11/3/2021 12:00:00 PM 7.47 45.446 0.062 6.95 2.06 11.88
11/3/2021 12:15:00 PM 7.5 45.5 0.062 6.98 2.29 11.87
11/3/2021 12:30:00 PM 7.54 45.572 0.062 6.97 2.09 11.85
11/3/2021 12:45:00 PM 7.61 45.698 0.062 6.97 2.07 11.85
11/3/2021 1:00:00 PM 7.61 45.698 0.062 6.96 1.99 11.83
11/3/2021 1:15:00 PM 7.63 45.734 0.062 6.98 1.86 11.83
11/3/2021 1:30:00 PM 7.71 45.878 0.062 7.01 1.82 11.81
11/3/2021 1:45:00 PM 7.76 45.968 0.062 6.95 1.87 11.79
11/3/2021 2:00:00 PM 7.75 45.95 0.062 6.97 1.87 11.77
11/3/2021 2:15:00 PM 7.82 46.076 0.062 7.03 1.92 11.73
11/3/2021 2:30:00 PM 7.9 46.22 0.062 7.02 1.92 11.7
11/3/2021 2:45:00 PM 7.96 46.328 0.062 7.03 1.97 11.69
11/3/2021 3:00:00 PM 8 46.4 0.062 7.03 1.91 11.68
11/3/2021 3:15:00 PM 7.99 46.382 0.062 7.01 1.94 11.65
11/3/2021 3:30:00 PM 7.97 46.346 0.062 6.98 1.95 11.64
11/3/2021 3:45:00 PM 7.96 46.328 0.062 6.98 1.93 11.62
11/3/2021 4:00:00 PM 7.95 46.31 0.062 6.97 1.89 11.64
11/3/2021 4:15:00 PM 7.92 46.256 0.062 6.97 2.07 11.65
11/3/2021 4:30:00 PM 7.89 46.202 0.062 6.89 2.13 11.65
11/3/2021 4:45:00 PM 7.85 46.13 0.062 6.94 2.15 11.63
11/3/2021 5:00:00 PM 7.83 46.094 0.062 6.97 2.24 11.63
11/3/2021 5:15:00 PM 7.79 46.022 0.062 6.95 2.16 11.63
11/3/2021 5:30:00 PM 7.75 45.95 0.062 6.88 2.36 11.62
11/3/2021 5:45:00 PM 7.7 45.86 0.062 6.89 2.25 11.6
11/3/2021 6:00:00 PM 7.67 45.806 0.062 6.89 2.31 11.57
11/3/2021 6:15:00 PM 7.64 45.752 0.062 6.82 2.23 11.56
11/3/2021 6:30:00 PM 7.62 45.716 0.062 6.86 2.34 11.54
11/3/2021 6:45:00 PM 7.58 45.644 0.062 6.81 2.27 11.54
11/3/2021 7:00:00 PM 7.55 45.59 0.062 6.85 2.13 11.54
11/3/2021 7:15:00 PM 7.52 45.536 0.062 6.8 2.13 11.55
11/3/2021 7:30:00 PM 7.49 45.482 0.063 6.84 2.05 11.56
11/3/2021 7:45:00 PM 7.47 45.446 0.063 6.84 2.29 11.56
11/3/2021 8:00:00 PM 7.45 45.41 0.063 6.83 2.08 11.57
11/3/2021 8:15:00 PM 7.42 45.356 0.063 6.79 2.05 11.58
11/3/2021 8:30:00 PM 7.4 45.32 0.063 6.84 2.04 11.59
11/3/2021 8:45:00 PM 7.37 45.266 0.063 6.83 2.04 11.59
11/3/2021 9:00:00 PM 7.35 45.23 0.063 6.84 1.97 11.6
11/3/2021 9:15:00 PM 7.32 45.176 0.063 6.84 1.96 11.61
11/3/2021 9:30:00 PM 7.29 45.122 0.063 6.85 2.15 11.62
11/3/2021 9:45:00 PM 7.27 45.086 0.063 6.84 2.28 11.62
11/3/2021 10:00:00 PM 7.23 45.014 0.063 6.81 2.01 11.63
11/3/2021 10:15:00 PM 7.2 44.96 0.063 6.87 2.01 11.64
11/3/2021 10:30:00 PM 7.15 44.87 0.063 6.85 2.04 11.65
11/3/2021 10:45:00 PM 7.11 44.798 0.063 6.87 2.01 11.67
11/3/2021 11:00:00 PM 7.06 44.708 0.063 6.84 1.91 11.68
11/3/2021 11:15:00 PM 7.02 44.636 0.063 6.84 1.97 11.69
11/3/2021 11:30:00 PM 6.97 44.546 0.063 6.85 2 11.7
11/3/2021 11:45:00 PM 6.92 44.456 0.063 6.79 1.97 11.72
11/4/2021 12:00:00 AM 6.88 44.384 0.063 6.84 2.14 11.73
11/4/2021 12:15:00 AM 6.84 44.312 0.063 6.83 2.23 11.74
11/4/2021 12:30:00 AM 6.8 44.24 0.063 6.83 2.51 11.76
11/4/2021 12:45:00 AM 6.76 44.168 0.063 6.84 2.32 11.77
11/4/2021 1:00:00 AM 6.73 44.114 0.063 6.8 2.52 11.78
11/4/2021 1:15:00 AM 6.71 44.078 0.063 6.85 2.44 11.79
11/4/2021 1:30:00 AM 6.67 44.006 0.063 6.85 2.33 11.8
11/4/2021 1:45:00 AM 6.64 43.952 0.063 6.83 2.36 11.81
11/4/2021 2:00:00 AM 6.6 43.88 0.063 6.84 2.39 11.82
11/4/2021 2:15:00 AM 6.57 43.826 0.063 6.84 2.33 11.83
11/4/2021 2:30:00 AM 6.55 43.79 0.063 6.83 2.28 11.84
11/4/2021 2:45:00 AM 6.52 43.736 0.063 6.85 2.31 11.85
11/4/2021 3:00:00 AM 6.5 43.7 0.063 6.83 2.3 11.86
11/4/2021 3:15:00 AM 6.48 43.664 0.063 6.82 2.3 11.87
11/4/2021 3:30:00 AM 6.46 43.628 0.063 6.87 1.78 11.87
11/4/2021 3:45:00 AM 6.44 43.592 0.063 6.91 2.52 11.88
11/4/2021 4:00:00 AM 6.42 43.556 0.063 6.86 2.36 11.89
11/4/2021 4:15:00 AM 6.39 43.502 0.059 6.89 2.12 11.89
11/4/2021 4:30:00 AM 6.38 43.484 0.063 6.88 2.06 11.9
11/4/2021 4:45:00 AM 6.37 43.466 0.063 6.91 5.53 11.9
11/4/2021 5:00:00 AM 6.36 43.448 0.063 6.91 2.17 11.91
11/4/2021 5:15:00 AM 6.35 43.43 0.063 6.9 2.19 11.91
11/4/2021 5:30:00 AM 6.34 43.412 0.063 6.91 2.21 11.91
11/4/2021 5:45:00 AM 6.33 43.394 0.063 6.9 2.09 11.92
11/4/2021 6:00:00 AM 6.33 43.394 0.063 6.89 2 11.92
11/4/2021 6:15:00 AM 6.32 43.376 0.063 6.91 2.17 11.91
11/4/2021 6:30:00 AM 6.31 43.358 0.063 6.87 2.11 11.92
11/4/2021 6:45:00 AM 6.31 43.358 0.063 6.9 2.1 11.92
11/4/2021 7:00:00 AM 6.3 43.34 0.063 6.89 1.98 11.93
11/4/2021 7:15:00 AM 6.29 43.322 0.063 6.89 2.33 11.93
11/4/2021 7:30:00 AM 6.28 43.304 0.063 6.85 2.47 11.93
11/4/2021 7:45:00 AM 6.28 43.304 0.063 6.89 2.68 11.93
11/4/2021 8:00:00 AM 6.27 43.286 0.063 6.88 2.79 11.95
11/4/2021 8:15:00 AM 6.26 43.268 0.063 6.88 2.7 11.98
11/4/2021 8:30:00 AM 6.24 43.232 0.063 6.9 2.63 12
11/4/2021 8:45:00 AM 6.23 43.214 0.063 6.9 2.7 12.04
11/4/2021 9:00:00 AM 6.22 43.196 0.063 6.86 2.67 12.07
11/4/2021 9:15:00 AM 6.23 43.214 0.063 6.93 2.69 12.11
11/4/2021 9:30:00 AM 6.24 43.232 0.063 6.94 2.55 12.14
11/4/2021 9:45:00 AM 6.26 43.268 0.063 6.94 2.58 12.15
11/4/2021 10:00:00 AM 6.29 43.322 0.063 6.96 2.63 12.16
11/4/2021 10:15:00 AM 6.35 43.43 0.063 6.94 2.56 12.17
11/4/2021 10:30:00 AM 6.41 43.538 0.063 6.94 2.64 12.16
11/4/2021 10:45:00 AM 6.49 43.682 0.063 6.98 2.52 12.17
11/4/2021 11:00:00 AM 6.61 43.898 0.063 7 2.62 12.16
11/4/2021 11:15:00 AM 6.74 44.132 0.063 7.03 2.67 12.15
11/4/2021 11:30:00 AM 6.85 44.33 0.063 7.06 2.84 12.12
11/4/2021 11:45:00 AM 6.89 44.402 0.063 7.03 2.65 12.1
11/4/2021 12:00:00 PM 6.93 44.474 0.063 7.05 2.59 12.08
11/4/2021 12:15:00 PM 6.93 44.474 0.063 7.03 2.6 12.07
11/4/2021 12:30:00 PM 6.97 44.546 0.063 7.04 2.52 12.07
11/4/2021 12:45:00 PM 6.98 44.564 0.063 6.99 2.58 12.02
11/4/2021 1:00:00 PM 7.04 44.672 0.063 7.03 2.56 12.01
11/4/2021 1:15:00 PM 7.07 44.726 0.063 7.02 2.56 12
11/4/2021 1:30:00 PM 7.12 44.816 0.063 7.05 2.55 11.97
11/4/2021 1:45:00 PM 7.17 44.906 0.061 7.05 2.6 11.98
11/4/2021 2:00:00 PM 7.19 44.942 0.063 7.08 2.56 11.98
11/4/2021 2:15:00 PM 7.21 44.978 0.063 7.07 2.78 11.97
11/4/2021 2:30:00 PM 7.25 45.05 0.063 7.06 2.79 11.97
11/4/2021 2:45:00 PM 7.3 45.14 0.063 7.07 2.39 11.97
11/4/2021 3:00:00 PM 7.34 45.212 0.063 7.08 2.25 11.96
11/4/2021 3:15:00 PM 7.34 45.212 0.063 7.05 2.35 11.94
11/4/2021 3:30:00 PM 7.34 45.212 0.063 7.03 2.38 11.93
11/4/2021 3:45:00 PM 7.35 45.23 0.063 7.04 2.41 11.92
11/4/2021 4:00:00 PM 7.39 45.302 0.063 7.07 2.4 11.88
11/4/2021 4:15:00 PM 7.39 45.302 0.063 7.04 2.31 11.83
11/4/2021 4:30:00 PM 7.36 45.248 0.063 6.98 2.3 11.79
11/4/2021 4:45:00 PM 7.37 45.266 0.063 7.02 2.36 11.8
11/4/2021 5:00:00 PM 7.37 45.266 0.063 7.01 2.29 11.79
11/4/2021 5:15:00 PM 7.37 45.266 0.063 7.02 2.23 11.78
11/4/2021 5:30:00 PM 7.36 45.248 0.063 6.99 2.35 11.75
11/4/2021 5:45:00 PM 7.34 45.212 0.063 6.99 2.34 11.72
11/4/2021 6:00:00 PM 7.3 45.14 0.063 6.97 2.31 11.7
11/4/2021 6:15:00 PM 7.26 45.068 0.064 6.98 2.34 11.68
11/4/2021 6:30:00 PM 7.21 44.978 0.064 6.96 2.33 11.67
11/4/2021 6:45:00 PM 7.16 44.888 0.064 6.94 2.41 11.66
11/4/2021 7:00:00 PM 7.11 44.798 0.064 6.93 2.4 11.66
11/4/2021 7:15:00 PM 7.05 44.69 0.064 6.93 2.3 11.67
11/4/2021 7:30:00 PM 7 44.6 0.064 6.9 2.37 11.68
11/4/2021 7:45:00 PM 6.94 44.492 0.064 6.87 2.39 11.7
11/4/2021 8:00:00 PM 6.88 44.384 0.064 6.92 2.38 11.72
11/4/2021 8:15:00 PM 6.82 44.276 0.064 6.91 2.51 11.73
11/4/2021 8:30:00 PM 6.76 44.168 0.064 6.92 2.42 11.75
11/4/2021 8:45:00 PM 6.71 44.078 0.064 6.91 2.39 11.76
11/4/2021 9:00:00 PM 6.65 43.97 0.064 6.91 2.34 11.78
11/4/2021 9:15:00 PM 6.59 43.862 0.064 6.91 2.45 11.8
11/4/2021 9:30:00 PM 6.53 43.754 0.064 6.87 2.39 11.81
11/4/2021 9:45:00 PM 6.48 43.664 0.064 6.91 2.57 11.84
11/4/2021 10:00:00 PM 6.43 43.574 0.064 6.92 2.67 11.85
11/4/2021 10:15:00 PM 6.38 43.484 0.064 6.92 2.67 11.87
11/4/2021 10:30:00 PM 6.33 43.394 0.064 6.93 2.71 11.88
11/4/2021 10:45:00 PM 6.29 43.322 0.064 6.9 2.72 11.9
11/4/2021 11:00:00 PM 6.25 43.25 0.064 6.92 2.69 11.92
11/4/2021 11:15:00 PM 6.21 43.178 0.064 6.9 2.79 11.92
11/4/2021 11:30:00 PM 6.17 43.106 0.064 6.93 2.68 11.94
11/4/2021 11:45:00 PM 6.12 43.016 0.064 6.93 2.7 11.96
11/5/2021 12:00:00 AM 6.08 42.944 0.064 6.92 2.73 11.97
11/5/2021 12:15:00 AM 6.04 42.872 0.064 6.92 2.65 11.98
11/5/2021 12:30:00 AM 6 42.8 0.064 6.88 2.63 11.99
11/5/2021 12:45:00 AM 5.96 42.728 0.065 6.94 2.69 12
11/5/2021 1:00:00 AM 5.92 42.656 0.065 6.87 2.76 12.02
11/5/2021 1:15:00 AM 5.88 42.584 0.065 6.93 2.56 12.03
11/5/2021 1:30:00 AM 5.84 42.512 0.065 6.91 2.55 12.04
11/5/2021 1:45:00 AM 5.81 42.458 0.065 6.87 2.5 12.06
11/5/2021 2:00:00 AM 5.77 42.386 0.065 6.91 2.52 12.07
11/5/2021 2:15:00 AM 5.73 42.314 0.065 6.91 2.49 12.08
11/5/2021 2:30:00 AM 5.7 42.26 0.065 6.92 2.49 12.09
11/5/2021 2:45:00 AM 5.66 42.188 0.065 6.94 2.51 12.1
11/5/2021 3:00:00 AM 5.62 42.116 0.065 6.9 2.49 12.11
11/5/2021 3:15:00 AM 5.59 42.062 0.065 6.91 2.49 12.12
11/5/2021 3:30:00 AM 5.55 41.99 0.065 6.91 2.55 12.14
11/5/2021 3:45:00 AM 5.51 41.918 0.065 6.92 2.88 12.15
11/5/2021 4:00:00 AM 5.48 41.864 0.065 6.92 5.57 12.16
11/5/2021 4:15:00 AM 5.44 41.792 0.065 6.93 2.81 12.17
11/5/2021 4:30:00 AM 5.41 41.738 0.065 6.93 4.88 12.18
11/5/2021 4:45:00 AM 5.37 41.666 0.065 6.9 2.73 12.19
11/5/2021 5:00:00 AM 5.34 41.612 0.061 6.93 3.04 12.21
11/5/2021 5:15:00 AM 5.3 41.54 0.065 6.91 3.08 12.22
11/5/2021 5:30:00 AM 5.26 41.468 0.065 6.93 3.09 12.24
11/5/2021 5:45:00 AM 5.23 41.414 0.065 6.89 2.93 12.25
11/5/2021 6:00:00 AM 5.19 41.342 0.065 6.93 2.79 12.26
11/5/2021 6:15:00 AM 5.16 41.288 0.065 6.9 2.64 12.28
11/5/2021 6:30:00 AM 5.13 41.234 0.065 6.93 2.68 12.29
11/5/2021 6:45:00 AM 5.1 41.18 0.065 6.93 3 12.3
11/5/2021 7:00:00 AM 5.07 41.126 0.065 6.9 4.96 12.31
11/5/2021 7:15:00 AM 5.04 41.072 0.065 6.88 2.78 12.33
11/5/2021 7:30:00 AM 5 41 0.065 6.85 4.41 12.34
11/5/2021 7:45:00 AM 4.97 40.946 0.065 6.91 13.47 12.35
11/5/2021 8:00:00 AM 4.95 40.91 0.065 6.92 2.99 12.38
11/5/2021 8:15:00 AM 4.92 40.856 0.065 6.9 3.32 12.41
11/5/2021 8:30:00 AM 4.91 40.838 0.065 6.95 3.29 12.45
11/5/2021 8:45:00 AM 4.89 40.802 0.065 6.92 3.27 12.5
11/5/2021 9:00:00 AM 4.89 40.802 0.065 6.97 3.11 12.54
11/5/2021 9:15:00 AM 4.9 40.82 0.065 6.99 3.16 12.57
11/5/2021 9:30:00 AM 4.92 40.856 0.065 6.99 3.2 12.6
11/5/2021 9:45:00 AM 4.96 40.928 0.065 7.02 3.15 12.62
11/5/2021 10:00:00 AM 5.01 41.018 0.065 7.03 3.11 12.63
11/5/2021 10:15:00 AM 5.08 41.144 0.064 7.02 3.07 12.63
11/5/2021 10:30:00 AM 5.16 41.288 0.064 7.01 3.07 12.63
11/5/2021 10:45:00 AM 5.25 41.45 0.064 7.07 3.05 12.62
11/5/2021 11:00:00 AM 5.34 41.612 0.064 7.07 3.06 12.6
11/5/2021 11:15:00 AM 5.47 41.846 0.064 7.06 3.16 12.59
11/5/2021 11:30:00 AM 5.58 42.044 0.064 7.09 3.09 12.55
11/5/2021 11:45:00 AM 5.74 42.332 0.064 7.12 3 12.53
11/5/2021 12:00:00 PM 5.86 42.548 0.064 7.13 3.04 12.5
11/5/2021 12:15:00 PM 6.01 42.818 0.064 7.12 2.97 12.46
11/5/2021 12:30:00 PM 6.07 42.926 0.064 7.12 3.1 12.42
11/5/2021 12:45:00 PM 6.13 43.034 0.064 7.12 3.17 12.41
11/5/2021 1:00:00 PM 6.22 43.196 0.064 7.13 3.11 12.39
11/5/2021 1:15:00 PM 6.35 43.43 0.064 7.1 3.18 12.36
11/5/2021 1:30:00 PM 6.35 43.43 0.064 7.11 3.3 12.32
11/5/2021 1:45:00 PM 6.35 43.43 0.064 7.05 3.23 12.31
11/5/2021 2:00:00 PM 6.42 43.556 0.064 7.12 3.2 12.27
11/5/2021 2:15:00 PM 6.43 43.574 0.064 7.11 3.12 12.24
11/5/2021 2:30:00 PM 6.45 43.61 0.064 7.1 3.15 12.22
11/5/2021 2:45:00 PM 6.51 43.718 0.064 7.11 3.16 12.21
11/5/2021 3:00:00 PM 6.65 43.97 0.064 7.13 3.18 12.17
11/5/2021 3:15:00 PM 6.76 44.168 0.064 7.11 3.17 12.12
11/5/2021 3:30:00 PM 6.79 44.222 0.064 7.1 3.17 12.09
11/5/2021 3:45:00 PM 6.81 44.258 0.064 7.1 3.22 12.05
11/5/2021 4:00:00 PM 6.81 44.258 0.064 7.06 3.26 12.03
11/5/2021 4:15:00 PM 6.82 44.276 0.064 7.07 3.22 12.02
11/5/2021 4:30:00 PM 6.85 44.33 0.064 7.08 3.09 12.01
11/5/2021 4:45:00 PM 6.85 44.33 0.064 7.07 3.19 12
11/5/2021 5:00:00 PM 6.82 44.276 0.064 7.06 3.13 11.99
11/5/2021 5:15:00 PM 6.76 44.168 0.064 7.01 3.23 11.97
11/5/2021 5:30:00 PM 6.72 44.096 0.064 7.04 3.3 11.96
11/5/2021 5:45:00 PM 6.69 44.042 0.064 7.03 3.21 11.94
11/5/2021 6:00:00 PM 6.66 43.988 0.065 7 3.19 11.92
11/5/2021 6:15:00 PM 6.6 43.88 0.065 7 3.13 11.91
11/5/2021 6:30:00 PM 6.54 43.772 0.065 7 3.22 11.9
11/5/2021 6:45:00 PM 6.47 43.646 0.065 6.96 3.28 11.91
11/5/2021 7:00:00 PM 6.42 43.556 0.065 6.96 3.33 11.92
11/5/2021 7:15:00 PM 6.36 43.448 0.065 6.91 3.34 11.93
11/5/2021 7:30:00 PM 6.31 43.358 0.065 6.96 3.36 11.94
11/5/2021 7:45:00 PM 6.26 43.268 0.065 6.95 3.36 11.95
11/5/2021 8:00:00 PM 6.2 43.16 0.065 6.96 3.36 11.96
11/5/2021 8:15:00 PM 6.15 43.07 0.065 6.97 3.35 11.98
11/5/2021 8:30:00 PM 6.09 42.962 0.065 6.96 3.29 12
11/5/2021 8:45:00 PM 6.04 42.872 0.065 6.95 3.26 12.01
11/5/2021 9:00:00 PM 5.99 42.782 0.065 6.96 3.41 12.03
11/5/2021 9:15:00 PM 5.94 42.692 0.065 6.96 3.39 12.04
11/5/2021 9:30:00 PM 5.89 42.602 0.065 6.96 3.38 12.05
11/5/2021 9:45:00 PM 5.84 42.512 0.065 6.92 3.35 12.07
11/5/2021 10:00:00 PM 5.79 42.422 0.065 6.91 3.48 12.08
11/5/2021 10:15:00 PM 5.75 42.35 0.066 6.96 3.34 12.1
11/5/2021 10:30:00 PM 5.7 42.26 0.066 6.91 3.31 12.11
11/5/2021 10:45:00 PM 5.65 42.17 0.066 6.96 3.19 12.13
11/5/2021 11:00:00 PM 5.61 42.098 0.066 6.95 3.42 12.14
11/5/2021 11:15:00 PM 5.56 42.008 0.066 6.96 3.25 12.16
11/5/2021 11:30:00 PM 5.52 41.936 0.066 6.94 3.18 12.17
11/5/2021 11:45:00 PM 5.47 41.846 0.066 6.92 3.12 12.19
11/6/2021 12:00:00 AM 5.43 41.774 0.066 6.95 3.25 12.2
11/6/2021 12:15:00 AM 5.39 41.702 0.066 6.89 3.21 12.22
11/6/2021 12:30:00 AM 5.34 41.612 0.066 6.95 3.23 12.23
11/6/2021 12:45:00 AM 5.3 41.54 0.066 6.89 3.22 12.25
11/6/2021 1:00:00 AM 5.26 41.468 0.066 6.94 3.19 12.26
11/6/2021 1:15:00 AM 5.22 41.396 0.066 6.94 3.24 12.28
11/6/2021 1:30:00 AM 5.18 41.324 0.066 6.91 3.18 12.29
11/6/2021 1:45:00 AM 5.14 41.252 0.066 6.94 3.17 12.3
11/6/2021 2:00:00 AM 5.09 41.162 0.066 6.92 3.18 12.32
11/6/2021 2:15:00 AM 5.06 41.108 0.066 6.94 3.01 12.33
11/6/2021 2:30:00 AM 5.02 41.036 0.066 6.88 3.1 12.34
11/6/2021 2:45:00 AM 4.98 40.964 0.066 6.95 3.15 12.36
11/6/2021 3:00:00 AM 4.94 40.892 0.066 6.94 2.82 12.37
11/6/2021 3:15:00 AM 4.9 40.82 0.066 6.92 3.16 12.39
11/6/2021 3:30:00 AM 4.86 40.748 0.066 6.92 3.22 12.4
11/6/2021 3:45:00 AM 4.83 40.694 0.066 6.96 3.14 12.41
11/6/2021 4:00:00 AM 4.79 40.622 0.066 6.91 3.15 12.42
11/6/2021 4:15:00 AM 4.76 40.568 0.066 6.95 3.06 12.43
11/6/2021 4:30:00 AM 4.72 40.496 0.066 6.94 3.02 12.44
11/6/2021 4:45:00 AM 4.68 40.424 0.066 6.94 3.15 12.46
11/6/2021 5:00:00 AM 4.65 40.37 0.066 6.94 3.12 12.47
11/6/2021 5:15:00 AM 4.62 40.316 0.066 6.95 3.03 12.48
11/6/2021 5:30:00 AM 4.58 40.244 0.066 6.95 2.95 12.49
11/6/2021 5:45:00 AM 4.55 40.19 0.066 6.95 3.05 12.51
11/6/2021 6:00:00 AM 4.52 40.136 0.066 6.95 2.87 12.52
11/6/2021 6:15:00 AM 4.49 40.082 0.066 6.95 3.08 12.53
11/6/2021 6:30:00 AM 4.46 40.028 0.066 6.94 3.01 12.54
11/6/2021 6:45:00 AM 4.43 39.974 0.066 6.92 3.09 12.55
11/6/2021 7:00:00 AM 4.39 39.902 0.066 6.95 3.04 12.56
11/6/2021 7:15:00 AM 4.36 39.848 0.066 6.96 2.87 12.57
11/6/2021 7:30:00 AM 4.33 39.794 0.066 6.95 2.79 12.59
11/6/2021 7:45:00 AM 4.31 39.758 0.066 6.97 2.89 12.6
11/6/2021 8:00:00 AM 4.28 39.704 0.066 6.96 2.87 12.62
11/6/2021 8:15:00 AM 4.26 39.668 0.066 6.86 3.06 12.66
11/6/2021 8:30:00 AM 4.24 39.632 0.066 6.93 3.25 12.7
11/6/2021 8:45:00 AM 4.23 39.614 0.066 6.97 3.08 12.74
11/6/2021 9:00:00 AM 4.23 39.614 0.066 7.04 1.88 12.77
11/6/2021 9:15:00 AM 4.24 39.632 0.066 7.01 2.54 12.8
11/6/2021 9:30:00 AM 4.26 39.668 0.066 7.02 2.49 12.83
11/6/2021 9:45:00 AM 4.3 39.74 0.065 7.04 2.46 12.85
11/6/2021 10:00:00 AM 4.35 39.83 0.066 7.03 2.45 12.86
11/6/2021 10:15:00 AM 4.41 39.938 0.066 7.03 2.32 12.86
11/6/2021 10:30:00 AM 4.49 40.082 0.066 7.03 2.36 12.86
11/6/2021 10:45:00 AM 4.58 40.244 0.066 7.08 2.43 12.85
11/6/2021 11:00:00 AM 4.69 40.442 0.066 7.08 2.1 12.83
11/6/2021 11:15:00 AM 4.8 40.64 0.065 7.1 2.05 12.81
11/6/2021 11:30:00 AM 4.93 40.874 0.065 7.1 1.84 12.77
11/6/2021 11:45:00 AM 5.07 41.126 0.065 7.11 2.03 12.73
11/6/2021 12:00:00 PM 5.23 41.414 0.065 7.13 1.85 12.68
11/6/2021 12:15:00 PM 5.39 41.702 0.065 7.07 1.89 12.63
11/6/2021 12:30:00 PM 5.53 41.954 0.065 7.08 2.02 12.58
11/6/2021 12:45:00 PM 5.66 42.188 0.065 7.12 2.32 12.54
11/6/2021 1:00:00 PM 5.78 42.404 0.065 7.08 2.33 12.49
11/6/2021 1:15:00 PM 5.89 42.602 0.065 7.12 13.57 12.44
11/6/2021 1:30:00 PM 5.99 42.782 0.065 7.12 2.41 12.4
11/6/2021 1:45:00 PM 6.09 42.962 0.065 7.13 2.25 12.36
11/6/2021 2:00:00 PM 6.2 43.16 0.065 7.08 2.37 12.32
11/6/2021 2:15:00 PM 6.29 43.322 0.065 7.11 2.43 12.26
11/6/2021 2:30:00 PM 6.38 43.484 0.065 7.11 2.4 12.22
11/6/2021 2:45:00 PM 6.47 43.646 0.065 7.11 2.41 12.18
11/6/2021 3:00:00 PM 6.54 43.772 0.065 7.06 2.49 12.14
11/6/2021 3:15:00 PM 6.61 43.898 0.065 7.1 2.73 12.11
11/6/2021 3:30:00 PM 6.65 43.97 0.065 7.05 2.67 12.07
11/6/2021 3:45:00 PM 6.69 44.042 0.065 7.08 2.63 12.05
11/6/2021 4:00:00 PM 6.73 44.114 0.065 7.09 2.67 12.02
11/6/2021 4:15:00 PM 6.76 44.168 0.065 7.08 2.67 11.99
11/6/2021 4:30:00 PM 6.77 44.186 0.065 7.03 2.7 11.98
11/6/2021 4:45:00 PM 6.76 44.168 0.065 7.02 2.78 11.96
11/6/2021 5:00:00 PM 6.72 44.096 0.065 7.04 2.82 11.95
11/6/2021 5:15:00 PM 6.67 44.006 0.065 7.01 2.71 11.94
11/6/2021 5:30:00 PM 6.62 43.916 0.066 7.05 2.68 11.94
11/6/2021 5:45:00 PM 6.57 43.826 0.066 6.98 2.85 11.92
11/6/2021 6:00:00 PM 6.52 43.736 0.066 7.02 2.93 11.91
11/6/2021 6:15:00 PM 6.47 43.646 0.066 7 2.89 11.9
11/6/2021 6:30:00 PM 6.4 43.52 0.066 6.98 2.92 11.9
11/6/2021 6:45:00 PM 6.33 43.394 0.066 6.97 3 11.91
11/6/2021 7:00:00 PM 6.27 43.286 0.066 6.98 3.01 11.91
11/6/2021 7:15:00 PM 6.21 43.178 0.066 6.97 3.1 11.93
11/6/2021 7:30:00 PM 6.14 43.052 0.066 6.97 3.13 11.94
11/6/2021 7:45:00 PM 6.09 42.962 0.066 6.93 3.14 11.95
11/6/2021 8:00:00 PM 6.03 42.854 0.066 6.97 3.23 11.97
11/6/2021 8:15:00 PM 5.98 42.764 0.066 6.96 3.22 11.98
11/6/2021 8:30:00 PM 5.93 42.674 0.066 6.93 3.09 12
11/6/2021 8:45:00 PM 5.87 42.566 0.066 6.92 3.03 12.01
11/6/2021 9:00:00 PM 5.82 42.476 0.066 6.91 24.29 12.03
11/6/2021 9:15:00 PM 5.77 42.386 0.066 6.93 3.05 12.05
11/6/2021 9:30:00 PM 5.72 42.296 0.066 6.95 2.92 12.06
11/6/2021 9:45:00 PM 5.67 42.206 0.066 6.92 3.03 12.08
11/6/2021 10:00:00 PM 5.62 42.116 0.067 6.97 3.68 12.09
11/6/2021 10:15:00 PM 5.57 42.026 0.067 6.96 3.82 12.11
11/6/2021 10:30:00 PM 5.52 41.936 0.067 6.96 3.77 12.13
11/6/2021 10:45:00 PM 5.48 41.864 0.067 6.95 3.89 12.14
11/6/2021 11:00:00 PM 5.43 41.774 0.067 6.96 3.9 12.15
11/6/2021 11:15:00 PM 5.39 41.702 0.067 6.92 3.97 12.17
11/6/2021 11:30:00 PM 5.34 41.612 0.067 6.92 3.98 12.18
11/6/2021 11:45:00 PM 5.3 41.54 0.067 6.94 3.64 12.2
11/7/2021 12:00:00 AM 5.26 41.468 0.067 6.96 3.55 12.21
11/7/2021 12:15:00 AM 5.21 41.378 0.067 6.96 18.09 12.22
11/7/2021 12:30:00 AM 5.17 41.306 0.067 6.97 5.3 12.24
11/7/2021 12:45:00 AM 5.13 41.234 0.067 6.96 3.02 12.25
11/7/2021 1:00:00 AM 5.09 41.162 0.067 6.94 3.2 12.27
11/7/2021 1:15:00 AM 5.05 41.09 0.067 6.96 3.1 12.28
11/7/2021 1:30:00 AM 5.01 41.018 0.064 6.95 3.2 12.29
11/7/2021 1:45:00 AM 4.97 40.946 0.067 6.96 3.27 12.31
11/7/2021 2:00:00 AM 4.93 40.874 0.067 6.95 3.22 12.32
11/7/2021 2:15:00 AM 4.89 40.802 0.067 6.97 3.21 12.33
11/7/2021 2:30:00 AM 4.85 40.73 0.067 6.96 3.25 12.34
11/7/2021 2:45:00 AM 4.81 40.658 0.067 6.97 2.33 12.35
11/7/2021 3:00:00 AM 4.78 40.604 0.067 6.97 2.32 12.37
11/7/2021 3:15:00 AM 4.74 40.532 0.067 6.96 2.33 12.38
11/7/2021 3:30:00 AM 4.71 40.478 0.067 6.96 2.33 12.39
11/7/2021 3:45:00 AM 4.67 40.406 0.067 6.95 2.37 12.41
11/7/2021 4:00:00 AM 4.64 40.352 0.067 6.96 2.23 12.41
11/7/2021 4:15:00 AM 4.61 40.298 0.067 6.96 2.31 12.42
11/7/2021 4:30:00 AM 4.58 40.244 0.067 6.96 2.31 12.43
11/7/2021 4:45:00 AM 4.55 40.19 0.067 6.94 2.34 12.44
11/7/2021 5:00:00 AM 4.51 40.118 0.067 6.97 2.34 12.45
11/7/2021 5:15:00 AM 4.48 40.064 0.067 6.95 2.29 12.46
11/7/2021 5:30:00 AM 4.45 40.01 0.067 6.97 2.09 12.47
11/7/2021 5:45:00 AM 4.42 39.956 0.067 6.94 2.12 12.49
11/7/2021 6:00:00 AM 4.39 39.902 0.067 6.96 2.1 12.49
11/7/2021 6:15:00 AM 4.37 39.866 0.067 6.94 2.08 12.5
11/7/2021 6:30:00 AM 4.34 39.812 0.067 6.95 2.17 12.51
11/7/2021 6:45:00 AM 4.31 39.758 0.067 6.96 2.16 12.52
11/7/2021 7:00:00 AM 4.29 39.722 0.067 6.96 2.17 12.53
11/7/2021 7:15:00 AM 4.26 39.668 0.067 6.94 2.13 12.54
11/7/2021 7:30:00 AM 4.23 39.614 0.067 6.97 2.15 12.55
11/7/2021 7:45:00 AM 4.21 39.578 0.067 6.97 2.09 12.56
11/7/2021 8:00:00 AM 4.19 39.542 0.067 6.94 2.14 12.58
11/7/2021 8:15:00 AM 4.17 39.506 0.067 6.98 2.1 12.62
11/7/2021 8:30:00 AM 4.16 39.488 0.067 6.94 2.16 12.66
11/7/2021 8:45:00 AM 4.15 39.47 0.067 6.95 2.08 12.7
11/7/2021 9:00:00 AM 4.16 39.488 0.067 7.01 2.02 12.74
11/7/2021 9:15:00 AM 4.17 39.506 0.067 6.99 2.08 12.76
11/7/2021 9:30:00 AM 4.2 39.56 0.067 7.05 2.14 12.8
11/7/2021 9:45:00 AM 4.25 39.65 0.067 7.05 2.15 12.81
11/7/2021 10:00:00 AM 4.31 39.758 0.067 7.03 2.1 12.82
11/7/2021 10:15:00 AM 4.37 39.866 0.067 7.07 2.11 12.83
11/7/2021 10:30:00 AM 4.46 40.028 0.066 7.08 2.04 12.82
11/7/2021 10:45:00 AM 4.56 40.208 0.066 7.09 2.08 12.81
11/7/2021 11:00:00 AM 4.67 40.406 0.066 7.08 2.05 12.79
11/7/2021 11:15:00 AM 4.79 40.622 0.066 7.06 2.06 12.77
11/7/2021 11:30:00 AM 4.92 40.856 0.066 7.07 2.14 12.74
11/7/2021 11:45:00 AM 5.06 41.108 0.066 7.12 2.08 12.7
11/7/2021 12:00:00 PM 5.23 41.414 0.066 7.13 2.09 12.65
11/7/2021 12:15:00 PM 5.4 41.72 0.066 7.14 2.05 12.59
11/7/2021 12:30:00 PM 5.57 42.026 0.066 7.12 2.07 12.54
11/7/2021 12:45:00 PM 5.73 42.314 0.066 7.12 2.04 12.48
11/7/2021 1:00:00 PM 5.87 42.566 0.066 7.14 2.08 12.43
11/7/2021 1:15:00 PM 6 42.8 0.066 7.14 2.03 12.38
11/7/2021 1:30:00 PM 6.13 43.034 0.066 7.14 2.11 12.34
11/7/2021 1:45:00 PM 6.24 43.232 0.066 7.14 2.07 12.29
11/7/2021 2:00:00 PM 6.36 43.448 0.066 7.13 2.02 12.24
11/7/2021 2:15:00 PM 6.47 43.646 0.066 7.14 2.11 12.19
11/7/2021 2:30:00 PM 6.57 43.826 0.066 7.11 2.06 12.14
11/7/2021 2:45:00 PM 6.67 44.006 0.066 7.13 2.15 12.09
11/7/2021 3:00:00 PM 6.76 44.168 0.066 7.13 2.18 12.05
11/7/2021 3:15:00 PM 6.85 44.33 0.066 7.13 2.19 12.01
11/7/2021 3:30:00 PM 6.9 44.42 0.066 7.12 2.19 11.97
11/7/2021 3:45:00 PM 6.95 44.51 0.066 7.07 2.23 11.94
11/7/2021 4:00:00 PM 7.01 44.618 0.066 7.11 2.19 11.91
11/7/2021 4:15:00 PM 7.05 44.69 0.066 7.1 2.26 11.88
11/7/2021 4:30:00 PM 7.08 44.744 0.066 7.08 2.25 11.87
11/7/2021 4:45:00 PM 7.08 44.744 0.066 7.06 2.22 11.85
11/7/2021 5:00:00 PM 7.06 44.708 0.066 7.07 2.26 11.83
11/7/2021 5:15:00 PM 7.02 44.636 0.066 7.05 2.23 11.81
11/7/2021 5:30:00 PM 6.98 44.564 0.066 7.04 2.25 11.8
11/7/2021 5:45:00 PM 6.95 44.51 0.066 7.03 2.25 11.77
11/7/2021 6:00:00 PM 6.92 44.456 0.066 7.02 2.28 11.75
11/7/2021 6:15:00 PM 6.88 44.384 0.067 7 2.31 11.73
11/7/2021 6:30:00 PM 6.83 44.294 0.067 6.99 2.32 11.72
11/7/2021 6:45:00 PM 6.77 44.186 0.067 6.98 2.31 11.72
11/7/2021 7:00:00 PM 6.72 44.096 0.067 6.94 2.37 11.73
11/7/2021 7:15:00 PM 6.66 43.988 0.067 6.95 2.39 11.74
11/7/2021 7:30:00 PM 6.61 43.898 0.067 6.97 2.36 11.75
11/7/2021 7:45:00 PM 6.56 43.808 0.067 6.97 2.4 11.76
11/7/2021 8:00:00 PM 6.51 43.718 0.067 6.97 2.36 11.78
11/7/2021 8:15:00 PM 6.46 43.628 0.067 6.97 2.38 11.8
11/7/2021 8:30:00 PM 6.41 43.538 0.067 6.96 2.31 11.81
11/7/2021 8:45:00 PM 6.36 43.448 0.067 6.97 2.32 11.83
11/7/2021 9:00:00 PM 6.31 43.358 0.067 6.96 2.22 11.84
11/7/2021 9:15:00 PM 6.26 43.268 0.067 6.96 2.31 11.86
11/7/2021 9:30:00 PM 6.22 43.196 0.067 6.96 2.29 11.88
11/7/2021 9:45:00 PM 6.17 43.106 0.067 6.95 2.34 11.89
11/7/2021 10:00:00 PM 6.12 43.016 0.067 6.95 2.25 11.91
11/7/2021 10:15:00 PM 6.07 42.926 0.067 6.92 2.29 11.91
11/7/2021 10:30:00 PM 6.03 42.854 0.067 6.97 2.32 11.93
11/7/2021 10:45:00 PM 5.98 42.764 0.067 6.96 2.38 11.94
11/7/2021 11:00:00 PM 5.94 42.692 0.067 6.97 2.33 11.96
11/7/2021 11:15:00 PM 5.89 42.602 0.067 6.95 2.33 11.98
11/7/2021 11:30:00 PM 5.85 42.53 0.067 6.96 2.29 11.99
11/7/2021 11:45:00 PM 5.82 42.476 0.067 6.91 2.28 12
11/8/2021 12:00:00 AM 5.78 42.404 0.068 6.96 2.35 12.01
11/8/2021 12:15:00 AM 5.74 42.332 0.068 6.96 2.19 12.02
11/8/2021 12:30:00 AM 5.71 42.278 0.068 6.95 2.23 12.03
11/8/2021 12:45:00 AM 5.67 42.206 0.068 6.96 2.49 12.05
11/8/2021 1:00:00 AM 5.64 42.152 0.068 6.96 2.29 12.05
11/8/2021 1:15:00 AM 5.6 42.08 0.068 6.91 2.34 12.06
11/8/2021 1:30:00 AM 5.57 42.026 0.068 6.96 2.23 12.07
11/8/2021 1:45:00 AM 5.54 41.972 0.068 6.97 2.29 12.08
11/8/2021 2:00:00 AM 5.51 41.918 0.068 6.91 2.2 12.1
11/8/2021 2:15:00 AM 5.49 41.882 0.068 6.98 2.18 12.1
11/8/2021 2:30:00 AM 5.46 41.828 0.068 6.95 2.24 12.11
11/8/2021 2:45:00 AM 5.43 41.774 0.068 6.97 2.21 12.12
11/8/2021 3:00:00 AM 5.4 41.72 0.068 6.96 2.25 12.13
11/8/2021 3:15:00 AM 5.38 41.684 0.068 6.97 2.09 12.14
11/8/2021 3:30:00 AM 5.35 41.63 0.068 6.98 2 12.15
11/8/2021 3:45:00 AM 5.33 41.594 0.068 6.97 2.22 12.16
11/8/2021 4:00:00 AM 5.3 41.54 0.068 6.96 2.16 12.17
11/8/2021 4:15:00 AM 5.28 41.504 0.068 6.97 1.99 12.17
11/8/2021 4:30:00 AM 5.26 41.468 0.068 6.96 1.94 12.18
11/8/2021 4:45:00 AM 5.23 41.414 0.068 6.98 1.96 12.19
11/8/2021 5:00:00 AM 5.21 41.378 0.068 6.97 2.13 12.2
11/8/2021 5:15:00 AM 5.19 41.342 0.068 6.96 2.13 12.21
11/8/2021 5:30:00 AM 5.16 41.288 0.068 6.96 2.1 12.21
11/8/2021 5:45:00 AM 5.15 41.27 0.068 6.92 2.07 12.22
11/8/2021 6:00:00 AM 5.12 41.216 0.068 6.97 2.11 12.23
11/8/2021 6:15:00 AM 5.1 41.18 0.068 6.96 2.13 12.23
11/8/2021 6:30:00 AM 5.08 41.144 0.068 6.97 2.12 12.24
11/8/2021 6:45:00 AM 5.06 41.108 0.068 6.95 2.12 12.25
11/8/2021 7:00:00 AM 5.04 41.072 0.068 6.97 2.23 12.26
11/8/2021 7:15:00 AM 5.02 41.036 0.068 6.96 2.11 12.27
11/8/2021 7:30:00 AM 5.01 41.018 0.068 6.96 2.12 12.28
11/8/2021 7:45:00 AM 4.99 40.982 0.068 6.95 2.13 12.28
11/8/2021 8:00:00 AM 4.97 40.946 0.068 6.97 2.1 12.31
11/8/2021 8:15:00 AM 4.96 40.928 0.068 6.94 2.07 12.34
11/8/2021 8:30:00 AM 4.95 40.91 0.068 6.99 2.05 12.38
11/8/2021 8:45:00 AM 4.96 40.928 0.068 6.96 2.13 12.43
11/8/2021 9:00:00 AM 4.97 40.946 0.068 7 2.05 12.47
11/8/2021 9:15:00 AM 4.99 40.982 0.068 7.03 2.09 12.51
11/8/2021 9:30:00 AM 5.02 41.036 0.067 6.99 2.04 12.53
11/8/2021 9:45:00 AM 5.08 41.144 0.067 7.05 2.06 12.55
11/8/2021 10:00:00 AM 5.14 41.252 0.067 7.07 2.02 12.57
11/8/2021 10:15:00 AM 5.22 41.396 0.067 7.08 2.05 12.57
11/8/2021 10:30:00 AM 5.32 41.576 0.067 7.1 2 12.57
11/8/2021 10:45:00 AM 5.43 41.774 0.067 7.09 2.01 12.56
11/8/2021 11:00:00 AM 5.54 41.972 0.067 7.12 1.99 12.54
11/8/2021 11:15:00 AM 5.67 42.206 0.067 7.12 2 12.51
11/8/2021 11:30:00 AM 5.8 42.44 0.067 7.13 2 12.48
11/8/2021 11:45:00 AM 5.95 42.71 0.067 7.14 2.01 12.44
11/8/2021 12:00:00 PM 6.12 43.016 0.067 7.16 1.98 12.4
11/8/2021 12:15:00 PM 6.3 43.34 0.067 7.14 1.99 12.35
11/8/2021 12:30:00 PM 6.47 43.646 0.067 7.17 2 12.3
11/8/2021 12:45:00 PM 6.64 43.952 0.067 7.17 2 12.24
11/8/2021 1:00:00 PM 6.78 44.204 0.067 7.17 1.95 12.19
11/8/2021 1:15:00 PM 6.92 44.456 0.067 7.17 1.95 12.14
11/8/2021 1:30:00 PM 7.05 44.69 0.067 7.18 1.93 12.09
11/8/2021 1:45:00 PM 7.17 44.906 0.066 7.17 1.96 12.04
11/8/2021 2:00:00 PM 7.3 45.14 0.066 7.16 1.9 11.99
11/8/2021 2:15:00 PM 7.41 45.338 0.066 7.17 1.93 11.94
11/8/2021 2:30:00 PM 7.54 45.572 0.066 7.13 2 11.88
11/8/2021 2:45:00 PM 7.65 45.77 0.066 7.16 1.95 11.83
11/8/2021 3:00:00 PM 7.75 45.95 0.066 7.15 1.92 11.79
11/8/2021 3:15:00 PM 7.84 46.112 0.066 7.16 1.93 11.74
11/8/2021 3:30:00 PM 7.9 46.22 0.066 7.15 2.02 11.71
11/8/2021 3:45:00 PM 7.95 46.31 0.066 7.13 1.98 11.67
11/8/2021 4:00:00 PM 8.01 46.418 0.066 7.12 2.02 11.63
11/8/2021 4:15:00 PM 8.06 46.508 0.066 7.12 1.99 11.61
11/8/2021 4:30:00 PM 8.09 46.562 0.067 7.11 2 11.58
11/8/2021 4:45:00 PM 8.1 46.58 0.067 7.1 2.01 11.56
11/8/2021 5:00:00 PM 8.09 46.562 0.067 7.08 2.06 11.53
11/8/2021 5:15:00 PM 8.06 46.508 0.067 7.07 2.03 11.51
11/8/2021 5:30:00 PM 8.02 46.436 0.067 7.06 2.02 11.5
11/8/2021 5:45:00 PM 7.98 46.364 0.067 7.06 2.01 11.47
11/8/2021 6:00:00 PM 7.95 46.31 0.067 6.99 1.88 11.44
11/8/2021 6:15:00 PM 7.91 46.238 0.067 7.03 1.84 11.42
11/8/2021 6:30:00 PM 7.87 46.166 0.067 7.02 2.02 11.4
11/8/2021 6:45:00 PM 7.82 46.076 0.067 6.96 1.87 11.4
11/8/2021 7:00:00 PM 7.76 45.968 0.068 7 1.97 11.4
11/8/2021 7:15:00 PM 7.7 45.86 0.068 6.98 1.98 11.41
11/8/2021 7:30:00 PM 7.64 45.752 0.068 6.98 1.96 11.42
11/8/2021 7:45:00 PM 7.58 45.644 0.068 6.93 2.32 11.44
11/8/2021 8:00:00 PM 7.53 45.554 0.068 6.98 3.28 11.45
11/8/2021 8:15:00 PM 7.47 45.446 0.068 6.93 1.9 11.47
11/8/2021 8:30:00 PM 7.42 45.356 0.068 6.97 1.84 11.47
11/8/2021 8:45:00 PM 7.36 45.248 0.068 6.97 1.91 11.48
11/8/2021 9:00:00 PM 7.3 45.14 0.068 6.97 1.86 11.51
11/8/2021 9:15:00 PM 7.25 45.05 0.068 6.91 1.86 11.52
11/8/2021 9:30:00 PM 7.2 44.96 0.068 6.97 1.98 11.54
11/8/2021 9:45:00 PM 7.14 44.852 0.068 6.97 1.98 11.56
11/8/2021 10:00:00 PM 7.1 44.78 0.068 6.97 1.93 11.57
11/8/2021 10:15:00 PM 7.05 44.69 0.068 6.97 1.94 11.59
11/8/2021 10:30:00 PM 7 44.6 0.068 6.96 1.98 11.6
11/8/2021 10:45:00 PM 6.96 44.528 0.068 6.97 1.98 11.61
11/8/2021 11:00:00 PM 6.91 44.438 0.068 6.97 2.01 11.63
11/8/2021 11:15:00 PM 6.86 44.348 0.068 6.98 1.97 11.65
11/8/2021 11:30:00 PM 6.82 44.276 0.068 6.97 1.98 11.66
11/8/2021 11:45:00 PM 6.78 44.204 0.068 6.92 2.06 11.67
11/9/2021 12:00:00 AM 6.73 44.114 0.068 6.97 1.99 11.69
11/9/2021 12:15:00 AM 6.69 44.042 0.068 6.96 2.01 11.7
11/9/2021 12:30:00 AM 6.66 43.988 0.068 6.95 1.94 11.71
11/9/2021 12:45:00 AM 6.62 43.916 0.068 6.98 1.97 11.72
11/9/2021 1:00:00 AM 6.58 43.844 0.068 6.98 1.96 11.74
11/9/2021 1:15:00 AM 6.55 43.79 0.068 6.95 1.95 11.74
11/9/2021 1:30:00 AM 6.51 43.718 0.069 6.97 2.03 11.76
11/9/2021 1:45:00 AM 6.48 43.664 0.069 6.97 1.91 11.77
11/9/2021 2:00:00 AM 6.44 43.592 0.069 6.97 1.95 11.77
11/9/2021 2:15:00 AM 6.4 43.52 0.069 6.97 1.92 11.78
11/9/2021 2:30:00 AM 6.37 43.466 0.069 6.97 1.89 11.79
11/9/2021 2:45:00 AM 6.33 43.394 0.069 6.92 1.97 11.8
11/9/2021 3:00:00 AM 6.3 43.34 0.069 6.93 2.02 11.81
11/9/2021 3:15:00 AM 6.28 43.304 0.069 6.98 1.98 11.83
11/9/2021 3:30:00 AM 6.25 43.25 0.069 6.98 2.01 11.82
11/9/2021 3:45:00 AM 6.24 43.232 0.069 6.97 1.94 11.84
11/9/2021 4:00:00 AM 6.22 43.196 0.069 6.94 2.04 11.85
11/9/2021 4:15:00 AM 6.2 43.16 0.069 6.98 1.95 11.85
11/9/2021 4:30:00 AM 6.18 43.124 0.069 6.93 2.08 11.86
11/9/2021 4:45:00 AM 6.16 43.088 0.069 6.97 1.91 11.86
11/9/2021 5:00:00 AM 6.13 43.034 0.069 6.98 1.95 11.87
11/9/2021 5:15:00 AM 6.11 42.998 0.069 6.97 1.92 11.88
11/9/2021 5:30:00 AM 6.1 42.98 0.069 6.97 1.88 11.88
11/9/2021 5:45:00 AM 6.08 42.944 0.069 6.97 1.97 11.89
11/9/2021 6:00:00 AM 6.06 42.908 0.069 6.98 1.96 11.89
11/9/2021 6:15:00 AM 6.03 42.854 0.069 6.97 1.94 11.91
11/9/2021 6:30:00 AM 6.01 42.818 0.069 6.98 1.9 11.91
11/9/2021 6:45:00 AM 5.99 42.782 0.069 6.97 1.93 11.92
11/9/2021 7:00:00 AM 5.97 42.746 0.069 6.97 2.01 11.93
11/9/2021 7:15:00 AM 5.95 42.71 0.069 6.97 1.94 11.93
11/9/2021 7:30:00 AM 5.93 42.674 0.069 6.97 2 11.94
11/9/2021 7:45:00 AM 5.91 42.638 0.069 6.94 1.9 11.96
11/9/2021 8:00:00 AM 5.9 42.62 0.069 6.98 1.94 11.98
11/9/2021 8:15:00 AM 5.89 42.602 0.069 6.98 1.91 12.02
11/9/2021 8:30:00 AM 5.88 42.584 0.069 7 1.92 12.06
11/9/2021 8:45:00 AM 5.87 42.566 0.069 7.01 1.86 12.11
11/9/2021 9:00:00 AM 5.88 42.584 0.068 7.01 1.93 12.16
11/9/2021 9:15:00 AM 5.89 42.602 0.068 7.04 1.86 12.2
11/9/2021 9:30:00 AM 5.92 42.656 0.068 7.05 1.96 12.24
11/9/2021 9:45:00 AM 5.97 42.746 0.068 7.07 1.91 12.27
11/9/2021 10:00:00 AM 6.04 42.872 0.068 7.07 1.94 12.29
11/9/2021 10:15:00 AM 6.11 42.998 0.068 7.06 1.94 12.31
11/9/2021 10:30:00 AM 6.19 43.142 0.068 7.12 1.92 12.31
11/9/2021 10:45:00 AM 6.29 43.322 0.068 7.14 1.91 12.31
11/9/2021 11:00:00 AM 6.4 43.52 0.068 7.15 1.9 12.3
11/9/2021 11:15:00 AM 6.51 43.718 0.068 7.15 1.85 12.28
11/9/2021 11:30:00 AM 6.64 43.952 0.068 7.16 1.85 12.25
11/9/2021 11:45:00 AM 6.8 44.24 0.067 7.19 1.85 12.22
11/9/2021 12:00:00 PM 6.97 44.546 0.067 7.17 1.89 12.19
11/9/2021 12:15:00 PM 7.13 44.834 0.067 7.22 1.86 12.16
11/9/2021 12:30:00 PM 7.24 45.032 0.067 7.18 1.84 12.12
11/9/2021 12:45:00 PM 7.33 45.194 0.067 7.17 1.81 12.09
11/9/2021 1:00:00 PM 7.41 45.338 0.067 7.22 1.88 12.07
11/9/2021 1:15:00 PM 7.49 45.482 0.067 7.2 1.88 12.03
11/9/2021 1:30:00 PM 7.56 45.608 0.067 7.22 1.83 12
11/9/2021 1:45:00 PM 7.65 45.77 0.067 7.22 1.85 11.97
11/9/2021 2:00:00 PM 7.76 45.968 0.067 7.24 1.86 11.94
11/9/2021 2:15:00 PM 7.91 46.238 0.067 7.25 1.85 11.91
11/9/2021 2:30:00 PM 8.05 46.49 0.067 7.25 1.85 11.87
11/9/2021 2:45:00 PM 8.19 46.742 0.067 7.22 1.86 11.83
11/9/2021 3:00:00 PM 8.29 46.922 0.067 7.25 1.9 11.76
11/9/2021 3:15:00 PM 8.36 47.048 0.067 7.18 1.82 11.7
11/9/2021 3:30:00 PM 8.42 47.156 0.067 7.22 1.86 11.67
11/9/2021 3:45:00 PM 8.47 47.246 0.067 7.18 1.88 11.67
11/9/2021 4:00:00 PM 8.5 47.3 0.067 7.17 1.83 11.65
11/9/2021 4:15:00 PM 8.55 47.39 0.067 7.22 1.96 11.64
11/9/2021 4:30:00 PM 8.58 47.444 0.067 7.16 1.95 11.61
11/9/2021 4:45:00 PM 8.61 47.498 0.067 7.19 1.94 11.55
11/9/2021 5:00:00 PM 8.62 47.516 0.067 7.16 1.92 11.5
11/9/2021 5:15:00 PM 8.63 47.534 0.067 7.12 1.94 11.43
11/9/2021 5:30:00 PM 8.63 47.534 0.067 7.09 1.96 11.35
11/9/2021 5:45:00 PM 8.64 47.552 0.067 7.07 1.99 11.29
11/9/2021 6:00:00 PM 8.65 47.57 0.068 7.07 2.01 11.23
11/9/2021 6:15:00 PM 8.65 47.57 0.068 7.03 1.99 11.18
11/9/2021 6:30:00 PM 8.66 47.588 0.068 7.01 2.03 11.16
11/9/2021 6:45:00 PM 8.66 47.588 0.068 7.01 2.17 11.13
11/9/2021 7:00:00 PM 8.66 47.588 0.068 6.94 2.05 11.12
11/9/2021 7:15:00 PM 8.65 47.57 0.068 6.98 2.01 11.11
11/9/2021 7:30:00 PM 8.64 47.552 0.068 6.97 2.08 11.11
11/9/2021 7:45:00 PM 8.64 47.552 0.069 6.96 2.09 11.1
11/9/2021 8:00:00 PM 8.63 47.534 0.069 6.96 2.08 11.09
11/9/2021 8:15:00 PM 8.62 47.516 0.069 6.95 2.1 11.1
11/9/2021 8:30:00 PM 8.61 47.498 0.069 6.96 2.1 11.1
11/9/2021 8:45:00 PM 8.6 47.48 0.069 6.93 2.05 11.1
11/9/2021 9:00:00 PM 8.59 47.462 0.069 6.93 2.15 11.1
11/9/2021 9:15:00 PM 8.58 47.444 0.069 6.96 2.06 11.1
11/9/2021 9:30:00 PM 8.57 47.426 0.069 6.94 2.12 11.1
11/9/2021 9:45:00 PM 8.55 47.39 0.069 6.92 2.08 11.1
11/9/2021 10:00:00 PM 8.52 47.336 0.069 6.95 2.15 11.1
11/9/2021 10:15:00 PM 8.5 47.3 0.069 6.94 2.09 11.11
11/9/2021 10:30:00 PM 8.48 47.264 0.069 6.95 2.08 11.11
11/9/2021 10:45:00 PM 8.44 47.192 0.069 6.94 2.04 11.11
11/9/2021 11:00:00 PM 8.41 47.138 0.069 6.91 2.1 11.12
11/9/2021 11:15:00 PM 8.38 47.084 0.069 6.94 1.95 11.13
11/9/2021 11:30:00 PM 8.35 47.03 0.069 6.87 2.12 11.13
11/9/2021 11:45:00 PM 8.33 46.994 0.069 6.94 2.12 11.14
11/10/2021 12:00:00 AM 8.31 46.958 0.069 6.93 2.09 11.14
11/10/2021 12:15:00 AM 8.28 46.904 0.07 6.92 2.05 11.15
11/10/2021 12:30:00 AM 8.26 46.868 0.07 6.9 2.11 11.16
11/10/2021 12:45:00 AM 8.24 46.832 0.07 6.94 2.06 11.16
11/10/2021 1:00:00 AM 8.21 46.778 0.07 6.93 2.13 11.17
11/10/2021 1:15:00 AM 8.19 46.742 0.07 6.94 2.2 11.17
11/10/2021 1:30:00 AM 8.16 46.688 0.07 6.93 2.13 11.18
11/10/2021 1:45:00 AM 8.14 46.652 0.07 6.94 2.05 11.18
11/10/2021 2:00:00 AM 8.12 46.616 0.07 6.93 2.05 11.19
11/10/2021 2:15:00 AM 8.1 46.58 0.07 6.94 2.11 11.2
11/10/2021 2:30:00 AM 8.07 46.526 0.07 6.9 2.19 11.21
11/10/2021 2:45:00 AM 8.05 46.49 0.07 6.95 2.11 11.22
11/10/2021 3:00:00 AM 8.04 46.472 0.07 6.95 2.05 11.22
11/10/2021 3:15:00 AM 8.03 46.454 0.07 6.95 2.07 11.23
11/10/2021 3:30:00 AM 8.02 46.436 0.07 6.95 2 11.23
11/10/2021 3:45:00 AM 8.02 46.436 0.07 6.95 2.03 11.23
11/10/2021 4:00:00 AM 8.01 46.418 0.07 6.95 1.94 11.24
11/10/2021 4:15:00 AM 8 46.4 0.07 6.95 2.07 11.24
11/10/2021 4:30:00 AM 8 46.4 0.07 6.91 2.04 11.24
11/10/2021 4:45:00 AM 8 46.4 0.07 6.95 1.95 11.24
11/10/2021 5:00:00 AM 8 46.4 0.07 6.96 2.01 11.24
11/10/2021 5:15:00 AM 8 46.4 0.07 6.94 1.99 11.25
11/10/2021 5:30:00 AM 8 46.4 0.07 6.96 2.01 11.25
11/10/2021 5:45:00 AM 8.02 46.436 0.07 6.97 1.95 11.25
11/10/2021 6:00:00 AM 8.03 46.454 0.07 6.98 2.07 11.25
11/10/2021 6:15:00 AM 8.04 46.472 0.07 6.99 2.05 11.25
11/10/2021 6:30:00 AM 8.05 46.49 0.07 6.98 2.01 11.25
11/10/2021 6:45:00 AM 8.06 46.508 0.07 7 1.98 11.25
11/10/2021 7:00:00 AM 8.06 46.508 0.07 7.01 2.03 11.25
11/10/2021 7:15:00 AM 8.07 46.526 0.07 7.01 1.99 11.25
11/10/2021 7:30:00 AM 8.07 46.526 0.07 7.01 2.01 11.25
11/10/2021 7:45:00 AM 8.07 46.526 0.07 6.98 2.02 11.26
11/10/2021 8:00:00 AM 8.06 46.508 0.069 7 2.01 11.27
11/10/2021 8:15:00 AM 8.03 46.454 0.069 7.02 1.97 11.3
11/10/2021 8:30:00 AM 8.01 46.418 0.069 7 2 11.35
11/10/2021 8:45:00 AM 8 46.4 0.069 7.05 2.03 11.43
11/10/2021 9:00:00 AM 7.99 46.382 0.069 7.06 2.08 11.49
11/10/2021 9:15:00 AM 8 46.4 0.069 7.08 2.01 11.55
11/10/2021 9:30:00 AM 8.01 46.418 0.069 7.09 1.99 11.6
11/10/2021 9:45:00 AM 8.04 46.472 0.069 7.06 1.94 11.64
11/10/2021 10:00:00 AM 8.06 46.508 0.069 7.13 1.91 11.67
11/10/2021 10:15:00 AM 8.08 46.544 0.069 7.09 1.91 11.7
11/10/2021 10:30:00 AM 8.11 46.598 0.069 7.16 2.03 11.72
11/10/2021 10:45:00 AM 8.15 46.67 0.068 7.13 1.91 11.73
11/10/2021 11:00:00 AM 8.2 46.76 0.068 7.17 1.92 11.74
11/10/2021 11:15:00 AM 8.24 46.832 0.068 7.14 1.91 11.74
11/10/2021 11:30:00 AM 8.29 46.922 0.068 7.19 1.93 11.72
11/10/2021 11:45:00 AM 8.35 47.03 0.068 7.19 1.93 11.72
11/10/2021 12:00:00 PM 8.42 47.156 0.068 7.2 1.81 11.7
11/10/2021 12:15:00 PM 8.51 47.318 0.068 7.21 1.87 11.69
11/10/2021 12:30:00 PM 8.6 47.48 0.068 7.21 1.89 11.67
11/10/2021 12:45:00 PM 8.68 47.624 0.068 7.23 1.82 11.65
11/10/2021 1:00:00 PM 8.74 47.732 0.068 7.21 1.93 11.62
11/10/2021 1:15:00 PM 8.78 47.804 0.068 7.22 1.94 11.6
11/10/2021 1:30:00 PM 8.81 47.858 0.068 7.21 1.88 11.57
11/10/2021 1:45:00 PM 8.85 47.93 0.068 7.21 1.88 11.55
11/10/2021 2:00:00 PM 8.87 47.966 0.068 7.2 1.87 11.53
11/10/2021 2:15:00 PM 8.9 48.02 0.068 7.19 1.92 11.51
11/10/2021 2:30:00 PM 8.95 48.11 0.068 7.21 1.99 11.5
11/10/2021 2:45:00 PM 8.98 48.164 0.068 7.2 1.88 11.48
11/10/2021 3:00:00 PM 9.01 48.218 0.068 7.2 1.81 11.45
11/10/2021 3:15:00 PM 9.02 48.236 0.068 7.15 1.89 11.43
11/10/2021 3:30:00 PM 9.01 48.218 0.068 7.17 1.91 11.4
11/10/2021 3:45:00 PM 9 48.2 0.068 7.17 1.9 11.38
11/10/2021 4:00:00 PM 9 48.2 0.068 7.11 1.9 11.36
11/10/2021 4:15:00 PM 8.99 48.182 0.068 7.16 1.92 11.35
11/10/2021 4:30:00 PM 8.97 48.146 0.068 7.15 1.86 11.33
11/10/2021 4:45:00 PM 8.94 48.092 0.068 7.13 1.9 11.31
11/10/2021 5:00:00 PM 8.9 48.02 0.068 7.12 1.94 11.3
11/10/2021 5:15:00 PM 8.83 47.894 0.068 7.06 1.87 11.29
11/10/2021 5:30:00 PM 8.76 47.768 0.068 7.09 2.05 11.27
11/10/2021 5:45:00 PM 8.69 47.642 0.068 7.08 1.91 11.25
11/10/2021 6:00:00 PM 8.62 47.516 0.069 7.04 2.02 11.22
11/10/2021 6:15:00 PM 8.56 47.408 0.069 7.05 1.88 11.2
11/10/2021 6:30:00 PM 8.49 47.282 0.069 7.03 1.92 11.2
11/10/2021 6:45:00 PM 8.42 47.156 0.069 7.03 1.96 11.19
11/10/2021 7:00:00 PM 8.35 47.03 0.069 7.01 1.96 11.2
11/10/2021 7:15:00 PM 8.27 46.886 0.069 7.02 2.05 11.21
11/10/2021 7:30:00 PM 8.19 46.742 0.069 6.97 1.98 11.23
11/10/2021 7:45:00 PM 8.11 46.598 0.069 7.01 2.02 11.25
11/10/2021 8:00:00 PM 8.04 46.472 0.069 7 2 11.27
11/10/2021 8:15:00 PM 7.96 46.328 0.07 6.99 1.95 11.29
11/10/2021 8:30:00 PM 7.88 46.184 0.07 7 1.92 11.31
11/10/2021 8:45:00 PM 7.81 46.058 0.07 6.99 2.06 11.34
11/10/2021 9:00:00 PM 7.73 45.914 0.07 7 1.97 11.37
11/10/2021 9:15:00 PM 7.65 45.77 0.07 6.99 1.95 11.39
11/10/2021 9:30:00 PM 7.57 45.626 0.07 6.99 1.99 11.41
11/10/2021 9:45:00 PM 7.49 45.482 0.07 7 1.98 11.43
11/10/2021 10:00:00 PM 7.42 45.356 0.07 7 1.96 11.46
11/10/2021 10:15:00 PM 7.35 45.23 0.07 6.99 1.99 11.48
11/10/2021 10:30:00 PM 7.28 45.104 0.07 7 1.89 11.5
11/10/2021 10:45:00 PM 7.21 44.978 0.07 7 1.95 11.52
11/10/2021 11:00:00 PM 7.13 44.834 0.07 7 1.93 11.55
11/10/2021 11:15:00 PM 7.07 44.726 0.07 6.99 1.89 11.56
11/10/2021 11:30:00 PM 6.99 44.582 0.07 7 2 11.59
11/10/2021 11:45:00 PM 6.92 44.456 0.07 6.98 1.9 11.62
11/11/2021 12:00:00 AM 6.86 44.348 0.07 7 1.94 11.63
11/11/2021 12:15:00 AM 6.79 44.222 0.07 6.99 1.92 11.66
11/11/2021 12:30:00 AM 6.73 44.114 0.07 6.99 1.94 11.68
11/11/2021 12:45:00 AM 6.67 44.006 0.07 7 1.9 11.69
11/11/2021 1:00:00 AM 6.61 43.898 0.07 7 1.95 11.72
11/11/2021 1:15:00 AM 6.55 43.79 0.07 6.98 1.89 11.74
11/11/2021 1:30:00 AM 6.49 43.682 0.07 7 2.19 11.75
11/11/2021 1:45:00 AM 6.43 43.574 0.07 7.04 2.16 11.77
11/11/2021 2:00:00 AM 6.38 43.484 0.07 6.96 2.03 11.78
11/11/2021 2:15:00 AM 6.32 43.376 0.07 7 1.99 11.81
11/11/2021 2:30:00 AM 6.27 43.286 0.07 6.98 1.94 11.82
11/11/2021 2:45:00 AM 6.22 43.196 0.07 7 1.95 11.84
11/11/2021 3:00:00 AM 6.17 43.106 0.048 6.99 2.05 11.86
11/11/2021 3:15:00 AM 6.12 43.016 0.07 7.04 1.95 11.87
11/11/2021 3:30:00 AM 6.08 42.944 0.07 6.94 1.95 11.89
11/11/2021 3:45:00 AM 6.04 42.872 0.061 7 1.99 11.9
11/11/2021 4:00:00 AM 6 42.8 0.048 7 1.92 11.91
11/11/2021 4:15:00 AM 5.98 42.764 0.07 7.02 1.99 11.92
11/11/2021 4:30:00 AM 5.94 42.692 0.07 7.03 2.06 11.93
11/11/2021 4:45:00 AM 5.91 42.638 0.07 7 1.99 11.94
11/11/2021 5:00:00 AM 5.9 42.62 0.066 7.01 1.96 11.96
11/11/2021 5:15:00 AM 5.88 42.584 0.07 7.01 2.05 11.96
11/11/2021 5:30:00 AM 5.85 42.53 0.07 7 1.94 11.97
11/11/2021 5:45:00 AM 5.82 42.476 0.07 6.99 1.93 11.98
11/11/2021 6:00:00 AM 5.79 42.422 0.07 7 1.99 11.98
11/11/2021 6:15:00 AM 5.76 42.368 0.07 7.01 1.94 11.99
11/11/2021 6:30:00 AM 5.73 42.314 0.07 7.02 1.97 12
11/11/2021 6:45:00 AM 5.7 42.26 0.07 7.01 2.04 12.01
11/11/2021 7:00:00 AM 5.69 42.242 0.07 7.01 1.96 12.02
11/11/2021 7:15:00 AM 5.66 42.188 0.07 7.01 1.87 12.02
11/11/2021 7:30:00 AM 5.64 42.152 0.07 7 1.89 12.03
11/11/2021 7:45:00 AM 5.62 42.116 0.07 7.01 1.9 12.04
11/11/2021 8:00:00 AM 5.59 42.062 0.07 7.01 1.93 12.06
11/11/2021 8:15:00 AM 5.57 42.026 0.07 7.02 1.91 12.09
11/11/2021 8:30:00 AM 5.56 42.008 0.07 7.04 1.87 12.14
11/11/2021 8:45:00 AM 5.56 42.008 0.07 7.05 1.94 12.21
11/11/2021 9:00:00 AM 5.57 42.026 0.07 7.07 1.86 12.29
11/11/2021 9:15:00 AM 5.59 42.062 0.07 7.09 1.85 12.35
11/11/2021 9:30:00 AM 5.61 42.098 0.07 7.06 1.82 12.4
11/11/2021 9:45:00 AM 5.64 42.152 0.07 7.08 1.9 12.44
11/11/2021 10:00:00 AM 5.69 42.242 0.07 7.15 1.92 12.47
11/11/2021 10:15:00 AM 5.73 42.314 0.07 7.16 1.87 12.5
11/11/2021 10:30:00 AM 5.79 42.422 0.069 7.18 1.84 12.51
11/11/2021 10:45:00 AM 5.88 42.584 0.069 7.2 1.84 12.52
11/11/2021 11:00:00 AM 5.97 42.746 0.069 7.21 1.82 12.51
11/11/2021 11:15:00 AM 6.05 42.89 0.069 7.22 1.81 12.5
11/11/2021 11:30:00 AM 6.13 43.034 0.069 7.23 1.78 12.49
11/11/2021 11:45:00 AM 6.21 43.178 0.069 7.23 1.83 12.47
11/11/2021 12:00:00 PM 6.28 43.304 0.069 7.26 1.83 12.44
11/11/2021 12:15:00 PM 6.38 43.484 0.069 7.25 1.86 12.42
11/11/2021 12:30:00 PM 6.48 43.664 0.069 7.28 1.75 12.4
11/11/2021 12:45:00 PM 6.56 43.808 0.069 7.27 1.79 12.37
11/11/2021 1:00:00 PM 6.67 44.006 0.068 7.23 1.8 12.34
11/11/2021 1:15:00 PM 6.77 44.186 0.068 7.27 1.77 12.31
11/11/2021 1:30:00 PM 6.9 44.42 0.068 7.3 1.8 12.28
11/11/2021 1:45:00 PM 6.99 44.582 0.068 7.29 1.84 12.25
11/11/2021 2:00:00 PM 7.09 44.762 0.068 7.29 1.89 12.21
11/11/2021 2:15:00 PM 7.2 44.96 0.068 7.29 1.81 12.17
11/11/2021 2:30:00 PM 7.28 45.104 0.068 7.28 1.79 12.14
11/11/2021 2:45:00 PM 7.36 45.248 0.068 7.29 1.89 12.11
11/11/2021 3:00:00 PM 7.44 45.392 0.068 7.29 1.86 12.07
11/11/2021 3:15:00 PM 7.51 45.518 0.068 7.25 1.84 12.03
11/11/2021 3:30:00 PM 7.59 45.662 0.068 7.29 1.82 12.01
11/11/2021 3:45:00 PM 7.66 45.788 0.068 7.28 1.83 11.97
11/11/2021 4:00:00 PM 7.72 45.896 0.068 7.28 1.85 11.92
11/11/2021 4:15:00 PM 7.77 45.986 0.068 7.23 1.82 11.88
11/11/2021 4:30:00 PM 7.83 46.094 0.068 7.25 1.83 11.84
11/11/2021 4:45:00 PM 7.88 46.184 0.068 7.24 1.84 11.8
11/11/2021 5:00:00 PM 7.91 46.238 0.068 7.22 1.81 11.74
11/11/2021 5:15:00 PM 7.92 46.256 0.068 7.17 1.88 11.67
11/11/2021 5:30:00 PM 7.92 46.256 0.068 7.17 1.87 11.59
11/11/2021 5:45:00 PM 7.91 46.238 0.069 7.14 1.9 11.52
11/11/2021 6:00:00 PM 7.91 46.238 0.069 7.12 1.92 11.45
11/11/2021 6:15:00 PM 7.91 46.238 0.069 7.11 1.9 11.4
11/11/2021 6:30:00 PM 7.93 46.274 0.069 7.07 1.96 11.35
11/11/2021 6:45:00 PM 7.96 46.328 0.069 7.08 2.02 11.32
11/11/2021 7:00:00 PM 7.97 46.346 0.069 7.08 1.98 11.3
11/11/2021 7:15:00 PM 7.99 46.382 0.07 7.07 1.98 11.28
11/11/2021 7:30:00 PM 8 46.4 0.07 7.05 2.03 11.26
11/11/2021 7:45:00 PM 8.01 46.418 0.07 7.06 1.91 11.25
11/11/2021 8:00:00 PM 8.02 46.436 0.07 7.06 2.01 11.24
11/11/2021 8:15:00 PM 8.04 46.472 0.07 7.06 1.91 11.23
11/11/2021 8:30:00 PM 8.04 46.472 0.07 7.05 1.9 11.22
11/11/2021 8:45:00 PM 8.06 46.508 0.07 7.05 1.93 11.21
11/11/2021 9:00:00 PM 8.08 46.544 0.07 7.04 1.92 11.21
11/11/2021 9:15:00 PM 8.09 46.562 0.07 7.05 1.96 11.2
11/11/2021 9:30:00 PM 8.11 46.598 0.07 7.05 1.98 11.18
11/11/2021 9:45:00 PM 8.13 46.634 0.07 7.05 1.91 11.17
11/11/2021 10:00:00 PM 8.15 46.67 0.07 7.05 1.91 11.17
11/11/2021 10:15:00 PM 8.17 46.706 0.07 7.05 1.95 11.16
11/11/2021 10:30:00 PM 8.2 46.76 0.07 7.04 1.91 11.15
11/11/2021 10:45:00 PM 8.22 46.796 0.07 7.05 2.03 11.14
11/11/2021 11:00:00 PM 8.23 46.814 0.07 7.04 1.94 11.13
11/11/2021 11:15:00 PM 8.24 46.832 0.07 7.04 1.91 11.13
11/11/2021 11:30:00 PM 8.26 46.868 0.07 7.04 1.95 11.11
11/11/2021 11:45:00 PM 8.28 46.904 0.07 7.04 1.89 11.11
11/12/2021 12:00:00 AM 8.3 46.94 0.07 7 1.99 11.1
11/12/2021 12:15:00 AM 8.32 46.976 0.07 7.04 1.94 11.09
11/12/2021 12:30:00 AM 8.34 47.012 0.07 7.02 2 11.08
11/12/2021 12:45:00 AM 8.36 47.048 0.07 6.99 1.95 11.07
11/12/2021 1:00:00 AM 8.38 47.084 0.07 7.02 2 11.07
11/12/2021 1:15:00 AM 8.41 47.138 0.07 7.03 2.06 11.05
11/12/2021 1:30:00 AM 8.42 47.156 0.07 6.98 2 11.04
11/12/2021 1:45:00 AM 8.46 47.228 0.07 7 1.97 11.03
11/12/2021 2:00:00 AM 8.48 47.264 0.07 7.02 2.05 11.02
11/12/2021 2:15:00 AM 8.51 47.318 0.07 7.03 2.06 11.01
11/12/2021 2:30:00 AM 8.56 47.408 0.07 6.99 2.03 10.99
11/12/2021 2:45:00 AM 8.59 47.462 0.07 7.03 2.09 10.98
11/12/2021 3:00:00 AM 8.63 47.534 0.07 7 2.09 10.96
11/12/2021 3:15:00 AM 8.66 47.588 0.07 7.02 2.11 10.96
11/12/2021 3:30:00 AM 8.7 47.66 0.07 7.03 2.18 10.94
11/12/2021 3:45:00 AM 8.73 47.714 0.07 7.02 2.15 10.93
11/12/2021 4:00:00 AM 8.77 47.786 0.07 6.99 2.13 10.91
11/12/2021 4:15:00 AM 8.79 47.822 0.07 6.98 2.12 10.91
11/12/2021 4:30:00 AM 8.82 47.876 0.07 7.02 2.19 10.89
11/12/2021 4:45:00 AM 8.85 47.93 0.07 7.02 2.34 10.89
11/12/2021 5:00:00 AM 8.88 47.984 0.069 6.99 2.28 10.88
11/12/2021 5:15:00 AM 8.9 48.02 0.069 6.96 2.36 10.88
11/12/2021 5:30:00 AM 8.91 48.038 0.069 7.01 2.27 10.88
11/12/2021 5:45:00 AM 8.92 48.056 0.069 6.97 2.53 10.88
11/12/2021 6:00:00 AM 8.92 48.056 0.069 7 2.53 10.88
11/12/2021 6:15:00 AM 8.93 48.074 0.069 6.98 2.71 10.89
11/12/2021 6:30:00 AM 8.93 48.074 0.069 6.99 2.85 10.89
11/12/2021 6:45:00 AM 8.92 48.056 0.069 7 2.82 10.89
11/12/2021 7:00:00 AM 8.92 48.056 0.069 6.99 3.45 10.89
11/12/2021 7:15:00 AM 8.92 48.056 0.069 6.99 3.13 10.89
11/12/2021 7:30:00 AM 8.92 48.056 0.068 6.99 3.31 10.91
11/12/2021 7:45:00 AM 8.91 48.038 0.068 6.99 3.26 10.92
11/12/2021 8:00:00 AM 8.9 48.02 0.068 6.99 3.45 10.93
11/12/2021 8:15:00 AM 8.88 47.984 0.068 6.99 3.47 10.94
11/12/2021 8:30:00 AM 8.86 47.948 0.068 7 3.78 10.95
11/12/2021 8:45:00 AM 8.83 47.894 0.068 7.01 3.8 10.98
11/12/2021 9:00:00 AM 8.81 47.858 0.068 7.03 4.25 11.05
11/12/2021 9:15:00 AM 8.78 47.804 0.069 7.04 4.23 11.1
11/12/2021 9:30:00 AM 8.76 47.768 0.069 7 4.47 11.16
11/12/2021 9:45:00 AM 8.73 47.714 0.069 7.08 4.58 11.22
11/12/2021 10:00:00 AM 8.73 47.714 0.069 7.05 4.45 11.28
11/12/2021 10:15:00 AM 8.71 47.678 0.069 7.12 4.36 11.32
11/12/2021 10:30:00 AM 8.71 47.678 0.07 7.13 4.08 11.37
11/12/2021 10:45:00 AM 8.72 47.696 0.07 7.16 4.29 11.42
11/12/2021 11:00:00 AM 8.74 47.732 0.07 7.17 4.03 11.43
11/12/2021 11:15:00 AM 8.75 47.75 0.07 7.18 3.92 11.45
11/12/2021 11:30:00 AM 8.78 47.804 0.07 7.19 3.88 11.46
11/12/2021 11:45:00 AM 8.83 47.894 0.07 7.21 3.77 11.45
11/12/2021 12:00:00 PM 8.88 47.984 0.07 7.22 3.66 11.45
11/12/2021 12:15:00 PM 8.93 48.074 0.07 7.23 3.71 11.45
11/12/2021 12:30:00 PM 8.98 48.164 0.07 7.2 3.5 11.45
11/12/2021 12:45:00 PM 9.03 48.254 0.07 7.23 3.33 11.44
11/12/2021 1:00:00 PM 9.06 48.308 0.07 7.18 3.34 11.42
11/12/2021 1:15:00 PM 9.09 48.362 0.07 7.24 3.23 11.41
11/12/2021 1:30:00 PM 9.1 48.38 0.07 7.22 3.29 11.4
11/12/2021 1:45:00 PM 9.12 48.416 0.07 7.23 6.8 11.38
11/12/2021 2:00:00 PM 9.15 48.47 0.07 7.25 3.09 11.39
11/12/2021 2:15:00 PM 9.17 48.506 0.07 7.23 3.07 11.37
11/12/2021 2:30:00 PM 9.17 48.506 0.07 7.24 3.05 11.35
11/12/2021 2:45:00 PM 9.18 48.524 0.07 7.24 2.99 11.33
11/12/2021 3:00:00 PM 9.16 48.488 0.07 7.18 2.9 11.29
11/12/2021 3:15:00 PM 9.13 48.434 0.07 7.2 2.96 11.27
11/12/2021 3:30:00 PM 9.12 48.416 0.07 7.2 2.9 11.27
11/12/2021 3:45:00 PM 9.11 48.398 0.069 7.21 2.84 11.3
11/12/2021 4:00:00 PM 9.08 48.344 0.069 7.15 4.63 11.29
11/12/2021 4:15:00 PM 9.03 48.254 0.07 7.18 2.97 11.25
11/12/2021 4:30:00 PM 8.98 48.164 0.07 7.16 2.73 11.23
11/12/2021 4:45:00 PM 8.94 48.092 0.07 7.16 2.72 11.22
11/12/2021 5:00:00 PM 8.91 48.038 0.07 7.12 2.75 11.23
11/12/2021 5:15:00 PM 8.84 47.912 0.07 7.13 2.65 11.2
11/12/2021 5:30:00 PM 8.79 47.822 0.07 7.13 2.68 11.16
11/12/2021 5:45:00 PM 8.74 47.732 0.07 7.06 8.16 11.14
11/12/2021 6:00:00 PM 8.68 47.624 0.07 7.09 2.64 11.11
11/12/2021 6:15:00 PM 8.61 47.498 0.07 7.08 2.58 11.08
11/12/2021 6:30:00 PM 8.54 47.372 0.07 7.07 2.59 11.07
11/12/2021 6:45:00 PM 8.46 47.228 0.071 7.05 2.62 11.08
11/12/2021 7:00:00 PM 8.38 47.084 0.071 7.04 2.61 11.08
11/12/2021 7:15:00 PM 8.3 46.94 0.071 7.04 2.55 11.09
11/12/2021 7:30:00 PM 8.22 46.796 0.071 7.03 2.42 11.11
11/12/2021 7:45:00 PM 8.14 46.652 0.071 7.03 2.4 11.13
11/12/2021 8:00:00 PM 8.06 46.508 0.071 7.03 2.38 11.15
11/12/2021 8:15:00 PM 7.98 46.364 0.071 7.01 2.41 11.17
11/12/2021 8:30:00 PM 7.9 46.22 0.071 6.97 2.33 11.19
11/12/2021 8:45:00 PM 7.82 46.076 0.071 7.02 2.47 11.21
11/12/2021 9:00:00 PM 7.75 45.95 0.071 7.01 2.36 11.23
11/12/2021 9:15:00 PM 7.68 45.824 0.071 7.01 2.4 11.25
11/12/2021 9:30:00 PM 7.62 45.716 0.071 7.02 2.33 11.26
11/12/2021 9:45:00 PM 7.56 45.608 0.071 7 2.62 11.28
11/12/2021 10:00:00 PM 7.51 45.518 0.071 7.02 2.13 11.29
11/12/2021 10:15:00 PM 7.46 45.428 0.071 7.02 2.26 11.32
11/12/2021 10:30:00 PM 7.39 45.302 0.071 7.02 2.28 11.33
11/12/2021 10:45:00 PM 7.32 45.176 0.071 7.02 2.18 11.35
11/12/2021 11:00:00 PM 7.26 45.068 0.071 7.02 2.16 11.36
11/12/2021 11:15:00 PM 7.19 44.942 0.071 7.02 2.18 11.38
11/12/2021 11:30:00 PM 7.13 44.834 0.071 7.02 2 11.4
11/12/2021 11:45:00 PM 7.06 44.708 0.071 7.02 2.12 11.42
11/13/2021 12:00:00 AM 7.02 44.636 0.071 7.02 2 11.43
11/13/2021 12:15:00 AM 6.97 44.546 0.071 7.02 2.1 11.44
11/13/2021 12:30:00 AM 6.92 44.456 0.071 7.02 2.12 11.46
11/13/2021 12:45:00 AM 6.87 44.366 0.071 6.98 2.17 11.47
11/13/2021 1:00:00 AM 6.82 44.276 0.071 7.02 2.15 11.49
11/13/2021 1:15:00 AM 6.76 44.168 0.071 7.02 2.14 11.51
11/13/2021 1:30:00 AM 6.71 44.078 0.071 7.02 2.02 11.52
11/13/2021 1:45:00 AM 6.67 44.006 0.071 7.02 2.21 11.53
11/13/2021 2:00:00 AM 6.62 43.916 0.071 7.01 1.98 11.54
11/13/2021 2:15:00 AM 6.59 43.862 0.071 7.03 1.95 11.55
11/13/2021 2:30:00 AM 6.56 43.808 0.071 7.02 1.97 11.56
11/13/2021 2:45:00 AM 6.53 43.754 0.071 6.99 2.05 11.58
11/13/2021 3:00:00 AM 6.49 43.682 0.071 7.03 2.07 11.59
11/13/2021 3:15:00 AM 6.47 43.646 0.071 7.04 1.9 11.6
11/13/2021 3:30:00 AM 6.45 43.61 0.071 7.04 1.99 11.6
11/13/2021 3:45:00 AM 6.44 43.592 0.071 7.02 1.98 11.61
11/13/2021 4:00:00 AM 6.42 43.556 0.071 7.03 1.95 11.62
11/13/2021 4:15:00 AM 6.41 43.538 0.071 7.04 1.99 11.62
11/13/2021 4:30:00 AM 6.4 43.52 0.071 7.03 2.07 11.63
11/13/2021 4:45:00 AM 6.39 43.502 0.071 7.04 1.95 11.62
11/13/2021 5:00:00 AM 6.38 43.484 0.071 7.03 2.11 11.62
11/13/2021 5:15:00 AM 6.36 43.448 0.071 7.03 2.09 11.63
11/13/2021 5:30:00 AM 6.36 43.448 0.071 7.01 2.13 11.63
11/13/2021 5:45:00 AM 6.35 43.43 0.071 7.04 2.07 11.63
11/13/2021 6:00:00 AM 6.35 43.43 0.071 7.05 2.1 11.64
11/13/2021 6:15:00 AM 6.34 43.412 0.071 7.04 2.08 11.64
11/13/2021 6:30:00 AM 6.34 43.412 0.071 7.03 2.04 11.63
11/13/2021 6:45:00 AM 6.34 43.412 0.071 7.05 1.99 11.63
11/13/2021 7:00:00 AM 6.34 43.412 0.071 7.04 1.95 11.64
11/13/2021 7:15:00 AM 6.35 43.43 0.071 7.03 1.95 11.63
11/13/2021 7:30:00 AM 6.35 43.43 0.071 7.04 1.98 11.63
11/13/2021 7:45:00 AM 6.36 43.448 0.071 7 1.96 11.63
11/13/2021 8:00:00 AM 6.37 43.466 0.071 7 2.07 11.63
11/13/2021 8:15:00 AM 6.38 43.484 0.071 7.05 1.99 11.64
11/13/2021 8:30:00 AM 6.39 43.502 0.071 7.05 2.09 11.65
11/13/2021 8:45:00 AM 6.4 43.52 0.071 7.06 1.99 11.66
11/13/2021 9:00:00 AM 6.42 43.556 0.071 7.07 2.03 11.67
11/13/2021 9:15:00 AM 6.44 43.592 0.071 7.02 2 11.7
11/13/2021 9:30:00 AM 6.47 43.646 0.071 7.09 2.01 11.71
11/13/2021 9:45:00 AM 6.49 43.682 0.071 7.1 1.98 11.75
11/13/2021 10:00:00 AM 6.54 43.772 0.071 7.13 1.89 11.84
11/13/2021 10:15:00 AM 6.56 43.808 0.071 7.14 1.86 11.85
11/13/2021 10:30:00 AM 6.56 43.808 0.07 7.13 1.88 11.82
11/13/2021 10:45:00 AM 6.59 43.862 0.07 7.15 1.86 11.88
11/13/2021 11:00:00 AM 6.62 43.916 0.07 7.17 1.94 11.95
11/13/2021 11:15:00 AM 6.64 43.952 0.07 7.19 2.03 11.99
11/13/2021 11:30:00 AM 6.66 43.988 0.07 7.21 1.93 12.01
11/13/2021 11:45:00 AM 6.7 44.06 0.07 7.21 4.95 12.05
11/13/2021 12:00:00 PM 6.72 44.096 0.069 7.23 1.9 12.05
11/13/2021 12:15:00 PM 6.74 44.132 0.069 7.25 1.9 12.08
11/13/2021 12:30:00 PM 6.76 44.168 0.069 7.26 1.95 12.09
11/13/2021 12:45:00 PM 6.78 44.204 0.069 7.27 1.96 12.09
11/13/2021 1:00:00 PM 6.8 44.24 0.069 7.25 1.92 12.1
11/13/2021 1:15:00 PM 6.8 44.24 0.069 7.27 1.9 12.09
11/13/2021 1:30:00 PM 6.84 44.312 0.069 7.28 1.96 12.1
11/13/2021 1:45:00 PM 6.87 44.366 0.069 7.3 1.94 12.1
11/13/2021 2:00:00 PM 6.89 44.402 0.068 7.26 5.78 12.09
11/13/2021 2:15:00 PM 6.88 44.384 0.068 7.29 2.03 12.07
11/13/2021 2:30:00 PM 6.92 44.456 0.068 7.3 1.95 12.08
11/13/2021 2:45:00 PM 6.97 44.546 0.068 7.3 1.93 12.07
11/13/2021 3:00:00 PM 6.98 44.564 0.068 7.3 2.01 12.04
11/13/2021 3:15:00 PM 6.95 44.51 0.068 7.26 2.02 12
11/13/2021 3:30:00 PM 6.95 44.51 0.068 7.27 2.01 12.01
11/13/2021 3:45:00 PM 6.91 44.438 0.068 7.23 2.06 12.01
11/13/2021 4:00:00 PM 6.88 44.384 0.069 7.24 2.08 11.95
11/13/2021 4:15:00 PM 6.85 44.33 0.069 7.18 1.95 11.89
11/13/2021 4:30:00 PM 6.82 44.276 0.069 7.2 1.96 11.85
11/13/2021 4:45:00 PM 6.79 44.222 0.069 7.18 2 11.82
11/13/2021 5:00:00 PM 6.77 44.186 0.069 7.13 2.05 11.77
11/13/2021 5:15:00 PM 6.74 44.132 0.069 7.14 2 11.75
11/13/2021 5:30:00 PM 6.71 44.078 0.069 7.13 1.99 11.71
11/13/2021 5:45:00 PM 6.68 44.024 0.069 7.08 1.92 11.67
11/13/2021 6:00:00 PM 6.65 43.97 0.07 7.11 2.05 11.65
11/13/2021 6:15:00 PM 6.63 43.934 0.07 7.1 2.1 11.63
11/13/2021 6:30:00 PM 6.6 43.88 0.07 7.09 2.12 11.61
11/13/2021 6:45:00 PM 6.58 43.844 0.07 7.09 2.05 11.61
11/13/2021 7:00:00 PM 6.56 43.808 0.07 7.08 2.15 11.61
11/13/2021 7:15:00 PM 6.53 43.754 0.07 7.08 2.1 11.6
11/13/2021 7:30:00 PM 6.51 43.718 0.07 7.05 2.11 11.61
11/13/2021 7:45:00 PM 6.49 43.682 0.07 7.08 2.04 11.62
11/13/2021 8:00:00 PM 6.46 43.628 0.07 7.06 2.08 11.62
11/13/2021 8:15:00 PM 6.44 43.592 0.07 7.06 2.04 11.62
11/13/2021 8:30:00 PM 6.42 43.556 0.07 7.07 2.17 11.63
11/13/2021 8:45:00 PM 6.38 43.484 0.071 7.06 2.14 11.64
11/13/2021 9:00:00 PM 6.37 43.466 0.071 7.06 2.15 11.65
11/13/2021 9:15:00 PM 6.35 43.43 0.071 7.06 2.15 11.65
11/13/2021 9:30:00 PM 6.33 43.394 0.07 7.06 2.29 11.66
11/13/2021 9:45:00 PM 6.3 43.34 0.071 7.07 2.16 11.67
11/13/2021 10:00:00 PM 6.29 43.322 0.071 7.06 2.26 11.67
11/13/2021 10:15:00 PM 6.26 43.268 0.071 7.06 2.04 11.68
11/13/2021 10:30:00 PM 6.23 43.214 0.071 7.06 2.1 11.69
11/13/2021 10:45:00 PM 6.21 43.178 0.071 7.06 2.03 11.7
11/13/2021 11:00:00 PM 6.18 43.124 0.071 7.06 2.09 11.7
11/13/2021 11:15:00 PM 6.17 43.106 0.071 7.06 2.11 11.71
11/13/2021 11:30:00 PM 6.15 43.07 0.071 7.06 1.95 11.72
11/13/2021 11:45:00 PM 6.14 43.052 0.071 7.02 2.09 11.71
11/14/2021 12:00:00 AM 6.13 43.034 0.071 7.06 2.06 11.72
11/14/2021 12:15:00 AM 6.13 43.034 0.071 7.06 2.04 11.73
11/14/2021 12:30:00 AM 6.11 42.998 0.071 7.05 1.95 11.73
11/14/2021 12:45:00 AM 6.1 42.98 0.071 7.05 2.15 11.74
11/14/2021 1:00:00 AM 6.09 42.962 0.071 7.06 2 11.73
11/14/2021 1:15:00 AM 6.07 42.926 0.071 7.05 2.02 11.74
11/14/2021 1:30:00 AM 6.06 42.908 0.071 7.06 1.97 11.74
11/14/2021 1:45:00 AM 6.05 42.89 0.071 7.06 2.1 11.75
11/14/2021 2:00:00 AM 6.04 42.872 0.071 7 2.1 11.75
11/14/2021 2:15:00 AM 6.03 42.854 0.071 7.02 2.03 11.76
11/14/2021 2:30:00 AM 6.02 42.836 0.071 7.02 2.01 11.76
11/14/2021 2:45:00 AM 6.01 42.818 0.071 7.01 2.11 11.77
11/14/2021 3:00:00 AM 6 42.8 0.071 7.06 1.98 11.77
11/14/2021 3:15:00 AM 5.99 42.782 0.071 7.05 2.09 11.78
11/14/2021 3:30:00 AM 5.99 42.782 0.071 7.05 2.07 11.78
11/14/2021 3:45:00 AM 5.98 42.764 0.071 7.06 2.08 11.78
11/14/2021 4:00:00 AM 5.97 42.746 0.071 7.05 2.06 11.79
11/14/2021 4:15:00 AM 5.96 42.728 0.071 7.06 2.04 11.79
11/14/2021 4:30:00 AM 5.95 42.71 0.071 7.02 1.99 11.79
11/14/2021 4:45:00 AM 5.94 42.692 0.071 7.05 1.94 11.8
11/14/2021 5:00:00 AM 5.93 42.674 0.071 7.01 2.03 11.8
11/14/2021 5:15:00 AM 5.92 42.656 0.071 7.05 2.07 11.81
11/14/2021 5:30:00 AM 5.9 42.62 0.071 7.06 2.2 11.81
11/14/2021 5:45:00 AM 5.89 42.602 0.071 7.05 2.05 11.82
11/14/2021 6:00:00 AM 5.88 42.584 0.071 7.05 2.04 11.82
11/14/2021 6:15:00 AM 5.87 42.566 0.071 7.05 2.03 11.82
11/14/2021 6:30:00 AM 5.86 42.548 0.071 7.02 2 11.82
11/14/2021 6:45:00 AM 5.85 42.53 0.071 7.05 2.09 11.83
11/14/2021 7:00:00 AM 5.84 42.512 0.071 7.06 2.11 11.84
11/14/2021 7:15:00 AM 5.83 42.494 0.071 7.06 2.03 11.84
11/14/2021 7:30:00 AM 5.82 42.476 0.071 7.06 2.08 11.84
11/14/2021 7:45:00 AM 5.81 42.458 0.071 7.05 2.08 11.85
11/14/2021 8:00:00 AM 5.8 42.44 0.071 7 2.06 11.85
11/14/2021 8:15:00 AM 5.79 42.422 0.07 7.06 2.03 11.88
11/14/2021 8:30:00 AM 5.78 42.404 0.07 7.07 1.96 11.93
11/14/2021 8:45:00 AM 5.78 42.404 0.07 7.04 2.04 11.97
11/14/2021 9:00:00 AM 5.78 42.404 0.07 7.09 2.06 12.03
11/14/2021 9:15:00 AM 5.78 42.404 0.07 7.06 2.05 12.07
11/14/2021 9:30:00 AM 5.78 42.404 0.07 7.08 2.22 12.09
11/14/2021 9:45:00 AM 5.78 42.404 0.07 7.12 1.95 12.11
11/14/2021 10:00:00 AM 5.78 42.404 0.07 7.14 2.04 12.15
11/14/2021 10:15:00 AM 5.8 42.44 0.07 7.12 1.84 12.22
11/14/2021 10:30:00 AM 5.82 42.476 0.07 7.16 1.94 12.28
11/14/2021 10:45:00 AM 5.86 42.548 0.07 7.17 1.91 12.34
11/14/2021 11:00:00 AM 5.9 42.62 0.069 7.23 1.92 12.37
11/14/2021 11:15:00 AM 5.92 42.656 0.069 7.24 1.88 12.4
11/14/2021 11:30:00 AM 5.97 42.746 0.069 7.27 1.87 12.41
11/14/2021 11:45:00 AM 5.99 42.782 0.069 7.27 1.96 12.41
11/14/2021 12:00:00 PM 6.03 42.854 0.069 7.28 1.92 12.42
11/14/2021 12:15:00 PM 6.07 42.926 0.069 7.29 1.89 12.41
11/14/2021 12:30:00 PM 6.09 42.962 0.069 7.29 1.87 12.4
11/14/2021 12:45:00 PM 6.13 43.034 0.069 7.29 1.9 12.4
11/14/2021 1:00:00 PM 6.18 43.124 0.068 7.31 1.94 12.39
11/14/2021 1:15:00 PM 6.2 43.16 0.068 7.3 1.92 12.37
11/14/2021 1:30:00 PM 6.22 43.196 0.068 7.3 1.96 12.34
11/14/2021 1:45:00 PM 6.22 43.196 0.068 7.25 1.96 12.32
11/14/2021 2:00:00 PM 6.24 43.232 0.068 7.27 1.9 12.32
11/14/2021 2:15:00 PM 6.26 43.268 0.068 7.3 1.91 12.31
11/14/2021 2:30:00 PM 6.27 43.286 0.068 7.29 1.9 12.29
11/14/2021 2:45:00 PM 6.29 43.322 0.068 7.29 1.86 12.27
11/14/2021 3:00:00 PM 6.29 43.322 0.068 7.29 1.93 12.26
11/14/2021 3:15:00 PM 6.28 43.304 0.068 7.29 1.89 12.23
11/14/2021 3:30:00 PM 6.27 43.286 0.068 7.26 1.98 12.17
11/14/2021 3:45:00 PM 6.25 43.25 0.068 7.22 1.97 12.12
11/14/2021 4:00:00 PM 6.23 43.214 0.068 7.21 1.96 12.07
11/14/2021 4:15:00 PM 6.22 43.196 0.068 7.19 2.02 12.01
11/14/2021 4:30:00 PM 6.21 43.178 0.069 7.17 2 11.97
11/14/2021 4:45:00 PM 6.18 43.124 0.069 7.12 1.94 11.94
11/14/2021 5:00:00 PM 6.14 43.052 0.069 7.15 2.18 11.9
11/14/2021 5:15:00 PM 6.08 42.944 0.069 7.1 2.06 11.88
11/14/2021 5:30:00 PM 6.01 42.818 0.069 7.11 2.01 11.86
11/14/2021 5:45:00 PM 5.96 42.728 0.069 7.11 2.06 11.84
11/14/2021 6:00:00 PM 5.88 42.584 0.069 7.09 2.05 11.82
11/14/2021 6:15:00 PM 5.83 42.494 0.069 7.05 2.07 11.81
11/14/2021 6:30:00 PM 5.74 42.332 0.069 7.05 2.11 11.82
11/14/2021 6:45:00 PM 5.66 42.188 0.069 7.04 2.16 11.82
11/14/2021 7:00:00 PM 5.59 42.062 0.069 7.07 2.09 11.84
11/14/2021 7:15:00 PM 5.55 41.99 0.069 7.04 2.12 11.86
11/14/2021 7:30:00 PM 5.52 41.936 0.069 7.07 2.48 11.87
11/14/2021 7:45:00 PM 5.48 41.864 0.069 7.05 2.15 11.89
11/14/2021 8:00:00 PM 5.44 41.792 0.069 7.06 2.11 11.9
11/14/2021 8:15:00 PM 5.41 41.738 0.069 7 2.17 11.92
11/14/2021 8:30:00 PM 5.38 41.684 0.069 7.07 2.2 11.93
11/14/2021 8:45:00 PM 5.36 41.648 0.069 7.05 2.03 11.94
11/14/2021 9:00:00 PM 5.34 41.612 0.069 7.07 2.06 11.94
11/14/2021 9:15:00 PM 5.33 41.594 0.069 7.06 2.03 11.95
11/14/2021 9:30:00 PM 5.32 41.576 0.069 7.06 2.03 11.95
11/14/2021 9:45:00 PM 5.31 41.558 0.069 7.07 1.94 11.96
11/14/2021 10:00:00 PM 5.3 41.54 0.069 7.06 2.03 11.95
11/14/2021 10:15:00 PM 5.3 41.54 0.069 7.07 2.14 11.96
11/14/2021 10:30:00 PM 5.3 41.54 0.069 7.07 2.07 11.96
11/14/2021 10:45:00 PM 5.29 41.522 0.07 7.07 2 11.96
11/14/2021 11:00:00 PM 5.28 41.504 0.07 7.07 2.03 11.96
11/14/2021 11:15:00 PM 5.28 41.504 0.07 7.07 2.02 11.96
11/14/2021 11:30:00 PM 5.29 41.522 0.07 7.05 1.99 11.96
11/14/2021 11:45:00 PM 5.29 41.522 0.07 7.06 2.24 11.96
11/15/2021 12:00:00 AM 5.29 41.522 0.07 7.07 2.04 11.96
11/15/2021 12:15:00 AM 5.29 41.522 0.07 7.07 2.07 11.96
11/15/2021 12:30:00 AM 5.29 41.522 0.07 7.07 2 11.96
11/15/2021 12:45:00 AM 5.29 41.522 0.07 7.03 2.19 11.96
11/15/2021 1:00:00 AM 5.29 41.522 0.07 7.07 2.06 11.96
11/15/2021 1:15:00 AM 5.29 41.522 0.07 7.06 2.04 11.96
11/15/2021 1:30:00 AM 5.28 41.504 0.07 7.07 2.01 11.96
11/15/2021 1:45:00 AM 5.28 41.504 0.07 7.07 2.13 11.95
11/15/2021 2:00:00 AM 5.28 41.504 0.07 7.06 2.07 11.96
11/15/2021 2:15:00 AM 5.28 41.504 0.07 7.06 2.12 11.96
11/15/2021 2:30:00 AM 5.28 41.504 0.07 7.04 2.15 11.96
11/15/2021 2:45:00 AM 5.28 41.504 0.07 7.07 2.13 11.96
11/15/2021 3:00:00 AM 5.28 41.504 0.07 7.07 2.05 11.96
11/15/2021 3:15:00 AM 5.28 41.504 0.07 7.06 2.07 11.96
11/15/2021 3:30:00 AM 5.27 41.486 0.07 7.06 2.67 11.96
11/15/2021 3:45:00 AM 5.27 41.486 0.07 7.07 2.08 11.96
11/15/2021 4:00:00 AM 5.27 41.486 0.07 7.07 2.1 11.96
11/15/2021 4:15:00 AM 5.25 41.45 0.07 7.07 2.07 11.97
11/15/2021 4:30:00 AM 5.25 41.45 0.07 7.07 2.08 11.97
11/15/2021 4:45:00 AM 5.25 41.45 0.07 7.06 2 11.96
11/15/2021 5:00:00 AM 5.25 41.45 0.07 7.07 1.97 11.97
11/15/2021 5:15:00 AM 5.24 41.432 0.07 7.06 2.07 11.97
11/15/2021 5:30:00 AM 5.24 41.432 0.07 7.07 2.16 11.97
11/15/2021 5:45:00 AM 5.23 41.414 0.07 7.06 2.04 11.98
11/15/2021 6:00:00 AM 5.22 41.396 0.07 7.06 2.15 11.98
11/15/2021 6:15:00 AM 5.22 41.396 0.07 7.02 2.11 11.99
11/15/2021 6:30:00 AM 5.19 41.342 0.07 7.07 2.11 11.99
11/15/2021 6:45:00 AM 5.18 41.324 0.07 7.06 2.07 11.99
11/15/2021 7:00:00 AM 5.17 41.306 0.07 7.05 2.08 12
11/15/2021 7:15:00 AM 5.16 41.288 0.07 7.02 1.97 12.01
11/15/2021 7:30:00 AM 5.16 41.288 0.07 7.05 2.11 12.01
11/15/2021 7:45:00 AM 5.16 41.288 0.07 7.07 2.19 12.01
11/15/2021 8:00:00 AM 5.17 41.306 0.07 7.06 2.05 12.02
11/15/2021 8:15:00 AM 5.17 41.306 0.07 7.07 2 12.03
11/15/2021 8:30:00 AM 5.17 41.306 0.07 7.06 2.04 12.05
11/15/2021 8:45:00 AM 5.17 41.306 0.07 7.06 2.09 12.07
11/15/2021 9:00:00 AM 5.15 41.27 0.07 7.08 1.97 12.1
11/15/2021 9:15:00 AM 5.13 41.234 0.069 7.09 2.02 12.15
11/15/2021 9:30:00 AM 5.15 41.27 0.069 7.1 2.05